Provisional Data: South Branch Codorus Creek near Leader Heights, PA


Please select a monitoring station.
Please select start date.
Please select start date.

Toggle Unit: C/F Toggle Unit: C/F
Sample Time Temperature (C) Temperature (F) Specific Conductivity (mS/cm) pH   Turbidity (NTU+) DO (mg/L)
8/9/2021 12:00:00 AM 24.81 76.658 0.267 7.32 14.71 6.19
8/9/2021 12:15:00 AM 24.77 76.586 0.267 7.31 15.5 6.18
8/9/2021 12:30:00 AM 24.71 76.478 0.268 7.31 15.87 6.18
8/9/2021 12:45:00 AM 24.66 76.388 0.27 7.31 18.48 6.22
8/9/2021 1:00:00 AM 24.62 76.316 0.269 7.3 15.07 6.21
8/9/2021 1:15:00 AM 24.59 76.262 0.269 7.3 18 6.25
8/9/2021 1:30:00 AM 24.56 76.208 0.268 7.3 16.97 6.28
8/9/2021 1:45:00 AM 24.53 76.154 0.268 7.3 16.68 6.26
8/9/2021 2:00:00 AM 24.5 76.1 0.267 7.3 17.79 6.28
8/9/2021 2:15:00 AM 24.48 76.064 0.266 7.29 12.54 6.25
8/9/2021 2:30:00 AM 24.45 76.01 0.266 7.29 12.75 6.27
8/9/2021 2:45:00 AM 24.42 75.956 0.266 7.29 14.07 6.26
8/9/2021 3:00:00 AM 24.34 75.812 0.268 7.28 22.41 6.28
8/9/2021 3:15:00 AM 24.31 75.758 0.269 7.28 17.82 6.3
8/9/2021 3:30:00 AM 24.28 75.704 0.269 7.28 18.08 6.3
8/9/2021 3:45:00 AM 24.27 75.686 0.268 7.28 20.33 6.33
8/9/2021 4:00:00 AM 24.23 75.614 0.268 7.29 13.52 6.36
8/9/2021 4:15:00 AM 24.25 75.65 0.266 7.28 24.73 6.36
8/9/2021 4:30:00 AM 24.26 75.668 0.266 7.28 15.97 6.36
8/9/2021 4:45:00 AM 24.27 75.686 0.265 7.28 19.37 6.37
8/9/2021 5:00:00 AM 24.25 75.65 0.266 7.28 29.86 6.36
8/9/2021 5:15:00 AM 24.19 75.542 0.268 7.28 14.98 6.37
8/9/2021 5:30:00 AM 24.12 75.416 0.269 7.28 15.05 6.31
8/9/2021 5:45:00 AM 24.07 75.326 0.269 7.27 17.78 6.27
8/9/2021 6:00:00 AM 24.05 75.29 0.269 7.26 16.48 6.23
8/9/2021 6:15:00 AM 24.03 75.254 0.268 7.26 18.15 6.18
8/9/2021 6:30:00 AM 23.99 75.182 0.268 7.25 16.75 6.17
8/9/2021 6:45:00 AM 24.02 75.236 0.267 7.25 17.4 6.1
8/9/2021 7:00:00 AM 24.02 75.236 0.266 7.24 13.45 6.12
8/9/2021 7:15:00 AM 24.03 75.254 0.265 7.24 12.41 6.13
8/9/2021 7:30:00 AM 24.04 75.272 0.266 7.23 13.49 6.13
8/9/2021 7:45:00 AM 24.04 75.272 0.267 7.23 15.38 6.19
8/9/2021 8:00:00 AM 24.06 75.308 0.267 7.23 12.76 6.25
8/9/2021 8:15:00 AM 24.07 75.326 0.267 7.23 14.73 6.32
8/9/2021 8:30:00 AM 24.12 75.416 0.266 7.23 11.2 6.35
8/9/2021 8:45:00 AM 24.18 75.524 0.265 7.24 14.23 6.38
8/9/2021 9:00:00 AM 24.23 75.614 0.265 7.25 11.85 6.42
8/9/2021 9:15:00 AM 24.3 75.74 0.264 7.25 11.54 6.52
8/9/2021 9:30:00 AM 24.38 75.884 0.263 7.27 10.65 6.56
8/9/2021 9:45:00 AM 24.45 76.01 0.263 7.28 8.64 6.62
8/9/2021 10:00:00 AM 24.52 76.136 0.263 7.28 8.95 6.74
8/9/2021 10:15:00 AM 24.57 76.226 0.264 7.29 9.39 6.83
8/9/2021 10:30:00 AM 24.63 76.334 0.264 7.31 7.4 6.95
8/9/2021 10:45:00 AM 24.7 76.46 0.264 7.31 9.39 7.03
8/9/2021 11:00:00 AM 24.82 76.676 0.263 7.33 7.85 7.2
8/9/2021 11:15:00 AM 24.93 76.874 0.263 7.34 8.07 7.23
8/9/2021 11:30:00 AM 25.06 77.108 0.263 7.36 9.8 7.32
8/9/2021 11:45:00 AM 25.23 77.414 0.262 7.37 9.35 7.43
8/9/2021 12:00:00 PM 25.42 77.756 0.262 7.38 8.39 7.52
8/9/2021 12:15:00 PM 25.58 78.044 0.262 7.39 7.2 7.55
8/9/2021 12:30:00 PM 25.71 78.278 0.262 7.41 6.41 7.59
8/9/2021 12:45:00 PM 25.86 78.548 0.263 7.42 6.18 7.65
8/9/2021 1:00:00 PM 26.04 78.872 0.263 7.43 6.69 7.68
8/9/2021 1:15:00 PM 26.14 79.052 0.263 7.44 7.27 7.74
8/9/2021 1:30:00 PM 26.28 79.304 0.263 7.46 8.69 7.78
8/9/2021 1:45:00 PM 26.36 79.448 0.263 7.47 10.51 7.72
8/9/2021 2:00:00 PM 26.49 79.682 0.262 7.48 12.92 7.72
8/9/2021 2:15:00 PM 26.59 79.862 0.262 7.49 7.82 7.73
8/9/2021 2:30:00 PM 26.61 79.898 0.262 7.5 8.81 7.63
8/9/2021 2:45:00 PM 26.63 79.934 0.263 7.51 6.84 7.57
8/9/2021 3:00:00 PM 26.64 79.952 0.264 7.51 8.53 7.56
8/9/2021 3:15:00 PM 26.7 80.06 0.264 7.52 7.66 7.53
8/9/2021 3:30:00 PM 26.68 80.024 0.265 7.52 7.93 7.44
8/9/2021 3:45:00 PM 26.71 80.078 0.264 7.53 7.54 7.42
8/9/2021 4:00:00 PM 26.7 80.06 0.264 7.53 8.4 7.44
8/9/2021 4:15:00 PM 26.7 80.06 0.263 7.54 22.87 7.37
8/9/2021 4:30:00 PM 26.73 80.114 0.263 7.55 8.37 7.4
8/9/2021 4:45:00 PM 26.71 80.078 0.263 7.55 7.28 7.33
8/9/2021 5:00:00 PM 26.67 80.006 0.263 7.55 7.51 7.25
8/9/2021 5:15:00 PM 26.6 79.88 0.265 7.55 8.88 7.18
8/9/2021 5:30:00 PM 26.53 79.754 0.266 7.55 8.16 7.1
8/9/2021 5:45:00 PM 26.46 79.628 0.267 7.54 9.85 6.97
8/9/2021 6:00:00 PM 26.38 79.484 0.267 7.53 7.24 6.87
8/9/2021 6:15:00 PM 26.3 79.34 0.267 7.52 8.3 6.75
8/9/2021 6:30:00 PM 26.23 79.214 0.266 7.51 11.03 6.68
8/9/2021 6:45:00 PM 26.17 79.106 0.265 7.5 8.08 6.59
8/9/2021 7:00:00 PM 26.12 79.016 0.265 7.48 9.79 6.54
8/9/2021 7:15:00 PM 26.08 78.944 0.265 7.47 13.26 6.49
8/9/2021 7:30:00 PM 26.01 78.818 0.265 7.46 9.84 6.43
8/9/2021 7:45:00 PM 25.96 78.728 0.266 7.45 11.07 6.4
8/9/2021 8:00:00 PM 25.92 78.656 0.267 7.44 9.9 6.34
8/9/2021 8:15:00 PM 25.89 78.602 0.267 7.43 13.54 6.33
8/9/2021 8:30:00 PM 25.85 78.53 0.267 7.42 12.73 6.26
8/9/2021 8:45:00 PM 25.82 78.476 0.267 7.41 12.85 6.22
8/9/2021 9:00:00 PM 25.78 78.404 0.266 7.4 12.26 6.17
8/9/2021 9:15:00 PM 25.75 78.35 0.266 7.39 13.92 6.1
8/9/2021 9:30:00 PM 25.71 78.278 0.266 7.38 15.03 6.08
8/9/2021 9:45:00 PM 25.68 78.224 0.266 7.37 14.95 6.01
8/9/2021 10:00:00 PM 25.64 78.152 0.266 7.35 16.9 5.95
8/9/2021 10:15:00 PM 25.59 78.062 0.267 7.34 17.97 5.9
8/9/2021 10:30:00 PM 25.54 77.972 0.268 7.33 13.94 5.86
8/9/2021 10:45:00 PM 25.49 77.882 0.268 7.31 15.4 5.87
8/9/2021 11:00:00 PM 25.45 77.81 0.268 7.3 21.27 5.82
8/9/2021 11:15:00 PM 25.42 77.756 0.268 7.29 14.94 5.85
8/9/2021 11:30:00 PM 25.39 77.702 0.268 7.29 19.08 5.85
8/9/2021 11:45:00 PM 25.36 77.648 0.267 7.28 20.75 5.82
8/10/2021 12:00:00 AM 25.33 77.594 0.266 7.28 20.58 5.83
8/10/2021 12:15:00 AM 25.3 77.54 0.266 7.27 20.66 5.85
8/10/2021 12:30:00 AM 25.26 77.468 0.267 7.27 16.35 5.93
8/10/2021 12:45:00 AM 25.23 77.414 0.268 7.27 15.19 5.98
8/10/2021 1:00:00 AM 25.2 77.36 0.269 7.27 16.6 6.01
8/10/2021 1:15:00 AM 25.18 77.324 0.268 7.27 21.02 6.02
8/10/2021 1:30:00 AM 25.16 77.288 0.267 7.27 16.06 6.06
8/10/2021 1:45:00 AM 25.14 77.252 0.267 7.28 18.71 6.08
8/10/2021 2:00:00 AM 25.12 77.216 0.266 7.28 16.92 6.08
8/10/2021 2:15:00 AM 25.09 77.162 0.266 7.27 15.05 6.07
8/10/2021 2:30:00 AM 25.07 77.126 0.266 7.27 16.11 6.06
8/10/2021 2:45:00 AM 25.05 77.09 0.266 7.27 15.85 6.05
8/10/2021 3:00:00 AM 24.99 76.982 0.268 7.27 13.99 6.07
8/10/2021 3:15:00 AM 24.94 76.892 0.269 7.26 19.17 6.03
8/10/2021 3:30:00 AM 24.91 76.838 0.27 7.26 19.17 5.94
8/10/2021 3:45:00 AM 24.88 76.784 0.269 7.25 16.75 5.88
8/10/2021 4:00:00 AM 24.85 76.73 0.269 7.24 19.48 5.85
8/10/2021 4:15:00 AM 24.83 76.694 0.268 7.23 21.86 5.85
8/10/2021 4:30:00 AM 24.82 76.676 0.268 7.23 18.4 5.83
8/10/2021 4:45:00 AM 24.81 76.658 0.267 7.22 18.76 5.8
8/10/2021 5:00:00 AM 24.78 76.604 0.267 7.21 16.39 5.83
8/10/2021 5:15:00 AM 24.75 76.55 0.268 7.21 21.05 5.81
8/10/2021 5:30:00 AM 24.71 76.478 0.269 7.21 16.24 5.9
8/10/2021 5:45:00 AM 24.68 76.424 0.269 7.2 29.79 5.93
8/10/2021 6:00:00 AM 24.67 76.406 0.269 7.2 26.39 5.97
8/10/2021 6:15:00 AM 24.68 76.424 0.268 7.2 18.34 6
8/10/2021 6:30:00 AM 24.68 76.424 0.267 7.21 19.85 6.03
8/10/2021 6:45:00 AM 24.7 76.46 0.267 7.21 14.76 6.06
8/10/2021 7:00:00 AM 24.72 76.496 0.266 7.21 15.8 6.07
8/10/2021 7:15:00 AM 24.75 76.55 0.265 7.21 16.97 6.06
8/10/2021 7:30:00 AM 24.77 76.586 0.265 7.22 15.7 6.08
8/10/2021 7:45:00 AM 24.76 76.568 0.267 7.21 15.1 6.18
8/10/2021 8:00:00 AM 24.78 76.604 0.267 7.21 14.83 6.18
8/10/2021 8:15:00 AM 24.8 76.64 0.267 7.22 14.63 6.23
8/10/2021 8:30:00 AM 24.84 76.712 0.266 7.22 14.4 6.25
8/10/2021 8:45:00 AM 24.9 76.82 0.266 7.22 17.37 6.29
8/10/2021 9:00:00 AM 24.96 76.92799 0.265 7.22 13.93 6.35
8/10/2021 9:15:00 AM 25.03 77.054 0.264 7.23 14.29 6.45
8/10/2021 9:30:00 AM 25.13 77.234 0.264 7.24 17.46 6.55
8/10/2021 9:45:00 AM 25.26 77.468 0.263 7.24 13.64 6.65
8/10/2021 10:00:00 AM 25.33 77.594 0.263 7.25 11.13 6.73
8/10/2021 10:15:00 AM 25.39 77.702 0.264 7.26 12.62 6.84
8/10/2021 10:30:00 AM 25.47 77.846 0.264 7.27 12.22 6.91
8/10/2021 10:45:00 AM 25.58 78.044 0.264 7.28 14.34 7
8/10/2021 11:00:00 AM 25.66 78.188 0.264 7.29 11.09 7.03
8/10/2021 11:15:00 AM 25.79 78.422 0.263 7.3 16.73 7.11
8/10/2021 11:30:00 AM 25.88 78.584 0.263 7.31 18.59 7.16
8/10/2021 11:45:00 AM 25.99 78.782 0.263 7.31 12.16 7.22
8/10/2021 12:00:00 PM 26.13 79.034 0.262 7.32 9.32 7.24
8/10/2021 12:15:00 PM 26.28 79.304 0.262 7.33 11.85 7.29
8/10/2021 12:30:00 PM 26.42 79.556 0.263 7.33 10.38 7.36
8/10/2021 12:45:00 PM 26.53 79.754 0.263 7.35 9.87 7.4
8/10/2021 1:00:00 PM 26.65 79.97 0.264 7.35 9.53 7.37
8/10/2021 1:15:00 PM 26.76 80.168 0.264 7.36 12.76 7.44
8/10/2021 1:30:00 PM 26.83 80.294 0.264 7.37 12.35 7.39
8/10/2021 1:45:00 PM 26.93 80.474 0.263 7.37 10.87 7.4
8/10/2021 2:00:00 PM 27.03 80.654 0.263 7.38 12.82 7.39
8/10/2021 2:15:00 PM 27.11 80.798 0.262 7.39 10.58 7.34
8/10/2021 2:30:00 PM 27.2 80.96 0.261 7.39 10 7.36
8/10/2021 2:45:00 PM 27.26 81.068 0.261 7.4 10.89 7.32
8/10/2021 3:00:00 PM 27.29 81.122 0.262 7.4 12.88 7.29
8/10/2021 3:15:00 PM 27.33 81.194 0.263 7.41 11.67 7.33
8/10/2021 3:30:00 PM 27.29 81.122 0.263 7.42 11.47 7.26
8/10/2021 3:45:00 PM 27.29 81.122 0.266 7.43 10.83 7.21
8/10/2021 4:00:00 PM 27.31 81.158 0.266 7.44 9.84 7.25
8/10/2021 4:15:00 PM 27.28 81.104 0.266 7.44 10.59 7.18
8/10/2021 4:30:00 PM 27.23 81.014 0.265 7.44 10.9 7.08
8/10/2021 4:45:00 PM 27.2 80.96 0.265 7.45 11.93 7.07
8/10/2021 5:00:00 PM 27.14 80.852 0.265 7.45 12.32 6.97
8/10/2021 5:15:00 PM 27.08 80.744 0.266 7.45 11.42 6.86
8/10/2021 5:30:00 PM 27.02 80.636 0.267 7.44 12.12 6.77
8/10/2021 5:45:00 PM 26.96 80.528 0.268 7.43 10.86 6.67
8/10/2021 6:00:00 PM 26.89 80.402 0.268 7.43 8.81 6.6
8/10/2021 6:15:00 PM 26.84 80.312 0.268 7.42 9.78 6.52
8/10/2021 6:30:00 PM 26.73 80.114 0.267 7.41 9.6 6.43
8/10/2021 6:45:00 PM 26.53 79.754 0.265 7.41 10.49 6.37
8/10/2021 7:00:00 PM 26.37 79.466 0.263 7.4 10.96 6.41
8/10/2021 7:15:00 PM 26.21 79.17799 0.261 7.39 10.96 6.28
8/10/2021 7:30:00 PM 26.11 78.998 0.261 7.38 14.2 6.12
8/10/2021 7:45:00 PM 26.02 78.836 0.263 7.36 20.17 5.95
8/10/2021 8:00:00 PM 25.96 78.728 0.265 7.34 10.83 5.82
8/10/2021 8:15:00 PM 25.91 78.638 0.266 7.32 14.18 5.72
8/10/2021 8:30:00 PM 25.84 78.512 0.266 7.31 18.83 5.68
8/10/2021 8:45:00 PM 25.68 78.224 0.271 7.29 59.05 5.58
8/10/2021 9:00:00 PM 25.23 77.414 0.291 7.27 194.1 5.86
8/10/2021 9:15:00 PM 25.03 77.054 0.27 7.26 263.7 6.05
8/10/2021 9:30:00 PM 25.04 77.07201 0.264 7.25 338.8 6.07
8/10/2021 9:45:00 PM 25.09 77.162 0.261 7.25 266.6 6.03
8/10/2021 10:00:00 PM 25.15 77.27 0.255 7.24 223.3 6.01
8/10/2021 10:15:00 PM 25.21 77.378 0.25 7.24 172 6
8/10/2021 10:30:00 PM 25.26 77.468 0.249 7.24 135.6 5.99
8/10/2021 10:45:00 PM 25.31 77.558 0.249 7.23 93.48 5.95
8/10/2021 11:00:00 PM 25.35 77.63 0.251 7.23 69.34 5.93
8/10/2021 11:15:00 PM 25.37 77.666 0.253 7.23 61.24 5.95
8/10/2021 11:30:00 PM 25.37 77.666 0.254 7.23 46.45 5.93
8/10/2021 11:45:00 PM 25.34 77.612 0.256 7.22 43.67 5.85
8/11/2021 12:00:00 AM 25.3 77.54 0.259 7.21 38.64 5.77
8/11/2021 12:15:00 AM 25.26 77.468 0.26 7.2 38.33 5.66
8/11/2021 12:30:00 AM 25.2 77.36 0.262 7.19 42.95 5.58
8/11/2021 12:45:00 AM 25.16 77.288 0.262 7.18 29.75 5.55
8/11/2021 1:00:00 AM 25.13 77.234 0.263 7.17 33.08 5.6
8/11/2021 1:15:00 AM 25.1 77.18 0.264 7.17 29.55 5.71
8/11/2021 1:30:00 AM 25.07 77.126 0.266 7.17 32.61 5.8
8/11/2021 1:45:00 AM 25.04 77.07201 0.267 7.18 31.45 5.9
8/11/2021 2:00:00 AM 25 77 0.268 7.18 32.9 5.98
8/11/2021 2:15:00 AM 24.95 76.91 0.269 7.19 35.29 6.09
8/11/2021 2:30:00 AM 24.89 76.802 0.27 7.2 36.43 6.15
8/11/2021 2:45:00 AM 24.84 76.712 0.27 7.21 45.41 6.24
8/11/2021 3:00:00 AM 24.79 76.622 0.271 7.22 75.45 6.32
8/11/2021 3:15:00 AM 24.76 76.568 0.271 7.23 60.94 6.38
8/11/2021 3:30:00 AM 24.76 76.568 0.271 7.24 69 6.39
8/11/2021 3:45:00 AM 24.78 76.604 0.27 7.25 59.41 6.41
8/11/2021 4:00:00 AM 24.81 76.658 0.27 7.26 55.75 6.44
8/11/2021 4:15:00 AM 24.84 76.712 0.271 7.27 59.57 6.48
8/11/2021 4:30:00 AM 24.88 76.784 0.271 7.28 82.36 6.5
8/11/2021 4:45:00 AM 24.94 76.892 0.272 7.29 88.69 6.51
8/11/2021 5:00:00 AM 24.98 76.964 0.273 7.29 83.69 6.47
8/11/2021 5:15:00 AM 24.99 76.982 0.273 7.3 74.01 6.45
8/11/2021 5:30:00 AM 24.98 76.964 0.273 7.3 82.05 6.41
8/11/2021 5:45:00 AM 24.93 76.874 0.273 7.31 74.58 6.38
8/11/2021 6:00:00 AM 24.86 76.748 0.272 7.31 71.83 6.35
8/11/2021 6:15:00 AM 24.79 76.622 0.27 7.31 70.18 6.31
8/11/2021 6:30:00 AM 24.71 76.478 0.269 7.31 84.83 6.34
8/11/2021 6:45:00 AM 24.63 76.334 0.268 7.31 73.01 6.3
8/11/2021 7:00:00 AM 24.56 76.208 0.269 7.32 69.76 6.36
8/11/2021 7:15:00 AM 24.52 76.136 0.269 7.32 74.1 6.36
8/11/2021 7:30:00 AM 24.5 76.1 0.269 7.32 55.35 6.38
8/11/2021 7:45:00 AM 24.5 76.1 0.269 7.32 58.57 6.4
8/11/2021 8:00:00 AM 24.5 76.1 0.27 7.33 54.66 6.47
8/11/2021 8:15:00 AM 24.53 76.154 0.269 7.33 61.76 6.48
8/11/2021 8:30:00 AM 24.57 76.226 0.269 7.33 43.29 6.52
8/11/2021 8:45:00 AM 24.59 76.262 0.269 7.34 37.72 6.55
8/11/2021 9:00:00 AM 24.63 76.334 0.269 7.34 36.67 6.61
8/11/2021 9:15:00 AM 24.66 76.388 0.269 7.35 29.12 6.73
8/11/2021 9:30:00 AM 24.71 76.478 0.269 7.36 38.67 6.8
8/11/2021 9:45:00 AM 24.79 76.622 0.269 7.36 25.01 6.9
8/11/2021 10:00:00 AM 24.87 76.766 0.268 7.37 41.98 6.97
8/11/2021 10:15:00 AM 24.96 76.92799 0.268 7.38 30.3 7.03
8/11/2021 10:30:00 AM 25.08 77.144 0.267 7.39 29.15 7.07
8/11/2021 10:45:00 AM 25.21 77.378 0.266 7.4 30.46 7.13
8/11/2021 11:00:00 AM 25.34 77.612 0.265 7.4 18.33 7.18
8/11/2021 11:15:00 AM 25.49 77.882 0.264 7.41 22.71 7.19
8/11/2021 11:30:00 AM 25.65 78.17 0.264 7.42 20.09 7.22
8/11/2021 11:45:00 AM 25.81 78.458 0.263 7.42 20.53 7.31
8/11/2021 12:00:00 PM 25.95 78.71 0.263 7.44 15.6 7.31
8/11/2021 12:15:00 PM 26.09 78.962 0.263 7.44 19.05 7.4
8/11/2021 12:30:00 PM 26.25 79.25 0.262 7.45 14.09 7.41
8/11/2021 12:45:00 PM 26.42 79.556 0.261 7.46 16.4 7.43
8/11/2021 1:00:00 PM 26.57 79.826 0.261 7.47 16.27 7.45
8/11/2021 1:15:00 PM 26.72 80.096 0.26 7.47 17.57 7.46
8/11/2021 1:30:00 PM 26.86 80.348 0.259 7.48 16.28 7.49
8/11/2021 1:45:00 PM 26.99 80.582 0.259 7.48 17.4 7.46
8/11/2021 2:00:00 PM 27.11 80.798 0.259 7.48 16.54 7.46
8/11/2021 2:15:00 PM 27.2 80.96 0.259 7.48 14.34 7.42
8/11/2021 2:30:00 PM 27.27 81.086 0.26 7.49 16.16 7.44
8/11/2021 2:45:00 PM 27.33 81.194 0.26 7.49 14.02 7.43
8/11/2021 3:00:00 PM 27.39 81.302 0.26 7.5 11.91 7.4
8/11/2021 3:15:00 PM 27.42 81.356 0.259 7.5 15.2 7.34
8/11/2021 3:30:00 PM 27.44 81.392 0.259 7.51 13.43 7.26
8/11/2021 3:45:00 PM 27.43 81.374 0.259 7.51 14.95 7.17
8/11/2021 4:00:00 PM 27.4 81.32 0.258 7.51 14.33 7.08
8/11/2021 4:15:00 PM 27.35 81.23 0.258 7.5 11.71 6.99
8/11/2021 4:30:00 PM 27.26 81.068 0.257 7.5 12.2 6.86
8/11/2021 4:45:00 PM 27.19 80.942 0.258 7.49 14.32 6.77
8/11/2021 5:00:00 PM 27.11 80.798 0.258 7.48 15.38 6.72
8/11/2021 5:15:00 PM 27.04 80.672 0.258 7.47 15.14 6.62
8/11/2021 5:30:00 PM 26.91 80.438 0.255 7.46 13.05 6.61
8/11/2021 5:45:00 PM 26.67 80.006 0.248 7.45 21.96 6.66
8/11/2021 6:00:00 PM 26.52 79.736 0.244 7.44 24.18 6.65
8/11/2021 6:15:00 PM 26.39 79.502 0.241 7.42 30.87 6.54
8/11/2021 6:30:00 PM 26.31 79.358 0.24 7.41 29.97 6.41
8/11/2021 6:45:00 PM 26.24 79.232 0.241 7.39 29.71 6.31
8/11/2021 7:00:00 PM 26.08 78.944 0.245 7.37 41.84 6.2
8/11/2021 7:15:00 PM 25.85 78.53 0.257 7.35 81.91 6.09
8/11/2021 7:30:00 PM 25.61 78.098 0.255 7.34 106.2 6.21
8/11/2021 7:45:00 PM 25.57 78.026 0.242 7.33 102.1 6.2
8/11/2021 8:00:00 PM 25.63 78.134 0.229 7.31 102.2 6.07
8/11/2021 8:15:00 PM 25.69 78.242 0.224 7.29 85.09 6.07
8/11/2021 8:30:00 PM 25.73 78.314 0.224 7.28 85.11 6.08
8/11/2021 8:45:00 PM 25.73 78.314 0.227 7.27 45.95 6.05
8/11/2021 9:00:00 PM 25.72 78.296 0.231 7.27 43.46 6.04
8/11/2021 9:15:00 PM 25.69 78.242 0.235 7.26 41.33 6.08
8/11/2021 9:30:00 PM 25.67 78.206 0.239 7.26 39.01 6.08
8/11/2021 9:45:00 PM 25.64 78.152 0.242 7.27 33.56 6.11
8/11/2021 10:00:00 PM 25.6 78.08 0.244 7.27 38.77 6.14
8/11/2021 10:15:00 PM 25.58 78.044 0.245 7.27 36.07 6.16
8/11/2021 10:30:00 PM 25.54 77.972 0.247 7.27 32.37 6.13
8/11/2021 10:45:00 PM 25.44 77.792 0.25 7.26 28.74 5.93
8/11/2021 11:00:00 PM 25.31 77.558 0.253 7.23 34.71 5.74
8/11/2021 11:15:00 PM 25.2 77.36 0.255 7.21 32.13 5.56
8/11/2021 11:30:00 PM 25.12 77.216 0.256 7.18 30.3 5.46
8/11/2021 11:45:00 PM 25.08 77.144 0.256 7.17 35.74 5.42
8/12/2021 12:00:00 AM 25.07 77.126 0.256 7.16 31.31 5.38
8/12/2021 12:15:00 AM 25.07 77.126 0.255 7.15 29.63 5.43
8/12/2021 12:30:00 AM 25.08 77.144 0.254 7.15 26.91 5.48
8/12/2021 12:45:00 AM 25.08 77.144 0.254 7.15 30.36 5.52
8/12/2021 1:00:00 AM 25.07 77.126 0.254 7.15 25.86 5.57
8/12/2021 1:15:00 AM 25.06 77.108 0.254 7.16 27.63 5.57
8/12/2021 1:30:00 AM 25.04 77.07201 0.255 7.16 26.92 5.62
8/12/2021 1:45:00 AM 25.01 77.018 0.255 7.16 21.69 5.69
8/12/2021 2:00:00 AM 25 77 0.256 7.17 29.78 5.73
8/12/2021 2:15:00 AM 24.98 76.964 0.256 7.18 22.18 5.73
8/12/2021 2:30:00 AM 24.98 76.964 0.255 7.19 25.71 5.79
8/12/2021 2:45:00 AM 24.98 76.964 0.255 7.19 27.98 5.79
8/12/2021 3:00:00 AM 24.99 76.982 0.255 7.19 28.38 5.79
8/12/2021 3:15:00 AM 25 77 0.254 7.2 21.26 5.81
8/12/2021 3:30:00 AM 25.01 77.018 0.253 7.2 25.1 5.79
8/12/2021 3:45:00 AM 25.02 77.036 0.254 7.2 23.41 5.76
8/12/2021 4:00:00 AM 25.01 77.018 0.254 7.2 27.77 5.74
8/12/2021 4:15:00 AM 24.97 76.946 0.255 7.2 32.27 5.7
8/12/2021 4:30:00 AM 24.91 76.838 0.256 7.19 24.08 5.58
8/12/2021 4:45:00 AM 24.85 76.73 0.257 7.18 34.9 5.53
8/12/2021 5:00:00 AM 24.82 76.676 0.257 7.17 30 5.48
8/12/2021 5:15:00 AM 24.8 76.64 0.257 7.16 24.21 5.47
8/12/2021 5:30:00 AM 24.79 76.622 0.256 7.15 27.24 5.39
8/12/2021 5:45:00 AM 24.8 76.64 0.256 7.15 28.58 5.46
8/12/2021 6:00:00 AM 24.8 76.64 0.255 7.15 30.51 5.49
8/12/2021 6:15:00 AM 24.81 76.658 0.255 7.15 26.63 5.5
8/12/2021 6:30:00 AM 24.82 76.676 0.255 7.15 31.95 5.57
8/12/2021 6:45:00 AM 24.81 76.658 0.255 7.16 34.63 5.65
8/12/2021 7:00:00 AM 24.8 76.64 0.256 7.16 38.01 5.71
8/12/2021 7:15:00 AM 24.8 76.64 0.256 7.17 27.7 5.75
8/12/2021 7:30:00 AM 24.82 76.676 0.255 7.17 22.79 5.83
8/12/2021 7:45:00 AM 24.84 76.712 0.254 7.17 22.88 5.84
8/12/2021 8:00:00 AM 24.88 76.784 0.252 7.18 22.68 5.93
8/12/2021 8:15:00 AM 24.92 76.856 0.251 7.18 20.73 5.98
8/12/2021 8:30:00 AM 24.97 76.946 0.251 7.19 19.99 6.04
8/12/2021 8:45:00 AM 25.03 77.054 0.25 7.19 18.28 6.12
8/12/2021 9:00:00 AM 25.1 77.18 0.25 7.2 17.98 6.17
8/12/2021 9:15:00 AM 25.16 77.288 0.25 7.2 15.13 6.28
8/12/2021 9:30:00 AM 25.23 77.414 0.25 7.21 16.78 6.3
8/12/2021 9:45:00 AM 25.32 77.576 0.25 7.22 12.15 6.35
8/12/2021 10:00:00 AM 25.42 77.756 0.249 7.22 14.88 6.4
8/12/2021 10:15:00 AM 25.54 77.972 0.249 7.22 14.53 6.44
8/12/2021 10:30:00 AM 25.66 78.188 0.249 7.23 14.89 6.46
8/12/2021 10:45:00 AM 25.79 78.422 0.248 7.23 14.26 6.51
8/12/2021 11:00:00 AM 25.94 78.692 0.248 7.24 15.94 6.6
8/12/2021 11:15:00 AM 26.07 78.926 0.248 7.25 11.48 6.63
8/12/2021 11:30:00 AM 26.23 79.214 0.248 7.26 14.02 6.71
8/12/2021 11:45:00 AM 26.35 79.43 0.249 7.26 11.58 6.77
8/12/2021 12:00:00 PM 26.48 79.664 0.249 7.26 12.15 6.86
8/12/2021 12:15:00 PM 26.63 79.934 0.25 7.27 14.65 6.91
8/12/2021 12:30:00 PM 26.79 80.222 0.249 7.29 11.43 6.97
8/12/2021 12:45:00 PM 26.94 80.492 0.249 7.29 10.38 7.04
8/12/2021 1:00:00 PM 27.09 80.762 0.249 7.3 10.54 7.1
8/12/2021 1:15:00 PM 27.23 81.014 0.249 7.31 8.07 7.09
8/12/2021 1:30:00 PM 27.35 81.23 0.249 7.32 9.57 7.15
8/12/2021 1:45:00 PM 27.47 81.446 0.249 7.33 9.88 7.19
8/12/2021 2:00:00 PM 27.56 81.608 0.25 7.33 12.18 7.15
8/12/2021 2:15:00 PM 27.64 81.752 0.251 7.34 10.11 7.2
8/12/2021 2:30:00 PM 27.67 81.806 0.252 7.35 10.86 7.2
8/12/2021 2:45:00 PM 27.71 81.878 0.252 7.36 8.97 7.2
8/12/2021 3:00:00 PM 27.75 81.95 0.252 7.36 9.93 7.13
8/12/2021 3:15:00 PM 27.79 82.022 0.252 7.37 11.71 7.09
8/12/2021 3:30:00 PM 27.83 82.094 0.251 7.38 10.4 7.09
8/12/2021 3:45:00 PM 27.81 82.058 0.251 7.38 9.77 6.99
8/12/2021 4:00:00 PM 27.75 81.95 0.251 7.38 8.96 6.87
8/12/2021 4:15:00 PM 27.68 81.824 0.253 7.38 11.38 6.81
8/12/2021 4:30:00 PM 27.63 81.734 0.253 7.38 9.48 6.77
8/12/2021 4:45:00 PM 27.57 81.626 0.255 7.38 9.41 6.66
8/12/2021 5:00:00 PM 27.48 81.464 0.256 7.37 12.03 6.61
8/12/2021 5:15:00 PM 27.42 81.356 0.257 7.37 11.46 6.52
8/12/2021 5:30:00 PM 27.35 81.23 0.257 7.36 11.78 6.44
8/12/2021 5:45:00 PM 27.29 81.122 0.257 7.35 11.18 6.34
8/12/2021 6:00:00 PM 27.25 81.05 0.257 7.34 9.6 6.21
8/12/2021 6:15:00 PM 27.18 80.924 0.257 7.33 11.13 6.07
8/12/2021 6:30:00 PM 27.13 80.834 0.256 7.31 11.71 6.04
8/12/2021 6:45:00 PM 27.09 80.762 0.257 7.31 13.92 6
8/12/2021 7:00:00 PM 27.07 80.726 0.257 7.3 12.45 6.01
8/12/2021 7:15:00 PM 27.02 80.636 0.258 7.3 11.05 5.96
8/12/2021 7:30:00 PM 26.98 80.564 0.259 7.3 13.57 5.98
8/12/2021 7:45:00 PM 26.96 80.528 0.259 7.29 10.86 5.95
8/12/2021 8:00:00 PM 26.92 80.456 0.259 7.29 13.67 5.95
8/12/2021 8:15:00 PM 26.87 80.366 0.258 7.29 10.85 5.91
8/12/2021 8:30:00 PM 26.85 80.33 0.258 7.28 16.76 5.91
8/12/2021 8:45:00 PM 26.8 80.24 0.258 7.28 18.24 5.86
8/12/2021 9:00:00 PM 26.76 80.168 0.257 7.28 15.86 5.84
8/12/2021 9:15:00 PM 26.7 80.06 0.258 7.28 18.78 5.78
8/12/2021 9:30:00 PM 26.63 79.934 0.26 7.26 23.25 5.69
8/12/2021 9:45:00 PM 26.55 79.79 0.262 7.25 17.52 5.6
8/12/2021 10:00:00 PM 26.49 79.682 0.263 7.24 21.78 5.52
8/12/2021 10:15:00 PM 26.44 79.592 0.263 7.23 19.65 5.46
8/12/2021 10:30:00 PM 26.41 79.538 0.263 7.22 21.04 5.44
8/12/2021 10:45:00 PM 26.39 79.502 0.262 7.21 14.77 5.49
8/12/2021 11:00:00 PM 26.35 79.43 0.262 7.21 19.44 5.5
8/12/2021 11:15:00 PM 26.33 79.394 0.262 7.21 18.75 5.49
8/12/2021 11:30:00 PM 26.29 79.32201 0.261 7.21 20.85 5.5
8/12/2021 11:45:00 PM 26.28 79.304 0.261 7.21 19.82 5.56
8/13/2021 12:00:00 AM 26.21 79.17799 0.262 7.2 23.99 5.6
8/13/2021 12:15:00 AM 26.15 79.07 0.263 7.2 20.43 5.64
8/13/2021 12:30:00 AM 26.09 78.962 0.263 7.21 18.73 5.67
8/13/2021 12:45:00 AM 26.05 78.89 0.263 7.21 17.2 5.7
8/13/2021 1:00:00 AM 25.99 78.782 0.262 7.21 28.28 5.71
8/13/2021 1:15:00 AM 25.93 78.674 0.262 7.21 17.82 5.71
8/13/2021 1:30:00 AM 25.87 78.566 0.262 7.21 20.26 5.64
8/13/2021 1:45:00 AM 25.78 78.404 0.263 7.2 20.23 5.55
8/13/2021 2:00:00 AM 25.7 78.26 0.264 7.19 29.65 5.43
8/13/2021 2:15:00 AM 25.61 78.098 0.268 7.18 22.16 5.44
8/13/2021 2:30:00 AM 25.52 77.936 0.271 7.18 20.11 5.43
8/13/2021 2:45:00 AM 25.48 77.864 0.271 7.17 28.63 5.49
8/13/2021 3:00:00 AM 25.45 77.81 0.271 7.17 21.12 5.51
8/13/2021 3:15:00 AM 25.44 77.792 0.27 7.17 20.7 5.56
8/13/2021 3:30:00 AM 25.42 77.756 0.269 7.18 24.47 5.54
8/13/2021 3:45:00 AM 25.42 77.756 0.268 7.18 18.23 5.56
8/13/2021 4:00:00 AM 25.41 77.738 0.267 7.18 18.41 5.63
8/13/2021 4:15:00 AM 25.38 77.684 0.267 7.19 22.04 5.65
8/13/2021 4:30:00 AM 25.35 77.63 0.267 7.19 23.47 5.66
8/13/2021 4:45:00 AM 25.31 77.558 0.267 7.19 21.18 5.66
8/13/2021 5:00:00 AM 25.29 77.522 0.266 7.19 24.63 5.69
8/13/2021 5:15:00 AM 25.27 77.486 0.266 7.2 20.12 5.66
8/13/2021 5:30:00 AM 25.26 77.468 0.265 7.19 29.67 5.66
8/13/2021 5:45:00 AM 25.24 77.432 0.264 7.19 18.28 5.65
8/13/2021 6:00:00 AM 25.23 77.414 0.264 7.19 23.43 5.65
8/13/2021 6:15:00 AM 25.22 77.396 0.263 7.19 23.27 5.67
8/13/2021 6:30:00 AM 25.21 77.378 0.263 7.19 24.1 5.66
8/13/2021 6:45:00 AM 25.2 77.36 0.263 7.19 23.6 5.66
8/13/2021 7:00:00 AM 25.19 77.342 0.264 7.19 17.09 5.72
8/13/2021 7:15:00 AM 25.17 77.306 0.264 7.19 20.54 5.77
8/13/2021 7:30:00 AM 25.17 77.306 0.265 7.19 21.63 5.82
8/13/2021 7:45:00 AM 25.19 77.342 0.265 7.2 17 5.83
8/13/2021 8:00:00 AM 25.22 77.396 0.265 7.2 17.11 5.89
8/13/2021 8:15:00 AM 25.26 77.468 0.264 7.21 17.72 5.93
8/13/2021 8:30:00 AM 25.32 77.576 0.264 7.21 15.13 5.98
8/13/2021 8:45:00 AM 25.39 77.702 0.264 7.21 13.26 6.04
8/13/2021 9:00:00 AM 25.47 77.846 0.264 7.22 15.06 6.1
8/13/2021 9:15:00 AM 25.55 77.99 0.263 7.22 13.69 6.12
8/13/2021 9:30:00 AM 25.63 78.134 0.264 7.23 11.39 6.22
8/13/2021 9:45:00 AM 25.72 78.296 0.265 7.23 15.27 6.27
8/13/2021 10:00:00 AM 25.82 78.476 0.266 7.23 13.25 6.32
8/13/2021 10:15:00 AM 25.93 78.674 0.266 7.24 13.89 6.38
8/13/2021 10:30:00 AM 26.06 78.908 0.265 7.25 9.77 6.42
8/13/2021 10:45:00 AM 26.19 79.142 0.265 7.26 12.59 6.46
8/13/2021 11:00:00 AM 26.34 79.412 0.265 7.27 10.61 6.59
8/13/2021 11:15:00 AM 26.49 79.682 0.264 7.27 11.51 6.65
8/13/2021 11:30:00 AM 26.64 79.952 0.265 7.28 10.2 6.7
8/13/2021 11:45:00 AM 26.78 80.204 0.265 7.29 8.58 6.71
8/13/2021 12:00:00 PM 26.91 80.438 0.266 7.29 9.76 6.77
8/13/2021 12:15:00 PM 27.03 80.654 0.267 7.3 9 6.87
8/13/2021 12:30:00 PM 27.17 80.906 0.267 7.31 9.99 6.91
8/13/2021 12:45:00 PM 27.29 81.122 0.267 7.32 10.43 6.91
8/13/2021 1:00:00 PM 27.41 81.338 0.267 7.32 10.8 6.98
8/13/2021 1:15:00 PM 27.53 81.554 0.267 7.33 9.15 7
8/13/2021 1:30:00 PM 27.65 81.77 0.267 7.34 9.58 7.03
8/13/2021 1:45:00 PM 27.75 81.95 0.267 7.36 10.28 7.02
8/13/2021 2:00:00 PM 27.83 82.094 0.267 7.36 10.9 7.03
8/13/2021 2:15:00 PM 27.9 82.22 0.268 7.37 9.37 7.03
8/13/2021 2:30:00 PM 27.9 82.22 0.27 7.39 12.05 7.03
8/13/2021 2:45:00 PM 27.98 82.364 0.271 7.39 10.96 6.98
8/13/2021 3:00:00 PM 28.03 82.454 0.271 7.4 9.81 7.01
8/13/2021 3:15:00 PM 28.05 82.49 0.271 7.42 7.23 6.95
8/13/2021 3:30:00 PM 28.07 82.526 0.271 7.42 9.27 6.94
8/13/2021 3:45:00 PM 28.04 82.472 0.27 7.42 7.36 6.9
8/13/2021 4:00:00 PM 27.95 82.31 0.27 7.42 8.29 6.75
8/13/2021 4:15:00 PM 27.8 82.04 0.27 7.43 9.41 6.51
8/13/2021 4:30:00 PM 27.61 81.698 0.27 7.42 7.69 6.36
8/13/2021 4:45:00 PM 27.07 80.726 0.259 7.41 22.2 6.53
8/13/2021 5:00:00 PM 26.75 80.15 0.254 7.4 38.83 6.59
8/13/2021 5:15:00 PM 26.53 79.754 0.251 7.4 49.57 6.45
8/13/2021 5:30:00 PM 26.48 79.664 0.252 7.39 40.66 6.26
8/13/2021 5:45:00 PM 26.47 79.646 0.255 7.38 31.96 6.19
8/13/2021 6:00:00 PM 26.44 79.592 0.257 7.37 36.25 6.12
8/13/2021 6:15:00 PM 26.4 79.52 0.259 7.37 24.37 6.02
8/13/2021 6:30:00 PM 26.36 79.448 0.261 7.36 24.18 5.91
8/13/2021 6:45:00 PM 26.36 79.448 0.264 7.36 22.2 5.84
8/13/2021 7:00:00 PM 26.35 79.43 0.266 7.35 23.29 5.83
8/13/2021 7:15:00 PM 26.34 79.412 0.268 7.35 30.83 5.91
8/13/2021 7:30:00 PM 26.32 79.376 0.268 7.35 25.87 5.89
8/13/2021 7:45:00 PM 26.28 79.304 0.268 7.35 26.48 5.88
8/13/2021 8:00:00 PM 26.21 79.17799 0.268 7.34 27.16 5.84
8/13/2021 8:15:00 PM 26.17 79.106 0.268 7.34 36.37 5.83
8/13/2021 8:30:00 PM 26.1 78.98 0.267 7.34 22.32 5.8
8/13/2021 8:45:00 PM 26.05 78.89 0.266 7.33 31.16 5.81
8/13/2021 9:00:00 PM 26.01 78.818 0.266 7.33 22.93 5.82
8/13/2021 9:15:00 PM 25.95 78.71 0.265 7.33 29.28 5.78
8/13/2021 9:30:00 PM 25.84 78.512 0.265 7.32 31.36 5.6
8/13/2021 9:45:00 PM 25.72 78.296 0.265 7.29 32.08 5.37
8/13/2021 10:00:00 PM 25.58 78.044 0.265 7.27 40.59 5.19
8/13/2021 10:15:00 PM 25.5 77.9 0.263 7.25 48.55 5.09
8/13/2021 10:30:00 PM 25.43 77.774 0.263 7.23 50 5.05
8/13/2021 10:45:00 PM 25.39 77.702 0.262 7.21 50.43 5.08
8/13/2021 11:00:00 PM 25.35 77.63 0.261 7.21 59.76 5.07
8/13/2021 11:15:00 PM 25.32 77.576 0.261 7.21 56.55 5.12
8/13/2021 11:30:00 PM 25.3 77.54 0.262 7.21 99.57 5.18
8/13/2021 11:45:00 PM 25.27 77.486 0.263 7.21 47.01 5.26
8/14/2021 12:00:00 AM 25.25 77.45 0.263 7.21 46.35 5.34
8/14/2021 12:15:00 AM 25.23 77.414 0.263 7.22 48.45 5.42
8/14/2021 12:30:00 AM 25.22 77.396 0.264 7.23 41.14 5.49
8/14/2021 12:45:00 AM 25.2 77.36 0.263 7.23 39.1 5.49
8/14/2021 1:00:00 AM 25.19 77.342 0.263 7.24 37 5.55
8/14/2021 1:15:00 AM 25.18 77.324 0.262 7.24 32.42 5.62
8/14/2021 1:30:00 AM 25.18 77.324 0.262 7.25 45.28 5.74
8/14/2021 1:45:00 AM 25.19 77.342 0.262 7.25 34.09 5.73
8/14/2021 2:00:00 AM 25.18 77.324 0.262 7.26 32.72 5.76
8/14/2021 2:15:00 AM 25.15 77.27 0.263 7.26 31.35 5.8
8/14/2021 2:30:00 AM 25.12 77.216 0.265 7.26 30.85 5.79
8/14/2021 2:45:00 AM 25.05 77.09 0.266 7.26 31.59 5.7
8/14/2021 3:00:00 AM 24.99 76.982 0.267 7.25 27.98 5.55
8/14/2021 3:15:00 AM 24.89 76.802 0.266 7.23 37.11 5.58
8/14/2021 3:30:00 AM 24.82 76.676 0.264 7.23 64.59 5.8
8/14/2021 3:45:00 AM 24.81 76.658 0.264 7.23 106.8 5.87
8/14/2021 4:00:00 AM 24.85 76.73 0.265 7.24 82.36 5.89
8/14/2021 4:15:00 AM 24.93 76.874 0.266 7.24 80.16 5.94
8/14/2021 4:30:00 AM 25 77 0.267 7.25 78.21 5.97
8/14/2021 4:45:00 AM 25.07 77.126 0.269 7.26 67.52 5.99
8/14/2021 5:00:00 AM 25.14 77.252 0.269 7.27 67.25 6.04
8/14/2021 5:15:00 AM 25.18 77.324 0.27 7.29 55.08 6.06
8/14/2021 5:30:00 AM 25.22 77.396 0.269 7.29 68.03 6.09
8/14/2021 5:45:00 AM 25.24 77.432 0.269 7.3 65.71 6.09
8/14/2021 6:00:00 AM 25.23 77.414 0.269 7.31 44.32 6.09
8/14/2021 6:15:00 AM 25.22 77.396 0.269 7.31 49.68 6.15
8/14/2021 6:30:00 AM 25.2 77.36 0.269 7.32 42.19 6.13
8/14/2021 6:45:00 AM 25.18 77.324 0.269 7.32 49.12 6.13
8/14/2021 7:00:00 AM 25.14 77.252 0.27 7.32 48.57 6.14
8/14/2021 7:15:00 AM 25.09 77.162 0.271 7.32 38.32 6.15
8/14/2021 7:30:00 AM 25.05 77.09 0.272 7.32 38.33 6.16
8/14/2021 7:45:00 AM 25.03 77.054 0.272 7.32 34.01 6.15
8/14/2021 8:00:00 AM 25.03 77.054 0.271 7.32 34.57 6.18
8/14/2021 8:15:00 AM 25.04 77.07201 0.271 7.32 31.35 6.2
8/14/2021 8:30:00 AM 25.07 77.126 0.271 7.33 30.35 6.2
8/14/2021 8:45:00 AM 25.12 77.216 0.271 7.33 22.05 6.25
8/14/2021 9:00:00 AM 25.18 77.324 0.271 7.34 24.79 6.31
8/14/2021 9:15:00 AM 25.24 77.432 0.271 7.34 23.26 6.36
8/14/2021 9:30:00 AM 25.26 77.468 0.273 7.35 16.87 6.44
8/14/2021 9:45:00 AM 25.28 77.504 0.273 7.36 25.91 6.52
8/14/2021 10:00:00 AM 25.35 77.63 0.274 7.37 17.45 6.6
8/14/2021 10:15:00 AM 25.39 77.702 0.273 7.38 17.23 6.64
8/14/2021 10:30:00 AM 25.45 77.81 0.273 7.39 14.49 6.72
8/14/2021 10:45:00 AM 25.51 77.918 0.272 7.4 16.19 6.73
8/14/2021 11:00:00 AM 25.58 78.044 0.272 7.42 16 6.83
8/14/2021 11:15:00 AM 25.61 78.098 0.272 7.43 14.99 6.87
8/14/2021 11:30:00 AM 25.71 78.278 0.272 7.44 15.28 6.93
8/14/2021 11:45:00 AM 25.77 78.386 0.271 7.46 16.17 7.02
8/14/2021 12:00:00 PM 25.81 78.458 0.272 7.47 14.14 7.04
8/14/2021 12:15:00 PM 25.82 78.476 0.273 7.49 14.42 7.15
8/14/2021 12:30:00 PM 25.84 78.512 0.273 7.5 10.98 7.14
8/14/2021 12:45:00 PM 25.85 78.53 0.273 7.5 11.65 7.1
8/14/2021 1:00:00 PM 25.93 78.674 0.272 7.51 10.97 7.18
8/14/2021 1:15:00 PM 25.99 78.782 0.272 7.53 12.01 7.2
8/14/2021 1:30:00 PM 26.04 78.872 0.271 7.54 13.61 7.29
8/14/2021 1:45:00 PM 26.1 78.98 0.271 7.55 12.27 7.28
8/14/2021 2:00:00 PM 26.11 78.998 0.271 7.56 12.99 7.18
8/14/2021 2:15:00 PM 26.09 78.962 0.272 7.57 11.15 7.12
8/14/2021 2:30:00 PM 26.08 78.944 0.273 7.57 10.96 7.14
8/14/2021 2:45:00 PM 26.13 79.034 0.273 7.57 12.45 7.2
8/14/2021 3:00:00 PM 26.13 79.034 0.273 7.58 10.48 7.2
8/14/2021 3:15:00 PM 26.18 79.124 0.273 7.58 10.33 7.22
8/14/2021 3:30:00 PM 26.23 79.214 0.273 7.59 12.58 7.22
8/14/2021 3:45:00 PM 26.22 79.196 0.272 7.59 9.67 7.12
8/14/2021 4:00:00 PM 26.22 79.196 0.272 7.58 12.15 7.06
8/14/2021 4:15:00 PM 26.25 79.25 0.272 7.57 12.17 6.97
8/14/2021 4:30:00 PM 26.26 79.268 0.272 7.56 11.71 6.92
8/14/2021 4:45:00 PM 26.25 79.25 0.273 7.55 14.08 6.86
8/14/2021 5:00:00 PM 26.22 79.196 0.275 7.54 10.72 6.78
8/14/2021 5:15:00 PM 26.19 79.142 0.275 7.54 12.68 6.68
8/14/2021 5:30:00 PM 26.16 79.088 0.275 7.53 11.16 6.66
8/14/2021 5:45:00 PM 26.14 79.052 0.275 7.52 16.02 6.54
8/14/2021 6:00:00 PM 26.1 78.98 0.274 7.51 10.77 6.5
8/14/2021 6:15:00 PM 26.07 78.926 0.274 7.5 11.75 6.37
8/14/2021 6:30:00 PM 26.06 78.908 0.274 7.49 12.71 6.35
8/14/2021 6:45:00 PM 26.05 78.89 0.273 7.48 20.45 6.34
8/14/2021 7:00:00 PM 26.03 78.854 0.273 7.47 11.82 6.21
8/14/2021 7:15:00 PM 26 78.8 0.274 7.46 14.57 6.2
8/14/2021 7:30:00 PM 25.96 78.728 0.275 7.45 12.28 6.18
8/14/2021 7:45:00 PM 25.93 78.674 0.275 7.44 12.65 6.12
8/14/2021 8:00:00 PM 25.9 78.62 0.275 7.44 13.99 6.07
8/14/2021 8:15:00 PM 25.87 78.566 0.275 7.43 14.68 6.07
8/14/2021 8:30:00 PM 25.86 78.548 0.274 7.42 12.75 6.03
8/14/2021 8:45:00 PM 25.84 78.512 0.273 7.42 28.42 6.01
8/14/2021 9:00:00 PM 25.82 78.476 0.272 7.41 25.42 5.99
8/14/2021 9:15:00 PM 25.79 78.422 0.272 7.4 17.67 5.94
8/14/2021 9:30:00 PM 25.72 78.296 0.271 7.4 28.15 6.01
8/14/2021 9:45:00 PM 25.65 78.17 0.272 7.39 21.48 5.96
8/14/2021 10:00:00 PM 25.59 78.062 0.273 7.38 21.35 5.92
8/14/2021 10:15:00 PM 25.54 77.972 0.273 7.37 21.29 5.89
8/14/2021 10:30:00 PM 25.5 77.9 0.274 7.37 17.43 5.92
8/14/2021 10:45:00 PM 25.47 77.846 0.274 7.36 19.73 5.89
8/14/2021 11:00:00 PM 25.44 77.792 0.273 7.36 18.72 5.88
8/14/2021 11:15:00 PM 25.41 77.738 0.273 7.35 17.96 5.86
8/14/2021 11:30:00 PM 25.4 77.72 0.273 7.35 25.75 5.83
8/14/2021 11:45:00 PM 25.38 77.684 0.273 7.35 19.01 5.81
8/15/2021 12:00:00 AM 25.36 77.648 0.274 7.35 26.41 5.82
8/15/2021 12:15:00 AM 25.32 77.576 0.276 7.35 23.63 5.86
8/15/2021 12:30:00 AM 25.29 77.522 0.276 7.34 16.82 5.85
8/15/2021 12:45:00 AM 25.25 77.45 0.276 7.34 16.22 5.79
8/15/2021 1:00:00 AM 25.21 77.378 0.276 7.34 22.23 5.77
8/15/2021 1:15:00 AM 25.17 77.306 0.276 7.33 22.84 5.7
8/15/2021 1:30:00 AM 25.12 77.216 0.276 7.31 24.42 5.66
8/15/2021 1:45:00 AM 25.1 77.18 0.275 7.31 23.4 5.59
8/15/2021 2:00:00 AM 25.06 77.108 0.275 7.3 22.64 5.55
8/15/2021 2:15:00 AM 25.03 77.054 0.276 7.29 21.13 5.53
8/15/2021 2:30:00 AM 24.97 76.946 0.277 7.29 21.05 5.58
8/15/2021 2:45:00 AM 24.93 76.874 0.277 7.28 21.98 5.59
8/15/2021 3:00:00 AM 24.89 76.802 0.276 7.28 18.96 5.61
8/15/2021 3:15:00 AM 24.87 76.766 0.276 7.28 21.98 5.61
8/15/2021 3:30:00 AM 24.86 76.748 0.275 7.28 17.86 5.62
8/15/2021 3:45:00 AM 24.85 76.73 0.273 7.28 19.15 5.65
8/15/2021 4:00:00 AM 24.84 76.712 0.272 7.28 21.92 5.66
8/15/2021 4:15:00 AM 24.83 76.694 0.27 7.28 19.68 5.63
8/15/2021 4:30:00 AM 24.81 76.658 0.269 7.29 26.72 5.67
8/15/2021 4:45:00 AM 24.77 76.586 0.27 7.28 27.39 5.72
8/15/2021 5:00:00 AM 24.71 76.478 0.27 7.29 28.79 5.77
8/15/2021 5:15:00 AM 24.66 76.388 0.269 7.29 16.16 5.78
8/15/2021 5:30:00 AM 24.63 76.334 0.268 7.29 20.31 5.77
8/15/2021 5:45:00 AM 24.6 76.28 0.267 7.29 29.63 5.82
8/15/2021 6:00:00 AM 24.55 76.19 0.265 7.29 23.36 5.83
8/15/2021 6:15:00 AM 24.53 76.154 0.264 7.3 23.44 5.84
8/15/2021 6:30:00 AM 24.5 76.1 0.262 7.3 20.79 5.83
8/15/2021 6:45:00 AM 24.48 76.064 0.261 7.3 28 5.82
8/15/2021 7:00:00 AM 24.47 76.046 0.26 7.29 28.96 5.85
8/15/2021 7:15:00 AM 24.42 75.956 0.261 7.3 33.69 5.88
8/15/2021 7:30:00 AM 24.39 75.902 0.262 7.29 36.61 5.91
8/15/2021 7:45:00 AM 24.39 75.902 0.261 7.3 18.37 5.99
8/15/2021 8:00:00 AM 24.41 75.938 0.26 7.3 16.65 6.03
8/15/2021 8:15:00 AM 24.42 75.956 0.258 7.31 20.52 6.09
8/15/2021 8:30:00 AM 24.46 76.028 0.258 7.32 15.89 6.15
8/15/2021 8:45:00 AM 24.48 76.064 0.256 7.32 16.08 6.17
8/15/2021 9:00:00 AM 24.51 76.118 0.256 7.32 17.76 6.19
8/15/2021 9:15:00 AM 24.52 76.136 0.255 7.33 17.89 6.21
8/15/2021 9:30:00 AM 24.51 76.118 0.255 7.33 17.9 6.24
8/15/2021 9:45:00 AM 24.49 76.082 0.254 7.33 16.46 6.33
8/15/2021 10:00:00 AM 24.5 76.1 0.255 7.34 14.54 6.42
8/15/2021 10:15:00 AM 24.52 76.136 0.254 7.35 15.4 6.49
8/15/2021 10:30:00 AM 24.54 76.172 0.254 7.36 15.84 6.59
8/15/2021 10:45:00 AM 24.6 76.28 0.253 7.37 18.75 6.66
8/15/2021 11:00:00 AM 24.65 76.37 0.252 7.38 13.58 6.76
8/15/2021 11:15:00 AM 24.72 76.496 0.252 7.39 14.9 6.79
8/15/2021 11:30:00 AM 24.77 76.586 0.252 7.39 15.26 6.93
8/15/2021 11:45:00 AM 24.82 76.676 0.252 7.4 10.86 6.95
8/15/2021 12:00:00 PM 24.88 76.784 0.252 7.41 12.47 6.98
8/15/2021 12:15:00 PM 24.95 76.91 0.253 7.42 15.23 7.03
8/15/2021 12:30:00 PM 25.01 77.018 0.254 7.43 13.83 7.15
8/15/2021 12:45:00 PM 25.12 77.216 0.253 7.45 12.44 7.27
8/15/2021 1:00:00 PM 25.27 77.486 0.253 7.46 12.24 7.39
8/15/2021 1:15:00 PM 25.36 77.648 0.253 7.48 19.1 7.47
8/15/2021 1:30:00 PM 25.45 77.81 0.252 7.49 11.69 7.48
8/15/2021 1:45:00 PM 25.54 77.972 0.253 7.5 9.7 7.47
8/15/2021 2:00:00 PM 25.59 78.062 0.253 7.52 11.79 7.5
8/15/2021 2:15:00 PM 25.64 78.152 0.253 7.53 11.26 7.54
8/15/2021 2:30:00 PM 25.66 78.188 0.254 7.54 9.4 7.47
8/15/2021 2:45:00 PM 25.7 78.26 0.256 7.54 11.27 7.52
8/15/2021 3:00:00 PM 25.72 78.296 0.256 7.55 10.02 7.48
8/15/2021 3:15:00 PM 25.74 78.332 0.256 7.55 10.01 7.47
8/15/2021 3:30:00 PM 25.75 78.35 0.256 7.56 9.44 7.41
8/15/2021 3:45:00 PM 25.74 78.332 0.255 7.56 11.7 7.4
8/15/2021 4:00:00 PM 25.77 78.386 0.256 7.56 13.1 7.34
8/15/2021 4:15:00 PM 25.74 78.332 0.256 7.56 9.24 7.21
8/15/2021 4:30:00 PM 25.72 78.296 0.257 7.56 11.11 7.11
8/15/2021 4:45:00 PM 25.71 78.278 0.257 7.55 11.33 7
8/15/2021 5:00:00 PM 25.68 78.224 0.259 7.54 12.87 6.97
8/15/2021 5:15:00 PM 25.62 78.116 0.26 7.53 12.47 6.9
8/15/2021 5:30:00 PM 25.59 78.062 0.26 7.52 9.64 6.88
8/15/2021 5:45:00 PM 25.57 78.026 0.26 7.52 17.38 6.82
8/15/2021 6:00:00 PM 25.57 78.026 0.26 7.52 10.12 6.82
8/15/2021 6:15:00 PM 25.57 78.026 0.26 7.52 15.04 6.75
8/15/2021 6:30:00 PM 25.56 78.008 0.259 7.51 14.79 6.73
8/15/2021 6:45:00 PM 25.55 77.99 0.259 7.51 12.32 6.68
8/15/2021 7:00:00 PM 25.54 77.972 0.26 7.51 13.44 6.6
8/15/2021 7:15:00 PM 25.49 77.882 0.261 7.5 10.27 6.6
8/15/2021 7:30:00 PM 25.43 77.774 0.262 7.5 10.97 6.52
8/15/2021 7:45:00 PM 25.36 77.648 0.263 7.49 15.44 6.47
8/15/2021 8:00:00 PM 25.3 77.54 0.264 7.48 14.98 6.42
8/15/2021 8:15:00 PM 25.25 77.45 0.263 7.47 11.37 6.37
8/15/2021 8:30:00 PM 25.2 77.36 0.262 7.46 12.27 6.28
8/15/2021 8:45:00 PM 25.17 77.306 0.263 7.45 17.62 6.21
8/15/2021 9:00:00 PM 25.12 77.216 0.263 7.44 14.84 6.14
8/15/2021 9:15:00 PM 25.1 77.18 0.263 7.42 12.42 6.1
8/15/2021 9:30:00 PM 25.06 77.108 0.263 7.41 15.16 6.05
8/15/2021 9:45:00 PM 25.01 77.018 0.265 7.4 18.68 6.02
8/15/2021 10:00:00 PM 24.95 76.91 0.266 7.39 18.91 6.03
8/15/2021 10:15:00 PM 24.9 76.82 0.267 7.38 27.15 5.99
8/15/2021 10:30:00 PM 24.87 76.766 0.267 7.37 24.44 5.97
8/15/2021 10:45:00 PM 24.84 76.712 0.267 7.36 19.81 5.88
8/15/2021 11:00:00 PM 24.8 76.64 0.267 7.34 22.93 5.87
8/15/2021 11:15:00 PM 24.77 76.586 0.267 7.33 20.09 5.8
8/15/2021 11:30:00 PM 24.74 76.532 0.267 7.32 21.54 5.73
8/15/2021 11:45:00 PM 24.73 76.514 0.266 7.31 20.66 5.71
8/16/2021 12:00:00 AM 24.71 76.478 0.267 7.3 19.6 5.7
8/16/2021 12:15:00 AM 24.66 76.388 0.268 7.3 18.52 5.74
8/16/2021 12:30:00 AM 24.63 76.334 0.269 7.3 17.7 5.75
8/16/2021 12:45:00 AM 24.6 76.28 0.269 7.29 16.83 5.8
8/16/2021 1:00:00 AM 24.6 76.28 0.268 7.29 25.41 5.82
8/16/2021 1:15:00 AM 24.59 76.262 0.268 7.29 18.09 5.85
8/16/2021 1:30:00 AM 24.59 76.262 0.267 7.3 17.07 5.86
8/16/2021 1:45:00 AM 24.59 76.262 0.266 7.3 17.62 5.86
8/16/2021 2:00:00 AM 24.61 76.298 0.265 7.3 15.94 5.89
8/16/2021 2:15:00 AM 24.62 76.316 0.264 7.3 23.95 5.89
8/16/2021 2:30:00 AM 24.59 76.262 0.267 7.3 21.53 5.91
8/16/2021 2:45:00 AM 24.56 76.208 0.268 7.3 29.94 5.98
8/16/2021 3:00:00 AM 24.54 76.172 0.267 7.31 21.48 5.99
8/16/2021 3:15:00 AM 24.53 76.154 0.268 7.31 20.04 6.04
8/16/2021 3:30:00 AM 24.53 76.154 0.266 7.31 17.77 6.04
8/16/2021 3:45:00 AM 24.52 76.136 0.266 7.31 20.91 6.1
8/16/2021 4:00:00 AM 24.53 76.154 0.266 7.32 20.49 6.08
8/16/2021 4:15:00 AM 24.53 76.154 0.265 7.31 21.44 6.09
8/16/2021 4:30:00 AM 24.52 76.136 0.265 7.31 19.83 6.01
8/16/2021 4:45:00 AM 24.49 76.082 0.267 7.3 19.77 5.98
8/16/2021 5:00:00 AM 24.45 76.01 0.268 7.3 19.94 5.98
8/16/2021 5:15:00 AM 24.44 75.992 0.269 7.29 19.93 5.93
8/16/2021 5:30:00 AM 24.4 75.92 0.27 7.28 18.57 5.91
8/16/2021 5:45:00 AM 24.37 75.866 0.27 7.27 18.33 5.82
8/16/2021 6:00:00 AM 24.36 75.848 0.269 7.27 17.92 5.81
8/16/2021 6:15:00 AM 24.34 75.812 0.269 7.26 19.33 5.79
8/16/2021 6:30:00 AM 24.34 75.812 0.269 7.25 21.72 5.78
8/16/2021 6:45:00 AM 24.35 75.83 0.268 7.25 21.76 5.73
8/16/2021 7:00:00 AM 24.33 75.794 0.268 7.24 23.91 5.76
8/16/2021 7:15:00 AM 24.34 75.812 0.269 7.23 20.86 5.74
8/16/2021 7:30:00 AM 24.31 75.758 0.27 7.23 18.21 5.75
8/16/2021 7:45:00 AM 24.31 75.758 0.271 7.23 19.17 5.76
8/16/2021 8:00:00 AM 24.28 75.704 0.27 7.23 30.06 5.82
8/16/2021 8:15:00 AM 24.26 75.668 0.269 7.23 24.78 5.77
8/16/2021 8:30:00 AM 24.36 75.848 0.268 7.24 23.95 5.74
8/16/2021 8:45:00 AM 24.27 75.686 0.268 7.24 25.38 5.79
8/16/2021 9:00:00 AM 24.28 75.704 0.267 7.24 30.21 5.82
8/16/2021 9:15:00 AM 24.32 75.776 0.267 7.24 33.5 5.92
8/16/2021 9:30:00 AM 24.37 75.866 0.267 7.25 43.99 5.97
8/16/2021 9:45:00 AM 24.38 75.884 0.268 7.25 19.91 6.05
8/16/2021 10:00:00 AM 24.4 75.92 0.269 7.25 42.53 6.07
8/16/2021 10:15:00 AM 24.42 75.956 0.269 7.26 28.72 6.14
8/16/2021 10:30:00 AM 24.49 76.082 0.269 7.27 17.91 6.14
8/16/2021 10:45:00 AM 24.57 76.226 0.268 7.28 31.83 6.24
8/16/2021 11:00:00 AM 24.65 76.37 0.268 7.28 32.85 6.36
8/16/2021 11:15:00 AM 24.71 76.478 0.267 7.3 20.79 6.46
8/16/2021 11:30:00 AM 24.81 76.658 0.267 7.32 37.14 6.52
8/16/2021 11:45:00 AM 24.9 76.82 0.267 7.32 33.81 6.56
8/16/2021 12:00:00 PM 24.97 76.946 0.267 7.34 20.43 6.57
8/16/2021 12:15:00 PM 25 77 0.267 7.35 18.15 6.68
8/16/2021 12:30:00 PM 25.02 77.036 0.268 7.36 17.79 6.7
8/16/2021 12:45:00 PM 25.05 77.09 0.267 7.37 18.47 6.74
8/16/2021 1:00:00 PM 25.12 77.216 0.267 7.37 12.54 6.75
8/16/2021 1:15:00 PM 25.13 77.234 0.266 7.38 14.65 6.83
8/16/2021 1:30:00 PM 25.14 77.252 0.266 7.4 24.02 6.81
8/16/2021 1:45:00 PM 25.15 77.27 0.265 7.41 19.77 6.81
8/16/2021 2:00:00 PM 25.19 77.342 0.265 7.41 13.16 6.84
8/16/2021 2:15:00 PM 25.19 77.342 0.265 7.41 18.25 6.8
8/16/2021 2:30:00 PM 25.2 77.36 0.266 7.42 15.03 6.89
8/16/2021 2:45:00 PM 25.22 77.396 0.267 7.43 14.04 6.96
8/16/2021 3:00:00 PM 25.26 77.468 0.266 7.43 10.83 6.96
8/16/2021 3:15:00 PM 25.32 77.576 0.266 7.44 11.49 7.11
8/16/2021 3:30:00 PM 25.39 77.702 0.266 7.45 19.49 7.16
8/16/2021 3:45:00 PM 25.44 77.792 0.265 7.46 14.18 7.14
8/16/2021 4:00:00 PM 25.5 77.9 0.265 7.47 10.53 7.17
8/16/2021 4:15:00 PM 25.54 77.972 0.265 7.48 11.05 7.12
8/16/2021 4:30:00 PM 25.52 77.936 0.265 7.48 11.73 7.01
8/16/2021 4:45:00 PM 25.47 77.846 0.266 7.48 10.46 6.93
8/16/2021 5:00:00 PM 25.43 77.774 0.268 7.48 9.89 6.9
8/16/2021 5:15:00 PM 25.4 77.72 0.269 7.48 9.8 6.85
8/16/2021 5:30:00 PM 25.38 77.684 0.269 7.48 8.54 6.8
8/16/2021 5:45:00 PM 25.35 77.63 0.269 7.48 12.09 6.73
8/16/2021 6:00:00 PM 25.36 77.648 0.268 7.47 10.31 6.68
8/16/2021 6:15:00 PM 25.35 77.63 0.268 7.47 10.74 6.66
8/16/2021 6:30:00 PM 25.34 77.612 0.267 7.47 11.2 6.59
8/16/2021 6:45:00 PM 25.33 77.594 0.267 7.46 10.31 6.52
8/16/2021 7:00:00 PM 25.32 77.576 0.267 7.46 13.31 6.44
8/16/2021 7:15:00 PM 25.27 77.486 0.268 7.45 9.78 6.42
8/16/2021 7:30:00 PM 25.24 77.432 0.27 7.44 13.31 6.39
8/16/2021 7:45:00 PM 25.19 77.342 0.27 7.44 12.82 6.34
8/16/2021 8:00:00 PM 25.18 77.324 0.27 7.43 11.93 6.24
8/16/2021 8:15:00 PM 25.14 77.252 0.27 7.42 17.69 6.24
8/16/2021 8:30:00 PM 25.13 77.234 0.269 7.41 16.31 6.12
8/16/2021 8:45:00 PM 25.11 77.198 0.269 7.4 14.58 6.1
8/16/2021 9:00:00 PM 25.09 77.162 0.268 7.4 19.09 6.15
8/16/2021 9:15:00 PM 25.08 77.144 0.268 7.39 20.89 6.06
8/16/2021 9:30:00 PM 25.07 77.126 0.268 7.38 20.87 6.05
8/16/2021 9:45:00 PM 25.03 77.054 0.269 7.37 21.09 6.02
8/16/2021 10:00:00 PM 24.97 76.946 0.27 7.37 16.7 6.03
8/16/2021 10:15:00 PM 24.93 76.874 0.271 7.36 20.69 6
8/16/2021 10:30:00 PM 24.91 76.838 0.271 7.36 19.68 6.03
8/16/2021 10:45:00 PM 24.88 76.784 0.27 7.35 23.38 6
8/16/2021 11:00:00 PM 24.87 76.766 0.268 7.35 20.95 6
8/16/2021 11:15:00 PM 24.79 76.622 0.264 7.35 26.34 6.16
8/16/2021 11:30:00 PM 24.77 76.586 0.262 7.35 23.85 6.21
8/16/2021 11:45:00 PM 24.78 76.604 0.261 7.34 26.36 6.14
8/17/2021 12:00:00 AM 24.75 76.55 0.262 7.34 26.22 6.09
8/17/2021 12:15:00 AM 24.68 76.424 0.265 7.33 25.28 6.04
8/17/2021 12:30:00 AM 24.65 76.37 0.266 7.32 21.98 6
8/17/2021 12:45:00 AM 24.59 76.262 0.267 7.31 36.52 5.96
8/17/2021 1:00:00 AM 24.55 76.19 0.268 7.3 26.3 5.89
8/17/2021 1:15:00 AM 24.53 76.154 0.268 7.29 29.97 5.84
8/17/2021 1:30:00 AM 24.52 76.136 0.267 7.28 28.7 5.82
8/17/2021 1:45:00 AM 24.51 76.118 0.267 7.27 26.7 5.79
8/17/2021 2:00:00 AM 24.45 76.01 0.27 7.26 35.09 5.84
8/17/2021 2:15:00 AM 24.36 75.848 0.271 7.26 27.63 5.93
8/17/2021 2:30:00 AM 24.31 75.758 0.271 7.27 29.53 5.98
8/17/2021 2:45:00 AM 24.31 75.758 0.27 7.26 29.71 6.03
8/17/2021 3:00:00 AM 24.33 75.794 0.269 7.27 25.32 6.05
8/17/2021 3:15:00 AM 24.33 75.794 0.269 7.27 33.47 6.07
8/17/2021 3:30:00 AM 24.28 75.704 0.269 7.28 35.11 6.16
8/17/2021 3:45:00 AM 24.27 75.686 0.269 7.29 29.36 6.24
8/17/2021 4:00:00 AM 24.26 75.668 0.268 7.29 32.3 6.25
8/17/2021 4:15:00 AM 24.26 75.668 0.267 7.3 37.55 6.29
8/17/2021 4:30:00 AM 24.27 75.686 0.266 7.3 38.66 6.27
8/17/2021 4:45:00 AM 24.29 75.722 0.265 7.31 31.94 6.29
8/17/2021 5:00:00 AM 24.3 75.74 0.264 7.3 38.58 6.3
8/17/2021 5:15:00 AM 24.33 75.794 0.264 7.31 35.07 6.28
8/17/2021 5:30:00 AM 24.33 75.794 0.263 7.31 43.47 6.31
8/17/2021 5:45:00 AM 24.37 75.866 0.262 7.31 38.81 6.28
8/17/2021 6:00:00 AM 24.38 75.884 0.261 7.31 34.57 6.27
8/17/2021 6:15:00 AM 24.42 75.956 0.261 7.31 38.73 6.25
8/17/2021 6:30:00 AM 24.4 75.92 0.261 7.31 34.16 6.26
8/17/2021 6:45:00 AM 24.37 75.866 0.262 7.31 39.79 6.22
8/17/2021 7:00:00 AM 24.32 75.776 0.263 7.31 41.87 6.34
8/17/2021 7:15:00 AM 24.29 75.722 0.264 7.31 56.11 6.36
8/17/2021 7:30:00 AM 24.25 75.65 0.264 7.31 39.62 6.41
8/17/2021 7:45:00 AM 24.22 75.596 0.264 7.31 45.91 6.42
8/17/2021 8:00:00 AM 24.22 75.596 0.265 7.31 36.67 6.45
8/17/2021 8:15:00 AM 24.19 75.542 0.265 7.31 37.94 6.49
8/17/2021 8:30:00 AM 24.22 75.596 0.265 7.31 35.48 6.58
8/17/2021 8:45:00 AM 24.2 75.56 0.265 7.31 38.35 6.62
8/17/2021 9:00:00 AM 24.2 75.56 0.266 7.32 37.28 6.67
8/17/2021 9:15:00 AM 24.16 75.488 0.267 7.32 37.25 6.8
8/17/2021 9:30:00 AM 24.13 75.434 0.267 7.32 62.46 6.86
8/17/2021 9:45:00 AM 24.09 75.362 0.267 7.33 47.97 6.92
8/17/2021 10:00:00 AM 24.08 75.344 0.266 7.34 70.78 6.96
8/17/2021 10:15:00 AM 24.09 75.362 0.265 7.35 55.71 6.99
8/17/2021 10:30:00 AM 24.13 75.434 0.264 7.35 36.05 7.04
8/17/2021 10:45:00 AM 24.18 75.524 0.263 7.36 37.48 7.09
8/17/2021 11:00:00 AM 24.26 75.668 0.263 7.37 37.87 7.13
8/17/2021 11:15:00 AM 24.32 75.776 0.261 7.37 49.71 7.12
8/17/2021 11:30:00 AM 24.4 75.92 0.261 7.39 34.96 7.17
8/17/2021 11:45:00 AM 24.48 76.064 0.262 7.39 44.98 7.28
8/17/2021 12:00:00 PM 24.6 76.28 0.263 7.4 33.57 7.34
8/17/2021 12:15:00 PM 24.66 76.388 0.263 7.41 44.74 7.38
8/17/2021 12:30:00 PM 24.74 76.532 0.263 7.42 40.23 7.42
8/17/2021 12:45:00 PM 24.87 76.766 0.263 7.43 30.6 7.46
8/17/2021 1:00:00 PM 24.99 76.982 0.263 7.43 27.47 7.49
8/17/2021 1:15:00 PM 25.09 77.162 0.263 7.44 32.64 7.54
8/17/2021 1:30:00 PM 25.24 77.432 0.263 7.45 47.16 7.56
8/17/2021 1:45:00 PM 25.39 77.702 0.263 7.46 34.61 7.6
8/17/2021 2:00:00 PM 25.45 77.81 0.263 7.47 25.1 7.69
8/17/2021 2:15:00 PM 25.46 77.828 0.264 7.48 21.55 7.73
8/17/2021 2:30:00 PM 25.41 77.738 0.262 7.49 27.87 7.76
8/17/2021 2:45:00 PM 25.38 77.684 0.26 7.5 32.45 7.64
8/17/2021 3:00:00 PM 25.36 77.648 0.26 7.5 34.18 7.59
8/17/2021 3:15:00 PM 25.33 77.594 0.26 7.49 29.63 7.5
8/17/2021 3:30:00 PM 25.31 77.558 0.26 7.49 26.43 7.4
8/17/2021 3:45:00 PM 25.24 77.432 0.259 7.49 31.97 7.31
8/17/2021 4:00:00 PM 25.21 77.378 0.26 7.48 19.96 7.25
8/17/2021 4:15:00 PM 25.22 77.396 0.26 7.47 19.62 7.15
8/17/2021 4:30:00 PM 25.21 77.378 0.261 7.47 19.78 7.15
8/17/2021 4:45:00 PM 25.21 77.378 0.262 7.46 19 7.14
8/17/2021 5:00:00 PM 25.2 77.36 0.262 7.46 18.72 7.22
8/17/2021 5:15:00 PM 25.2 77.36 0.262 7.46 20.85 7.15
8/17/2021 5:30:00 PM 25.22 77.396 0.262 7.47 18.33 7.15
8/17/2021 5:45:00 PM 25.22 77.396 0.261 7.47 63.49 7.18
8/17/2021 6:00:00 PM 25.25 77.45 0.261 7.48 22.14 7.17
8/17/2021 6:15:00 PM 25.25 77.45 0.261 7.48 23.73 7.18
8/17/2021 6:30:00 PM 25.25 77.45 0.26 7.48 19.55 7.11
8/17/2021 6:45:00 PM 25.22 77.396 0.26 7.48 34.26 7.06
8/17/2021 7:00:00 PM 25.18 77.324 0.26 7.48 30.06 7.04
8/17/2021 7:15:00 PM 25.13 77.234 0.26 7.48 26.95 6.99
8/17/2021 7:30:00 PM 25.08 77.144 0.26 7.48 28.42 6.93
8/17/2021 7:45:00 PM 25.06 77.108 0.259 7.47 30.7 6.84
8/17/2021 8:00:00 PM 25.01 77.018 0.258 7.46 21.3 6.78
8/17/2021 8:15:00 PM 24.99 76.982 0.257 7.45 26.98 6.69
8/17/2021 8:30:00 PM 24.95 76.91 0.256 7.44 29.04 6.63
8/17/2021 8:45:00 PM 24.94 76.892 0.255 7.43 27.44 6.58
8/17/2021 9:00:00 PM 24.93 76.874 0.254 7.42 30.05 6.52
8/17/2021 9:15:00 PM 24.93 76.874 0.253 7.41 654.4 6.46
8/17/2021 9:30:00 PM 24.91 76.838 0.252 7.4 29.17 6.47
8/17/2021 9:45:00 PM 24.88 76.784 0.252 7.39 37.83 6.48
8/17/2021 10:00:00 PM 24.86 76.748 0.251 7.39 36.16 6.49
8/17/2021 10:15:00 PM 24.84 76.712 0.251 7.38 36.36 6.42
8/17/2021 10:30:00 PM 24.83 76.694 0.25 7.37 34.46 6.37
8/17/2021 10:45:00 PM 24.81 76.658 0.25 7.35 51.89 6.25
8/17/2021 11:00:00 PM 24.79 76.622 0.25 7.34 38.43 6.17
8/17/2021 11:15:00 PM 24.79 76.622 0.25 7.32 39.05 6.06
8/17/2021 11:30:00 PM 24.78 76.604 0.251 7.29 32.55 6
8/17/2021 11:45:00 PM 24.76 76.568 0.251 7.28 31.14 5.97
8/18/2021 12:00:00 AM 24.75 76.55 0.253 7.27 31.84 5.95
8/18/2021 12:15:00 AM 24.72 76.496 0.253 7.26 43.68 6.04
8/18/2021 12:30:00 AM 24.71 76.478 0.252 7.26 37.65 6.08
8/18/2021 12:45:00 AM 24.71 76.478 0.252 7.26 34.08 6.17
8/18/2021 1:00:00 AM 24.71 76.478 0.252 7.27 39.67 6.22
8/18/2021 1:15:00 AM 24.7 76.46 0.251 7.27 36.32 6.29
8/18/2021 1:30:00 AM 24.71 76.478 0.25 7.28 37.34 6.34
8/18/2021 1:45:00 AM 24.7 76.46 0.248 7.29 37.06 6.42
8/18/2021 2:00:00 AM 24.69 76.442 0.245 7.3 40.78 6.56
8/18/2021 2:15:00 AM 24.67 76.406 0.244 7.31 37.68 6.53
8/18/2021 2:30:00 AM 24.66 76.388 0.246 7.31 46.23 6.55
8/18/2021 2:45:00 AM 24.64 76.352 0.247 7.32 44.87 6.54
8/18/2021 3:00:00 AM 24.62 76.316 0.246 7.32 43.99 6.56
8/18/2021 3:15:00 AM 24.62 76.316 0.247 7.33 36.76 6.55
8/18/2021 3:30:00 AM 24.61 76.298 0.247 7.33 39.71 6.57
8/18/2021 3:45:00 AM 24.61 76.298 0.248 7.33 46.43 6.53
8/18/2021 4:00:00 AM 24.62 76.316 0.248 7.33 44.86 6.47
8/18/2021 4:15:00 AM 24.6 76.28 0.249 7.33 40.6 6.41
8/18/2021 4:30:00 AM 24.54 76.172 0.25 7.32 46.18 6.41
8/18/2021 4:45:00 AM 24.47 76.046 0.251 7.31 56.06 6.38
8/18/2021 5:00:00 AM 24.42 75.956 0.251 7.31 57.41 6.39
8/18/2021 5:15:00 AM 24.36 75.848 0.25 7.3 50.02 6.38
8/18/2021 5:30:00 AM 24.32 75.776 0.249 7.29 59.61 6.36
8/18/2021 5:45:00 AM 24.28 75.704 0.247 7.28 49.65 6.43
8/18/2021 6:00:00 AM 24.24 75.632 0.245 7.28 68.44 6.4
8/18/2021 6:15:00 AM 24.2 75.56 0.243 7.28 68.92 6.38
8/18/2021 6:30:00 AM 24.14 75.452 0.242 7.28 75.19 6.45
8/18/2021 6:45:00 AM 24.08 75.344 0.241 7.27 80.88 6.5
8/18/2021 7:00:00 AM 24.05 75.29 0.24 7.28 74.98 6.53
8/18/2021 7:15:00 AM 24.04 75.272 0.24 7.28 77.28 6.53
8/18/2021 7:30:00 AM 24.03 75.254 0.239 7.28 78.93 6.56
8/18/2021 7:45:00 AM 24.05 75.29 0.24 7.28 64.51 6.54
8/18/2021 8:00:00 AM 24.06 75.308 0.241 7.28 65.29 6.59
8/18/2021 8:15:00 AM 24.05 75.29 0.245 7.29 69.44 6.62
8/18/2021 8:30:00 AM 23.97 75.146 0.25 7.3 79.34 6.77
8/18/2021 8:45:00 AM 23.88 74.984 0.252 7.32 71.54 6.9
8/18/2021 9:00:00 AM 23.82 74.876 0.25 7.33 76.72 6.99
8/18/2021 9:15:00 AM 23.81 74.858 0.246 7.35 67.75 7.12
8/18/2021 9:30:00 AM 23.79 74.82201 0.244 7.36 74.78 7.18
8/18/2021 9:45:00 AM 23.78 74.804 0.242 7.37 78.51 7.19
8/18/2021 10:00:00 AM 23.79 74.82201 0.241 7.38 82.05 7.22
8/18/2021 10:15:00 AM 23.78 74.804 0.239 7.38 89.8 7.3
8/18/2021 10:30:00 AM 23.8 74.84 0.236 7.39 96.75 7.37
8/18/2021 10:45:00 AM 23.77 74.786 0.233 7.4 184.8 7.44
8/18/2021 11:00:00 AM 23.77 74.786 0.234 7.42 171.5 7.43
8/18/2021 11:15:00 AM 23.81 74.858 0.237 7.44 180.2 7.37
8/18/2021 11:30:00 AM 23.87 74.966 0.238 7.46 224.2 7.37
8/18/2021 11:45:00 AM 23.89 75.002 0.239 7.47 226.1 7.34
8/18/2021 12:00:00 PM 23.89 75.002 0.238 7.47 186.2 7.34
8/18/2021 12:15:00 PM 23.93 75.074 0.236 7.48 168.4 7.34
8/18/2021 12:30:00 PM 24 75.2 0.236 7.47 164.6 7.35
8/18/2021 12:45:00 PM 24.06 75.308 0.236 7.47 173.7 7.31
8/18/2021 1:00:00 PM 24.08 75.344 0.236 7.47 138.5 7.32
8/18/2021 1:15:00 PM 24.14 75.452 0.237 7.47 135.3 7.31
8/18/2021 1:30:00 PM 24.17 75.506 0.238 7.47 138 7.32
8/18/2021 1:45:00 PM 24.16 75.488 0.237 7.47 126 7.32
8/18/2021 2:00:00 PM 24.15 75.47 0.237 7.47 124.8 7.29
8/18/2021 2:15:00 PM 24.16 75.488 0.235 7.47 141.8 7.35
8/18/2021 2:30:00 PM 24.21 75.578 0.233 7.47 146.1 7.29
8/18/2021 2:45:00 PM 24.23 75.614 0.231 7.47 132.2 7.32
8/18/2021 3:00:00 PM 24.23 75.614 0.229 7.47 156.4 7.33
8/18/2021 3:15:00 PM 24.23 75.614 0.226 7.46 141.5 7.32
8/18/2021 3:30:00 PM 24.29 75.722 0.226 7.46 133.3 7.26
8/18/2021 3:45:00 PM 24.39 75.902 0.227 7.45 139.8 7.28
8/18/2021 4:00:00 PM 24.44 75.992 0.228 7.45 133.5 7.28
8/18/2021 4:15:00 PM 24.5 76.1 0.23 7.45 137.8 7.26
8/18/2021 4:30:00 PM 24.55 76.19 0.233 7.45 132.6 7.25
8/18/2021 4:45:00 PM 24.6 76.28 0.236 7.45 120.6 7.22
8/18/2021 5:00:00 PM 24.65 76.37 0.239 7.45 120 7.25
8/18/2021 5:15:00 PM 24.66 76.388 0.242 7.45 113.1 7.24
8/18/2021 5:30:00 PM 24.67 76.406 0.244 7.46 1184 7.19
8/18/2021 5:45:00 PM 24.66 76.388 0.244 7.46 105.2 7.13
8/18/2021 6:00:00 PM 24.68 76.424 0.243 7.46 102.7 7.08
8/18/2021 6:15:00 PM 24.67 76.406 0.24 7.46 98.74 7.07
8/18/2021 6:30:00 PM 24.65 76.37 0.237 7.46 95.71 7.08
8/18/2021 6:45:00 PM 24.64 76.352 0.232 7.44 4443 7.02
8/18/2021 7:00:00 PM 24.61 76.298 0.229 7.45 90.31 7.04
8/18/2021 7:15:00 PM 24.59 76.262 0.225 7.44 851 7.02
8/18/2021 7:30:00 PM 24.55 76.19 0.221 7.44 87.38 7.01
8/18/2021 7:45:00 PM 24.49 76.082 0.214 7.44 94.66 7.1
8/18/2021 8:00:00 PM 24.43 75.974 0.201 7.46 114.2 7.13
8/18/2021 8:15:00 PM 24.11 75.398 0.153 7.46 683.5 7.44
8/18/2021 8:30:00 PM 24.12 75.416 0.138 7.42 752.6 7.43
8/18/2021 8:45:00 PM 24.14 75.452 0.143 7.35 461.3 7.29
8/18/2021 9:00:00 PM 24.05 75.29 0.152 7.31 334.6 7.4
8/18/2021 9:15:00 PM 23.98 75.164 0.147 7.29 826.3 7.16
8/18/2021 9:30:00 PM 23.85 74.93 0.128 7.25 1269 7.07
8/18/2021 9:45:00 PM 23.78 74.804 0.117 7.21 1331 7.1
8/18/2021 10:00:00 PM 23.79 74.82201 0.121 7.17 946.1 7.21
8/18/2021 10:15:00 PM 23.78 74.804 0.127 7.14 781.4 7.23
8/18/2021 10:30:00 PM 23.76 74.768 0.133 7.13 712.8 7.14
8/18/2021 10:45:00 PM 23.74 74.732 0.141 7.13 625.3 7.13
8/18/2021 11:00:00 PM 23.74 74.732 0.152 7.12 455.6 7.06
8/18/2021 11:15:00 PM 23.71 74.67799 0.161 7.13 395.4 7.16
8/18/2021 11:30:00 PM 23.7 74.66 0.167 7.15 322.2 7.16
8/18/2021 11:45:00 PM 23.72 74.696 0.171 7.17 271.1 7.14
8/19/2021 12:00:00 AM 23.75 74.75 0.175 7.18 274.2 7.11
8/19/2021 12:15:00 AM 23.77 74.786 0.18 7.21 220.2 7.1
8/19/2021 12:30:00 AM 23.76 74.768 0.183 7.22 217.5 7.12
8/19/2021 12:45:00 AM 23.74 74.732 0.184 7.24 244.4 7.14
8/19/2021 1:00:00 AM 23.71 74.67799 0.185 7.25 263 7.13
8/19/2021 1:15:00 AM 23.67 74.606 0.185 7.27 305.7 7.12
8/19/2021 1:30:00 AM 23.61 74.498 0.184 7.29 380.9 7.12
8/19/2021 1:45:00 AM 23.55 74.39 0.182 7.32 428.5 7.08
8/19/2021 2:00:00 AM 23.52 74.336 0.183 7.34 439 7.07
8/19/2021 2:15:00 AM 23.49 74.282 0.185 7.35 379.5 7.1
8/19/2021 2:30:00 AM 23.48 74.264 0.186 7.35 354.3 7.06
8/19/2021 2:45:00 AM 23.46 74.228 0.187 7.34 316.4 7.02
8/19/2021 3:00:00 AM 23.44 74.192 0.188 7.34 268.7 7.04
8/19/2021 3:15:00 AM 23.41 74.138 0.19 7.32 282.4 7
8/19/2021 3:30:00 AM 23.39 74.102 0.192 7.31 254.9 6.99
8/19/2021 3:45:00 AM 23.37 74.066 0.194 7.31 248 6.99
8/19/2021 4:00:00 AM 23.34 74.012 0.195 7.31 277.8 6.96
8/19/2021 4:15:00 AM 23.32 73.976 0.196 7.3 250.9 6.97
8/19/2021 4:30:00 AM 23.28 73.904 0.196 7.3 253.6 6.99
8/19/2021 4:45:00 AM 23.26 73.868 0.195 7.3 243.1 7.02
8/19/2021 5:00:00 AM 23.22 73.796 0.195 7.3 235.3 7.09
8/19/2021 5:15:00 AM 23.19 73.742 0.196 7.3 234.4 7.13
8/19/2021 5:30:00 AM 23.18 73.724 0.199 7.3 206.9 7.17
8/19/2021 5:45:00 AM 23.18 73.724 0.202 7.31 190.4 7.13
8/19/2021 6:00:00 AM 23.16 73.688 0.205 7.31 191.8 7.16
8/19/2021 6:15:00 AM 23.15 73.67 0.208 7.32 188.7 7.15
8/19/2021 6:30:00 AM 23.13 73.634 0.21 7.32 194.4 7.19
8/19/2021 6:45:00 AM 23.11 73.598 0.211 7.33 190.6 7.21
8/19/2021 7:00:00 AM 23.1 73.58 0.212 7.34 195.4 7.23
8/19/2021 7:15:00 AM 23.08 73.544 0.213 7.34 172.4 7.22
8/19/2021 7:30:00 AM 23.07 73.526 0.214 7.34 160.7 7.23
8/19/2021 7:45:00 AM 23.06 73.508 0.215 7.34 167.2 7.21
8/19/2021 8:00:00 AM 23.05 73.49 0.216 7.34 179.8 7.2
8/19/2021 8:15:00 AM 23.06 73.508 0.218 7.34 170.5 7.19
8/19/2021 8:30:00 AM 23.05 73.49 0.219 7.35 161.7 7.21
8/19/2021 8:45:00 AM 23.06 73.508 0.221 7.35 165.4 7.2
8/19/2021 9:00:00 AM 23.06 73.508 0.222 7.35 158.2 7.23
8/19/2021 9:15:00 AM 23.09 73.562 0.223 7.35 150.2 7.24
8/19/2021 9:30:00 AM 23.13 73.634 0.224 7.36 150.6 7.23
8/19/2021 9:45:00 AM 23.19 73.742 0.225 7.36 150.1 7.23
8/19/2021 10:00:00 AM 23.21 73.778 0.226 7.37 144.3 7.25
8/19/2021 10:15:00 AM 23.25 73.85 0.227 7.37 132.2 7.22
8/19/2021 10:30:00 AM 23.34 74.012 0.23 7.37 133.6 7.2
8/19/2021 10:45:00 AM 23.4 74.12 0.232 7.37 125 7.2
8/19/2021 11:00:00 AM 23.49 74.282 0.235 7.38 109.5 7.21
8/19/2021 11:15:00 AM 23.56 74.408 0.239 7.38 106.4 7.23
8/19/2021 11:30:00 AM 23.61 74.498 0.242 7.39 111.5 7.24
8/19/2021 11:45:00 AM 23.63 74.534 0.244 7.39 95.9 7.23
8/19/2021 12:00:00 PM 23.67 74.606 0.246 7.39 93.17 7.25
8/19/2021 12:15:00 PM 23.75 74.75 0.247 7.4 82.42 7.26
8/19/2021 12:30:00 PM 23.83 74.894 0.247 7.41 77.13 7.26
8/19/2021 12:45:00 PM 23.97 75.146 0.247 7.41 77.32 7.27
8/19/2021 1:00:00 PM 24.04 75.272 0.245 7.42 84.32 7.26
8/19/2021 1:15:00 PM 24.14 75.452 0.243 7.43 74.87 7.26
8/19/2021 1:30:00 PM 24.24 75.632 0.242 7.43 71.62 7.28
8/19/2021 1:45:00 PM 24.4 75.92 0.24 7.44 62.31 7.28
8/19/2021 2:00:00 PM 24.54 76.172 0.237 7.43 68.15 7.35
8/19/2021 2:15:00 PM 24.68 76.424 0.235 7.44 62.55 7.36
8/19/2021 2:30:00 PM 24.76 76.568 0.231 7.45 69.05 7.36
8/19/2021 2:45:00 PM 24.84 76.712 0.228 7.46 64.17 7.38
8/19/2021 3:00:00 PM 24.96 76.92799 0.227 7.46 59.22 7.39
8/19/2021 3:15:00 PM 25.07 77.126 0.226 7.46 57.43 7.34
8/19/2021 3:30:00 PM 25.12 77.216 0.225 7.46 63.31 7.3
8/19/2021 3:45:00 PM 25.16 77.288 0.224 7.46 56.81 7.29
8/19/2021 4:00:00 PM 25.18 77.324 0.223 7.46 51.73 7.24
8/19/2021 4:15:00 PM 25.25 77.45 0.224 7.46 49.97 7.21
8/19/2021 4:30:00 PM 25.28 77.504 0.224 7.46 45.53 7.19
8/19/2021 4:45:00 PM 25.29 77.522 0.224 7.45 48.63 7.14
8/19/2021 5:00:00 PM 25.28 77.504 0.225 7.45 43.02 7.07
8/19/2021 5:15:00 PM 25.27 77.486 0.225 7.44 42.65 7.02
8/19/2021 5:30:00 PM 25.26 77.468 0.225 7.43 49.48 6.95
8/19/2021 5:45:00 PM 25.25 77.45 0.226 7.41 47.91 6.81
8/19/2021 6:00:00 PM 25.24 77.432 0.228 7.4 48.24 6.73
8/19/2021 6:15:00 PM 25.22 77.396 0.229 7.39 37.85 6.71
8/19/2021 6:30:00 PM 25.19 77.342 0.23 7.38 51.43 6.61
8/19/2021 6:45:00 PM 25.12 77.216 0.229 7.37 46.51 6.65
8/19/2021 7:00:00 PM 25.05 77.09 0.23 7.37 43.68 6.68
8/19/2021 7:15:00 PM 24.99 76.982 0.229 7.36 42.26 6.66
8/19/2021 7:30:00 PM 24.94 76.892 0.23 7.36 44.14 6.59
8/19/2021 7:45:00 PM 24.91 76.838 0.231 7.36 43.29 6.6
8/19/2021 8:00:00 PM 24.87 76.766 0.23 7.36 39.64 6.63
8/19/2021 8:15:00 PM 24.84 76.712 0.23 7.35 45.42 6.62
8/19/2021 8:30:00 PM 24.81 76.658 0.23 7.35 46.43 6.61
8/19/2021 8:45:00 PM 24.8 76.64 0.231 7.35 44.24 6.58
8/19/2021 9:00:00 PM 24.78 76.604 0.233 7.35 46.2 6.58
8/19/2021 9:15:00 PM 24.75 76.55 0.236 7.35 45.65 6.54
8/19/2021 9:30:00 PM 24.71 76.478 0.237 7.35 46.44 6.56
8/19/2021 9:45:00 PM 24.68 76.424 0.238 7.35 45.42 6.56
8/19/2021 10:00:00 PM 24.66 76.388 0.239 7.35 43.05 6.57
8/19/2021 10:15:00 PM 24.65 76.37 0.24 7.35 41.14 6.57
8/19/2021 10:30:00 PM 24.65 76.37 0.24 7.34 44.79 6.54
8/19/2021 10:45:00 PM 24.66 76.388 0.24 7.34 44.81 6.53
8/19/2021 11:00:00 PM 24.66 76.388 0.24 7.34 46.91 6.52
8/19/2021 11:15:00 PM 24.64 76.352 0.241 7.34 46.15 6.52
8/19/2021 11:30:00 PM 24.63 76.334 0.241 7.34 43.18 6.56
8/19/2021 11:45:00 PM 24.61 76.298 0.24 7.34 41.33 6.58
8/20/2021 12:00:00 AM 24.59 76.262 0.241 7.34 40.02 6.57
8/20/2021 12:15:00 AM 24.59 76.262 0.242 7.35 41.57 6.58
8/20/2021 12:30:00 AM 24.58 76.244 0.242 7.35 40.18 6.57
8/20/2021 12:45:00 AM 24.57 76.226 0.242 7.35 36.41 6.54
8/20/2021 1:00:00 AM 24.55 76.19 0.242 7.35 35.78 6.49
8/20/2021 1:15:00 AM 24.54 76.172 0.243 7.34 40.87 6.41
8/20/2021 1:30:00 AM 24.51 76.118 0.245 7.33 44.59 6.35
8/20/2021 1:45:00 AM 24.47 76.046 0.245 7.32 39.53 6.29
8/20/2021 2:00:00 AM 24.44 75.992 0.248 7.32 42.96 6.32
8/20/2021 2:15:00 AM 24.42 75.956 0.248 7.31 41.24 6.28
8/20/2021 2:30:00 AM 24.39 75.902 0.248 7.3 44.61 6.29
8/20/2021 2:45:00 AM 24.38 75.884 0.249 7.3 203.7 6.29
8/20/2021 3:00:00 AM 24.36 75.848 0.248 7.3 101 6.3
8/20/2021 3:15:00 AM 24.36 75.848 0.249 7.3 39.32 6.32
8/20/2021 3:30:00 AM 24.36 75.848 0.248 7.29 39.93 6.33
8/20/2021 3:45:00 AM 24.36 75.848 0.248 7.29 61.73 6.34
8/20/2021 4:00:00 AM 24.35 75.83 0.249 7.29 42.97 6.31
8/20/2021 4:15:00 AM 24.33 75.794 0.25 7.29 43.05 6.28
8/20/2021 4:30:00 AM 24.31 75.758 0.251 7.29 41.22 6.36
8/20/2021 4:45:00 AM 24.28 75.704 0.252 7.3 38.49 6.4
8/20/2021 5:00:00 AM 24.25 75.65 0.251 7.29 45.48 6.39
8/20/2021 5:15:00 AM 24.22 75.596 0.252 7.3 35.21 6.46
8/20/2021 5:30:00 AM 24.21 75.578 0.253 7.3 37.32 6.43
8/20/2021 5:45:00 AM 24.2 75.56 0.253 7.3 36.67 6.45
8/20/2021 6:00:00 AM 24.2 75.56 0.253 7.3 44 6.44
8/20/2021 6:15:00 AM 24.2 75.56 0.253 7.3 40.84 6.45
8/20/2021 6:30:00 AM 24.18 75.524 0.253 7.3 39.14 6.46
8/20/2021 6:45:00 AM 24.15 75.47 0.254 7.3 41.98 6.5
8/20/2021 7:00:00 AM 24.11 75.398 0.255 7.3 38.04 6.54
8/20/2021 7:15:00 AM 24.08 75.344 0.257 7.3 99.4 6.55
8/20/2021 7:30:00 AM 24.05 75.29 0.256 7.3 37.95 6.57
8/20/2021 7:45:00 AM 24.05 75.29 0.257 7.31 46.97 6.58
8/20/2021 8:00:00 AM 24.07 75.326 0.257 7.31 37.93 6.59
8/20/2021 8:15:00 AM 24.07 75.326 0.257 7.31 31.28 6.6
8/20/2021 8:30:00 AM 24.06 75.308 0.257 7.32 36.58 6.58
8/20/2021 8:45:00 AM 24.04 75.272 0.259 7.31 31.34 6.66
8/20/2021 9:00:00 AM 23.99 75.182 0.259 7.32 29.68 6.66
8/20/2021 9:15:00 AM 23.99 75.182 0.26 7.32 31.11 6.67
8/20/2021 9:30:00 AM 23.97 75.146 0.259 7.33 25.17 6.69
8/20/2021 9:45:00 AM 24 75.2 0.259 7.33 29.23 6.68
8/20/2021 10:00:00 AM 24 75.2 0.258 7.33 27.6 6.7
8/20/2021 10:15:00 AM 24.01 75.218 0.259 7.33 27.51 6.71
8/20/2021 10:30:00 AM 24.03 75.254 0.258 7.33 33.36 6.72
8/20/2021 10:45:00 AM 24.07 75.326 0.258 7.33 26.23 6.76
8/20/2021 11:00:00 AM 24.08 75.344 0.258 7.33 27.36 6.78
8/20/2021 11:15:00 AM 24.08 75.344 0.26 7.34 28.04 6.83
8/20/2021 11:30:00 AM 24.09 75.362 0.261 7.35 22.36 6.85
8/20/2021 11:45:00 AM 24.11 75.398 0.261 7.35 21.18 6.85
8/20/2021 12:00:00 PM 24.12 75.416 0.26 7.35 21.64 6.9
8/20/2021 12:15:00 PM 24.17 75.506 0.259 7.36 22.92 6.92
8/20/2021 12:30:00 PM 24.26 75.668 0.259 7.37 20.46 6.98
8/20/2021 12:45:00 PM 24.38 75.884 0.259 7.37 22.68 7.05
8/20/2021 1:00:00 PM 24.49 76.082 0.26 7.38 23.37 7.1
8/20/2021 1:15:00 PM 24.53 76.154 0.261 7.39 23.11 7.16
8/20/2021 1:30:00 PM 24.55 76.19 0.26 7.39 26.94 7.16
8/20/2021 1:45:00 PM 24.61 76.298 0.262 7.4 19.74 7.23
8/20/2021 2:00:00 PM 24.65 76.37 0.262 7.41 22.5 7.27
8/20/2021 2:15:00 PM 24.64 76.352 0.262 7.42 18.53 7.26
8/20/2021 2:30:00 PM 24.65 76.37 0.261 7.43 23.37 7.22
8/20/2021 2:45:00 PM 24.65 76.37 0.261 7.43 32.84 7.19
8/20/2021 3:00:00 PM 24.69 76.442 0.261 7.44 21.28 7.22
8/20/2021 3:15:00 PM 24.75 76.55 0.262 7.44 19.7 7.22
8/20/2021 3:30:00 PM 24.81 76.658 0.262 7.45 17.57 7.26
8/20/2021 3:45:00 PM 24.87 76.766 0.261 7.46 18.67 7.24
8/20/2021 4:00:00 PM 24.89 76.802 0.262 7.46 19.8 7.28
8/20/2021 4:15:00 PM 24.9 76.82 0.262 7.47 21.68 7.27
8/20/2021 4:30:00 PM 24.93 76.874 0.263 7.47 18.51 7.3
8/20/2021 4:45:00 PM 24.93 76.874 0.264 7.48 19.41 7.25
8/20/2021 5:00:00 PM 24.94 76.892 0.264 7.47 19.61 7.23
8/20/2021 5:15:00 PM 24.93 76.874 0.263 7.48 20.24 7.22
8/20/2021 5:30:00 PM 24.93 76.874 0.264 7.46 4443 7.24
8/20/2021 5:45:00 PM 24.92 76.856 0.263 7.47 404.6 7.19
8/20/2021 6:00:00 PM 24.95 76.91 0.263 7.47 861.8 7.13
8/20/2021 6:15:00 PM 24.96 76.92799 0.263 7.46 788.1 7.1
8/20/2021 6:30:00 PM 24.97 76.946 0.264 7.46 611 7.08
8/20/2021 6:45:00 PM 24.97 76.946 0.265 7.46 508.2 7.07
8/20/2021 7:00:00 PM 24.94 76.892 0.265 7.45 348.4 7.05
8/20/2021 7:15:00 PM 24.92 76.856 0.266 7.45 928 7.06
8/20/2021 7:30:00 PM 24.88 76.784 0.265 7.45 871 7.01
8/20/2021 7:45:00 PM 24.85 76.73 0.266 7.47 38.33 6.93
8/20/2021 8:00:00 PM 24.8 76.64 0.266 7.47 25.94 6.89
8/20/2021 8:15:00 PM 24.77 76.586 0.266 7.47 21.03 6.83
8/20/2021 8:30:00 PM 24.75 76.55 0.266 7.47 23.69 6.81
8/20/2021 8:45:00 PM 24.7 76.46 0.266 7.46 26.84 6.78
8/20/2021 9:00:00 PM 24.66 76.388 0.267 7.46 28.12 6.74
8/20/2021 9:15:00 PM 24.6 76.28 0.269 7.45 27.18 6.72
8/20/2021 9:30:00 PM 24.54 76.172 0.27 7.45 27.74 6.71
8/20/2021 9:45:00 PM 24.48 76.064 0.27 7.44 29.93 6.66
8/20/2021 10:00:00 PM 24.44 75.992 0.271 7.43 32.62 6.68
8/20/2021 10:15:00 PM 24.38 75.884 0.271 7.42 30.77 6.66
8/20/2021 10:30:00 PM 24.33 75.794 0.27 7.42 29.93 6.64
8/20/2021 10:45:00 PM 24.32 75.776 0.27 7.42 33.31 6.62
8/20/2021 11:00:00 PM 24.31 75.758 0.27 7.41 27.21 6.57
8/20/2021 11:15:00 PM 24.28 75.704 0.27 7.41 30.61 6.56
8/20/2021 11:30:00 PM 24.25 75.65 0.271 7.4 27.9 6.55
8/20/2021 11:45:00 PM 24.2 75.56 0.271 7.4 27.85 6.64
8/21/2021 12:00:00 AM 24.18 75.524 0.272 7.4 34.88 6.67
8/21/2021 12:15:00 AM 24.15 75.47 0.272 7.4 34.48 6.68
8/21/2021 12:30:00 AM 24.13 75.434 0.271 7.41 34.92 6.71
8/21/2021 12:45:00 AM 24.13 75.434 0.271 7.41 33.31 6.73
8/21/2021 1:00:00 AM 24.13 75.434 0.27 7.41 30.43 6.73
8/21/2021 1:15:00 AM 24.12 75.416 0.269 7.41 34.45 6.71
8/21/2021 1:30:00 AM 24.1 75.38 0.269 7.41 33.1 6.72
8/21/2021 1:45:00 AM 24.1 75.38 0.27 7.41 33.33 6.66
8/21/2021 2:00:00 AM 24.05 75.29 0.271 7.4 32.74 6.7
8/21/2021 2:15:00 AM 24.03 75.254 0.272 7.4 26.2 6.65
8/21/2021 2:30:00 AM 23.99 75.182 0.273 7.39 30.68 6.65
8/21/2021 2:45:00 AM 23.94 75.092 0.273 7.39 30.07 6.65
8/21/2021 3:00:00 AM 23.92 75.056 0.273 7.38 34.64 6.62
8/21/2021 3:15:00 AM 23.89 75.002 0.273 7.38 31.59 6.63
8/21/2021 3:30:00 AM 23.87 74.966 0.272 7.37 28.57 6.63
8/21/2021 3:45:00 AM 23.85 74.93 0.272 7.37 29.8 6.56
8/21/2021 4:00:00 AM 23.83 74.894 0.272 7.37 30.27 6.53
8/21/2021 4:15:00 AM 23.8 74.84 0.272 7.36 31.24 6.52
8/21/2021 4:30:00 AM 23.76 74.768 0.273 7.36 35.6 6.56
8/21/2021 4:45:00 AM 23.72 74.696 0.273 7.36 37.75 6.59
8/21/2021 5:00:00 AM 23.68 74.624 0.273 7.36 30.41 6.63
8/21/2021 5:15:00 AM 23.66 74.588 0.273 7.36 32.46 6.59
8/21/2021 5:30:00 AM 23.63 74.534 0.273 7.36 30.5 6.63
8/21/2021 5:45:00 AM 23.61 74.498 0.272 7.35 31.26 6.62
8/21/2021 6:00:00 AM 23.59 74.462 0.271 7.36 29.35 6.64
8/21/2021 6:15:00 AM 23.59 74.462 0.271 7.36 28.54 6.58
8/21/2021 6:30:00 AM 23.58 74.444 0.27 7.36 43.64 6.58
8/21/2021 6:45:00 AM 23.55 74.39 0.271 7.35 32 6.58
8/21/2021 7:00:00 AM 23.5 74.3 0.272 7.35 31.87 6.62
8/21/2021 7:15:00 AM 23.45 74.21 0.272 7.35 27.88 6.66
8/21/2021 7:30:00 AM 23.43 74.174 0.272 7.35 29.8 6.67
8/21/2021 7:45:00 AM 23.41 74.138 0.272 7.35 27.04 6.69
8/21/2021 8:00:00 AM 23.42 74.156 0.272 7.35 32.67 6.72
8/21/2021 8:15:00 AM 23.44 74.192 0.271 7.35 27.43 6.75
8/21/2021 8:30:00 AM 23.46 74.228 0.272 7.35 24.06 6.77
8/21/2021 8:45:00 AM 23.49 74.282 0.271 7.35 24.5 6.76
8/21/2021 9:00:00 AM 23.52 74.336 0.271 7.35 27.14 6.81
8/21/2021 9:15:00 AM 23.56 74.408 0.272 7.35 20.79 6.81
8/21/2021 9:30:00 AM 23.59 74.462 0.274 7.36 23.02 6.85
8/21/2021 9:45:00 AM 23.67 74.606 0.274 7.36 21.54 6.93
8/21/2021 10:00:00 AM 23.78 74.804 0.272 7.36 21.08 7
8/21/2021 10:15:00 AM 23.9 75.02 0.272 7.36 18.9 6.98
8/21/2021 10:30:00 AM 23.98 75.164 0.27 7.37 22.53 7.02
8/21/2021 10:45:00 AM 24.07 75.326 0.27 7.37 21.33 7
8/21/2021 11:00:00 AM 24.14 75.452 0.27 7.37 17.01 7.05
8/21/2021 11:15:00 AM 24.3 75.74 0.27 7.38 17.99 7.02
8/21/2021 11:30:00 AM 24.42 75.956 0.269 7.38 17.36 7.08
8/21/2021 11:45:00 AM 24.53 76.154 0.269 7.39 16.77 7.2
8/21/2021 12:00:00 PM 24.63 76.334 0.27 7.4 16.03 7.29
8/21/2021 12:15:00 PM 24.81 76.658 0.27 7.41 17.87 7.3
8/21/2021 12:30:00 PM 24.99 76.982 0.27 7.42 16.28 7.37
8/21/2021 12:45:00 PM 25.07 77.126 0.269 7.43 15.8 7.44
8/21/2021 1:00:00 PM 25.29 77.522 0.268 7.44 16.14 7.45
8/21/2021 1:15:00 PM 25.45 77.81 0.268 7.45 15.94 7.49
8/21/2021 1:30:00 PM 25.53 77.954 0.267 7.46 14.66 7.44
8/21/2021 1:45:00 PM 25.6 78.08 0.267 7.47 14.44 7.47
8/21/2021 2:00:00 PM 25.66 78.188 0.268 7.48 14.88 7.5
8/21/2021 2:15:00 PM 25.67 78.206 0.269 7.49 16.33 7.5
8/21/2021 2:30:00 PM 25.67 78.206 0.269 7.51 15.84 7.57
8/21/2021 2:45:00 PM 25.71 78.278 0.269 7.51 15.52 7.5
8/21/2021 3:00:00 PM 25.79 78.422 0.269 7.52 12.49 7.48
8/21/2021 3:15:00 PM 25.87 78.566 0.268 7.52 12.58 7.46
8/21/2021 3:30:00 PM 25.89 78.602 0.268 7.52 12.86 7.44
8/21/2021 3:45:00 PM 25.87 78.566 0.267 7.52 14.26 7.37
8/21/2021 4:00:00 PM 25.91 78.638 0.267 7.52 15.07 7.3
8/21/2021 4:15:00 PM 25.93 78.674 0.267 7.52 13.85 7.25
8/21/2021 4:30:00 PM 25.94 78.692 0.268 7.52 12.16 7.22
8/21/2021 4:45:00 PM 25.91 78.638 0.269 7.52 13.48 7.17
8/21/2021 5:00:00 PM 25.85 78.53 0.269 7.52 14.39 7.12
8/21/2021 5:15:00 PM 25.81 78.458 0.269 7.51 11.35 7.07
8/21/2021 5:30:00 PM 25.78 78.404 0.27 7.51 15.31 6.97
8/21/2021 5:45:00 PM 25.73 78.314 0.27 7.49 16.6 6.85
8/21/2021 6:00:00 PM 25.71 78.278 0.27 7.48 16.6 6.78
8/21/2021 6:15:00 PM 25.67 78.206 0.269 7.47 14.35 6.71
8/21/2021 6:30:00 PM 25.63 78.134 0.269 7.46 14.29 6.63
8/21/2021 6:45:00 PM 25.58 78.044 0.269 7.44 13.5 6.59
8/21/2021 7:00:00 PM 25.53 77.954 0.27 7.43 18.35 6.55
8/21/2021 7:15:00 PM 25.48 77.864 0.271 7.43 13.31 6.53
8/21/2021 7:30:00 PM 25.42 77.756 0.271 7.42 14.89 6.52
8/21/2021 7:45:00 PM 25.37 77.666 0.271 7.42 16.38 6.55
8/21/2021 8:00:00 PM 25.32 77.576 0.27 7.42 14.27 6.54
8/21/2021 8:15:00 PM 25.28 77.504 0.27 7.41 17.06 6.5
8/21/2021 8:30:00 PM 25.26 77.468 0.269 7.41 17.16 6.45
8/21/2021 8:45:00 PM 25.23 77.414 0.269 7.41 19.53 6.45
8/21/2021 9:00:00 PM 25.23 77.414 0.268 7.4 17.8 6.39
8/21/2021 9:15:00 PM 25.2 77.36 0.269 7.39 19.1 6.39
8/21/2021 9:30:00 PM 25.16 77.288 0.27 7.39 18.51 6.39
8/21/2021 9:45:00 PM 25.1 77.18 0.271 7.39 22.18 6.37
8/21/2021 10:00:00 PM 25.06 77.108 0.272 7.38 18.19 6.37
8/21/2021 10:15:00 PM 25.02 77.036 0.273 7.37 23.48 6.33
8/21/2021 10:30:00 PM 24.97 76.946 0.273 7.36 22.03 6.31
8/21/2021 10:45:00 PM 24.94 76.892 0.273 7.36 21.44 6.25
8/21/2021 11:00:00 PM 24.93 76.874 0.272 7.36 21.1 6.21
8/21/2021 11:15:00 PM 24.92 76.856 0.272 7.35 21.93 6.17
8/21/2021 11:30:00 PM 24.9 76.82 0.272 7.33 22.29 6.11
8/21/2021 11:45:00 PM 24.88 76.784 0.273 7.33 21.07 6.1
8/22/2021 12:00:00 AM 24.85 76.73 0.274 7.32 22.02 6.13
8/22/2021 12:15:00 AM 24.83 76.694 0.275 7.32 24.87 6.12
8/22/2021 12:30:00 AM 24.8 76.64 0.274 7.32 23.92 6.11
8/22/2021 12:45:00 AM 24.79 76.622 0.274 7.31 23.36 6.14
8/22/2021 1:00:00 AM 24.77 76.586 0.273 7.31 25.05 6.11
8/22/2021 1:15:00 AM 24.77 76.586 0.272 7.31 24.39 6.1
8/22/2021 1:30:00 AM 24.77 76.586 0.272 7.3 23.72 6.06
8/22/2021 1:45:00 AM 24.78 76.604 0.271 7.3 22.68 6.08
8/22/2021 2:00:00 AM 24.77 76.586 0.271 7.3 27.88 6.06
8/22/2021 2:15:00 AM 24.76 76.568 0.272 7.3 19.28 6.07
8/22/2021 2:30:00 AM 24.73 76.514 0.273 7.3 21.56 6.16
8/22/2021 2:45:00 AM 24.72 76.496 0.274 7.3 20.7 6.15
8/22/2021 3:00:00 AM 24.7 76.46 0.274 7.3 23.96 6.21
8/22/2021 3:15:00 AM 24.69 76.442 0.274 7.3 21.52 6.2
8/22/2021 3:30:00 AM 24.69 76.442 0.273 7.3 23.19 6.15
8/22/2021 3:45:00 AM 24.69 76.442 0.273 7.3 23.58 6.12
8/22/2021 4:00:00 AM 24.69 76.442 0.273 7.3 24.78 6.09
8/22/2021 4:15:00 AM 24.69 76.442 0.272 7.29 26.45 6.06
8/22/2021 4:30:00 AM 24.67 76.406 0.273 7.29 26.12 6.08
8/22/2021 4:45:00 AM 24.64 76.352 0.275 7.28 32.7 6.07
8/22/2021 5:00:00 AM 24.61 76.298 0.276 7.28 25.49 6.13
8/22/2021 5:15:00 AM 24.58 76.244 0.276 7.28 28.23 6.11
8/22/2021 5:30:00 AM 24.58 76.244 0.275 7.27 23.95 6.1
8/22/2021 5:45:00 AM 24.57 76.226 0.274 7.27 19.68 6.1
8/22/2021 6:00:00 AM 24.56 76.208 0.273 7.27 24.79 6.03
8/22/2021 6:15:00 AM 24.57 76.226 0.273 7.27 24.7 6.09
8/22/2021 6:30:00 AM 24.58 76.244 0.272 7.27 25.46 6.02
8/22/2021 6:45:00 AM 24.58 76.244 0.271 7.27 25 6.06
8/22/2021 7:00:00 AM 24.56 76.208 0.272 7.27 29.92 6.1
8/22/2021 7:15:00 AM 24.53 76.154 0.273 7.27 23.76 6.17
8/22/2021 7:30:00 AM 24.51 76.118 0.274 7.27 23.08 6.17
8/22/2021 7:45:00 AM 24.5 76.1 0.273 7.27 20.42 6.22
8/22/2021 8:00:00 AM 24.49 76.082 0.273 7.28 22.83 6.22
8/22/2021 8:15:00 AM 24.48 76.064 0.272 7.27 21.14 6.22
8/22/2021 8:30:00 AM 24.48 76.064 0.272 7.27 27.78 6.22
8/22/2021 8:45:00 AM 24.49 76.082 0.271 7.27 20.69 6.23
8/22/2021 9:00:00 AM 24.49 76.082 0.271 7.28 43.39 6.19
8/22/2021 9:15:00 AM 24.47 76.046 0.271 7.28 16.91 6.24
8/22/2021 9:30:00 AM 24.44 75.992 0.272 7.28 16.96 6.23
8/22/2021 9:45:00 AM 24.4 75.92 0.273 7.28 18.2 6.3
8/22/2021 10:00:00 AM 24.39 75.902 0.273 7.28 22.06 6.32
8/22/2021 10:15:00 AM 24.37 75.866 0.272 7.29 19.01 6.31
8/22/2021 10:30:00 AM 24.38 75.884 0.272 7.29 17.45 6.37
8/22/2021 10:45:00 AM 24.37 75.866 0.271 7.29 13.61 6.35
8/22/2021 11:00:00 AM 24.35 75.83 0.269 7.29 15.72 6.47
8/22/2021 11:15:00 AM 24.32 75.776 0.266 7.29 17.24 6.55
8/22/2021 11:30:00 AM 24.25 75.65 0.261 7.3 22.45 6.71
8/22/2021 11:45:00 AM 24.21 75.578 0.259 7.3 27.05 6.76
8/22/2021 12:00:00 PM 24.17 75.506 0.259 7.3 31.45 6.78
8/22/2021 12:15:00 PM 24.15 75.47 0.26 7.3 31.66 6.73
8/22/2021 12:30:00 PM 24.15 75.47 0.261 7.3 26.18 6.77
8/22/2021 12:45:00 PM 24.21 75.578 0.262 7.3 28.02 6.62
8/22/2021 1:00:00 PM 24.22 75.596 0.264 7.29 29.43 6.55
8/22/2021 1:15:00 PM 24.08 75.344 0.27 7.29 27.29 6.69
8/22/2021 1:30:00 PM 23.92 75.056 0.274 7.3 36.22 6.88
8/22/2021 1:45:00 PM 23.79 74.82201 0.274 7.31 36.41 7.02
8/22/2021 2:00:00 PM 23.68 74.624 0.269 7.33 45.3 7.16
8/22/2021 2:15:00 PM 23.6 74.48 0.261 7.35 70.97 7.26
8/22/2021 2:30:00 PM 23.56 74.408 0.258 7.37 58.13 7.27
8/22/2021 2:45:00 PM 23.46 74.228 0.254 7.39 73.5 7.41
8/22/2021 3:00:00 PM 23.37 74.066 0.251 7.4 86.84 7.42
8/22/2021 3:15:00 PM 23.29 73.922 0.246 7.41 109 7.43
8/22/2021 3:30:00 PM 23.21 73.778 0.245 7.42 111.8 7.49
8/22/2021 3:45:00 PM 23 73.4 0.241 7.45 269.5 7.78
8/22/2021 4:00:00 PM 22.9 73.22 0.217 7.47 463.5 7.77
8/22/2021 4:15:00 PM 22.72 72.896 0.176 7.46 772.2 7.7
8/22/2021 4:30:00 PM 22.64 72.752 0.159 7.4 711.5 7.7
8/22/2021 4:45:00 PM 22.65 72.77 0.159 7.35 679.8 7.68
8/22/2021 5:00:00 PM 22.66 72.788 0.162 7.32 591.6 7.64
8/22/2021 5:15:00 PM 22.69 72.842 0.167 7.29 539.1 7.58
8/22/2021 5:30:00 PM 22.72 72.896 0.176 7.27 443.5 7.55
8/22/2021 5:45:00 PM 22.73 72.914 0.187 7.27 361 7.54
8/22/2021 6:00:00 PM 22.75 72.95 0.199 7.28 251.6 7.54
8/22/2021 6:15:00 PM 22.74 72.932 0.209 7.29 210.5 7.52
8/22/2021 6:30:00 PM 22.7 72.86 0.216 7.31 197.8 7.47
8/22/2021 6:45:00 PM 22.67 72.806 0.219 7.32 186.7 7.49
8/22/2021 7:00:00 PM 22.62 72.716 0.219 7.33 184.9 7.47
8/22/2021 7:15:00 PM 22.57 72.626 0.22 7.33 193.7 7.44
8/22/2021 7:30:00 PM 22.56 72.608 0.219 7.33 176.7 7.4
8/22/2021 7:45:00 PM 22.51 72.518 0.217 7.33 174.1 7.4
8/22/2021 8:00:00 PM 22.49 72.482 0.215 7.34 185.3 7.37
8/22/2021 8:15:00 PM 22.45 72.41 0.21 7.34 197.5 7.36
8/22/2021 8:30:00 PM 22.42 72.356 0.207 7.35 211.8 7.35
8/22/2021 8:45:00 PM 22.39 72.302 0.204 7.36 207.6 7.34
8/22/2021 9:00:00 PM 22.39 72.302 0.205 7.35 201.3 7.32
8/22/2021 9:15:00 PM 22.4 72.32 0.206 7.35 198.7 7.3
8/22/2021 9:30:00 PM 22.38 72.284 0.207 7.34 187.3 7.3
8/22/2021 9:45:00 PM 22.4 72.32 0.208 7.34 172 7.32
8/22/2021 10:00:00 PM 22.4 72.32 0.209 7.33 160.6 7.24
8/22/2021 10:15:00 PM 22.42 72.356 0.211 7.32 163.6 7.23
8/22/2021 10:30:00 PM 22.42 72.356 0.212 7.32 141.3 7.26
8/22/2021 10:45:00 PM 22.44 72.392 0.215 7.31 142 7.23
8/22/2021 11:00:00 PM 22.4 72.32 0.217 7.31 134.2 7.25
8/22/2021 11:15:00 PM 22.37 72.266 0.219 7.32 133.5 7.26
8/22/2021 11:30:00 PM 22.37 72.266 0.221 7.31 143.6 7.26
8/22/2021 11:45:00 PM 22.34 72.212 0.223 7.31 117.5 7.25
8/23/2021 12:00:00 AM 22.33 72.194 0.223 7.31 121.3 7.24
8/23/2021 12:15:00 AM 22.3 72.14 0.224 7.31 126 7.27
8/23/2021 12:30:00 AM 22.29 72.122 0.224 7.31 118.2 7.25
8/23/2021 12:45:00 AM 22.28 72.104 0.224 7.31 106.1 7.25
8/23/2021 1:00:00 AM 22.31 72.158 0.224 7.31 104.3 7.19
8/23/2021 1:15:00 AM 22.32 72.176 0.224 7.31 105.4 7.2
8/23/2021 1:30:00 AM 22.33 72.194 0.224 7.31 99.54 7.18
8/23/2021 1:45:00 AM 22.3 72.14 0.223 7.31 101.3 7.22
8/23/2021 2:00:00 AM 22.31 72.158 0.223 7.31 95.36 7.21
8/23/2021 2:15:00 AM 22.29 72.122 0.223 7.31 102.8 7.18
8/23/2021 2:30:00 AM 22.28 72.104 0.223 7.31 88.54 7.2
8/23/2021 2:45:00 AM 22.27 72.086 0.223 7.31 89.89 7.22
8/23/2021 3:00:00 AM 22.27 72.086 0.224 7.31 90.99 7.22
8/23/2021 3:15:00 AM 22.28 72.104 0.224 7.31 80.34 7.21
8/23/2021 3:30:00 AM 22.29 72.122 0.225 7.31 80.36 7.15
8/23/2021 3:45:00 AM 22.32 72.176 0.226 7.31 75.09 7.15
8/23/2021 4:00:00 AM 22.28 72.104 0.226 7.31 77.11 7.17
8/23/2021 4:15:00 AM 22.28 72.104 0.227 7.31 83.77 7.13
8/23/2021 4:30:00 AM 22.25 72.05 0.228 7.31 75.75 7.14
8/23/2021 4:45:00 AM 22.24 72.032 0.228 7.31 76.02 7.14
8/23/2021 5:00:00 AM 22.23 72.014 0.23 7.31 72.21 7.16
8/23/2021 5:15:00 AM 22.24 72.032 0.23 7.3 75.65 7.14
8/23/2021 5:30:00 AM 22.24 72.032 0.231 7.3 71.86 7.14
8/23/2021 5:45:00 AM 22.28 72.104 0.232 7.3 75.66 7.06
8/23/2021 6:00:00 AM 22.27 72.086 0.233 7.3 69.94 7.05
8/23/2021 6:15:00 AM 22.22 71.996 0.233 7.3 74.43 7.08
8/23/2021 6:30:00 AM 22.24 72.032 0.236 7.3 65.96 7.03
8/23/2021 6:45:00 AM 22.23 72.014 0.237 7.3 62.43 7.07
8/23/2021 7:00:00 AM 22.18 71.924 0.237 7.3 66.49 7.09
8/23/2021 7:15:00 AM 22.21 71.978 0.239 7.3 62.97 7.08
8/23/2021 7:30:00 AM 22.21 71.978 0.239 7.3 54.87 7.1
8/23/2021 7:45:00 AM 22.22 71.996 0.24 7.3 56.21 7.06
8/23/2021 8:00:00 AM 22.23 72.014 0.24 7.3 63.3 7.04
8/23/2021 8:15:00 AM 22.32 72.176 0.241 7.3 53.39 7.01
8/23/2021 8:30:00 AM 22.33 72.194 0.242 7.31 51.66 7.04
8/23/2021 8:45:00 AM 22.35 72.23 0.242 7.31 44.95 7.05
8/23/2021 9:00:00 AM 22.38 72.284 0.244 7.31 51.45 7.09
8/23/2021 9:15:00 AM 22.41 72.338 0.244 7.31 45.96 7.14
8/23/2021 9:30:00 AM 22.44 72.392 0.244 7.32 50.98 7.17
8/23/2021 9:45:00 AM 22.52 72.536 0.244 7.32 44.5 7.22
8/23/2021 10:00:00 AM 22.54 72.57201 0.245 7.32 54.41 7.21
8/23/2021 10:15:00 AM 22.65 72.77 0.244 7.32 49.13 7.21
8/23/2021 10:30:00 AM 22.76 72.968 0.245 7.33 41.89 7.21
8/23/2021 10:45:00 AM 22.94 73.292 0.245 7.33 41.19 7.18
8/23/2021 11:00:00 AM 23.05 73.49 0.245 7.34 29.87 7.24
8/23/2021 11:15:00 AM 23.15 73.67 0.245 7.34 36.75 7.28
8/23/2021 11:30:00 AM 23.28 73.904 0.247 7.35 37.16 7.34
8/23/2021 11:45:00 AM 23.39 74.102 0.247 7.36 38.46 7.36
8/23/2021 12:00:00 PM 23.52 74.336 0.247 7.36 33.02 7.38
8/23/2021 12:15:00 PM 23.69 74.642 0.247 7.37 48.56 7.42
8/23/2021 12:30:00 PM 23.83 74.894 0.247 7.37 34.88 7.38
8/23/2021 12:45:00 PM 23.95 75.11 0.247 7.38 29.1 7.41
8/23/2021 1:00:00 PM 24.09 75.362 0.247 7.38 29.89 7.36
8/23/2021 1:15:00 PM 24.27 75.686 0.247 7.39 30.95 7.39
8/23/2021 1:30:00 PM 24.43 75.974 0.248 7.39 28.57 7.38
8/23/2021 1:45:00 PM 24.48 76.064 0.249 7.39 33.57 7.42
8/23/2021 2:00:00 PM 24.5 76.1 0.249 7.4 30.85 7.43
8/23/2021 2:15:00 PM 24.59 76.262 0.249 7.41 30.35 7.41
8/23/2021 2:30:00 PM 24.68 76.424 0.249 7.41 26.64 7.41
8/23/2021 2:45:00 PM 24.77 76.586 0.249 7.42 23.99 7.37
8/23/2021 3:00:00 PM 24.87 76.766 0.25 7.42 39.45 7.35
8/23/2021 3:15:00 PM 24.93 76.874 0.249 7.43 30.48 7.33
8/23/2021 3:30:00 PM 25.03 77.054 0.249 7.42 28.41 7.29
8/23/2021 3:45:00 PM 25.11 77.198 0.249 7.42 31.01 7.25
8/23/2021 4:00:00 PM 25.15 77.27 0.25 7.43 25.24 7.2
8/23/2021 4:15:00 PM 25.17 77.306 0.25 7.43 25.29 7.21
8/23/2021 4:30:00 PM 25.19 77.342 0.251 7.43 27.69 7.22
8/23/2021 4:45:00 PM 25.22 77.396 0.251 7.44 26.47 7.2
8/23/2021 5:00:00 PM 25.23 77.414 0.251 7.44 28.08 7.21
8/23/2021 5:15:00 PM 25.22 77.396 0.251 7.44 26.58 7.19
8/23/2021 5:30:00 PM 25.24 77.432 0.252 7.44 24.49 7.14
8/23/2021 5:45:00 PM 25.24 77.432 0.252 7.44 27.64 7.05
8/23/2021 6:00:00 PM 25.24 77.432 0.253 7.42 37.22 6.9
8/23/2021 6:15:00 PM 25.2 77.36 0.254 7.41 31.58 6.77
8/23/2021 6:30:00 PM 25.17 77.306 0.256 7.39 30.79 6.63
8/23/2021 6:45:00 PM 25.13 77.234 0.257 7.37 26.01 6.57
8/23/2021 7:00:00 PM 25.09 77.162 0.258 7.35 28.58 6.51
8/23/2021 7:15:00 PM 25.07 77.126 0.258 7.34 26.83 6.5
8/23/2021 7:30:00 PM 25.05 77.09 0.258 7.34 29.14 6.48
8/23/2021 7:45:00 PM 25.03 77.054 0.258 7.33 28.92 6.47
8/23/2021 8:00:00 PM 25 77 0.257 7.33 27.46 6.45
8/23/2021 8:15:00 PM 24.97 76.946 0.256 7.32 28.88 6.43
8/23/2021 8:30:00 PM 24.96 76.92799 0.256 7.32 29.76 6.4
8/23/2021 8:45:00 PM 24.93 76.874 0.256 7.32 101 6.39
8/23/2021 9:00:00 PM 24.89 76.802 0.256 7.31 40.93 6.39
8/23/2021 9:15:00 PM 24.86 76.748 0.257 7.32 32.87 6.4
8/23/2021 9:30:00 PM 24.82 76.676 0.257 7.32 37.53 6.4
8/23/2021 9:45:00 PM 24.78 76.604 0.257 7.32 32.86 6.51
8/23/2021 10:00:00 PM 24.75 76.55 0.258 7.32 27.32 6.51
8/23/2021 10:15:00 PM 24.72 76.496 0.257 7.32 36.65 6.54
8/23/2021 10:30:00 PM 24.72 76.496 0.256 7.33 30.58 6.51
8/23/2021 10:45:00 PM 24.71 76.478 0.257 7.32 36.92 6.49
8/23/2021 11:00:00 PM 24.71 76.478 0.256 7.33 29.7 6.46
8/23/2021 11:15:00 PM 24.71 76.478 0.257 7.32 31.83 6.44
8/23/2021 11:30:00 PM 24.68 76.424 0.258 7.32 32.33 6.46
8/23/2021 11:45:00 PM 24.65 76.37 0.259 7.32 34.36 6.41
8/24/2021 12:00:00 AM 24.63 76.334 0.259 7.31 36.73 6.46
8/24/2021 12:15:00 AM 24.61 76.298 0.26 7.31 33.65 6.47
8/24/2021 12:30:00 AM 24.59 76.262 0.26 7.31 32.85 6.45
8/24/2021 12:45:00 AM 24.58 76.244 0.26 7.31 32.58 6.46
8/24/2021 1:00:00 AM 24.58 76.244 0.259 7.31 38.05 6.47
8/24/2021 1:15:00 AM 24.58 76.244 0.259 7.31 30.05 6.42
8/24/2021 1:30:00 AM 24.58 76.244 0.259 7.31 29.94 6.42
8/24/2021 1:45:00 AM 24.56 76.208 0.259 7.3 30.44 6.42
8/24/2021 2:00:00 AM 24.53 76.154 0.26 7.3 29.16 6.4
8/24/2021 2:15:00 AM 24.49 76.082 0.261 7.3 28.55 6.41
8/24/2021 2:30:00 AM 24.45 76.01 0.262 7.3 27.33 6.41
8/24/2021 2:45:00 AM 24.41 75.938 0.262 7.3 28.06 6.4
8/24/2021 3:00:00 AM 24.37 75.866 0.262 7.3 26.25 6.44
8/24/2021 3:15:00 AM 24.33 75.794 0.261 7.29 31.22 6.42
8/24/2021 3:30:00 AM 24.3 75.74 0.261 7.28 25.67 6.41
8/24/2021 3:45:00 AM 24.27 75.686 0.261 7.28 26.75 6.39
8/24/2021 4:00:00 AM 24.24 75.632 0.261 7.27 27.27 6.29
8/24/2021 4:15:00 AM 24.18 75.524 0.263 7.26 25.36 6.27
8/24/2021 4:30:00 AM 24.1 75.38 0.264 7.25 26.64 6.29
8/24/2021 4:45:00 AM 24.04 75.272 0.265 7.25 30.93 6.29
8/24/2021 5:00:00 AM 23.98 75.164 0.265 7.25 35.75 6.27
8/24/2021 5:15:00 AM 23.92 75.056 0.266 7.24 30.44 6.29
8/24/2021 5:30:00 AM 23.87 74.966 0.266 7.24 29.07 6.26
8/24/2021 5:45:00 AM 23.82 74.876 0.265 7.23 28.27 6.27
8/24/2021 6:00:00 AM 23.78 74.804 0.265 7.23 26.74 6.26
8/24/2021 6:15:00 AM 23.77 74.786 0.264 7.22 33.88 6.24
8/24/2021 6:30:00 AM 23.73 74.714 0.264 7.23 31.8 6.28
8/24/2021 6:45:00 AM 23.68 74.624 0.265 7.22 27.76 6.24
8/24/2021 7:00:00 AM 23.62 74.516 0.266 7.23 38.61 6.36
8/24/2021 7:15:00 AM 23.56 74.408 0.267 7.23 73.55 6.39
8/24/2021 7:30:00 AM 23.54 74.372 0.267 7.24 98.17 6.35
8/24/2021 7:45:00 AM 23.54 74.372 0.266 7.24 53.66 6.46
8/24/2021 8:00:00 AM 23.55 74.39 0.266 7.24 39.18 6.5
8/24/2021 8:15:00 AM 23.57 74.426 0.265 7.24 39.3 6.55
8/24/2021 8:30:00 AM 23.61 74.498 0.265 7.25 35.98 6.52
8/24/2021 8:45:00 AM 23.67 74.606 0.265 7.25 28.6 6.6
8/24/2021 9:00:00 AM 23.71 74.67799 0.265 7.26 38 6.65
8/24/2021 9:15:00 AM 23.77 74.786 0.266 7.26 28.57 6.74
8/24/2021 9:30:00 AM 23.82 74.876 0.267 7.27 30.34 6.81
8/24/2021 9:45:00 AM 23.92 75.056 0.267 7.28 29.64 6.8
8/24/2021 10:00:00 AM 23.99 75.182 0.266 7.28 67.8 6.83
8/24/2021 10:15:00 AM 24.09 75.362 0.266 7.29 37.86 6.89
8/24/2021 10:30:00 AM 24.19 75.542 0.265 7.3 30.61 6.95
8/24/2021 10:45:00 AM 24.31 75.758 0.265 7.31 25.48 7.01
8/24/2021 11:00:00 AM 24.44 75.992 0.264 7.32 19.85 7.06
8/24/2021 11:15:00 AM 24.59 76.262 0.264 7.32 32.53 7.09
8/24/2021 11:30:00 AM 24.7 76.46 0.265 7.33 21.66 7.11
8/24/2021 11:45:00 AM 24.8 76.64 0.266 7.33 18.26 7.17
8/24/2021 12:00:00 PM 24.91 76.838 0.267 7.34 37.33 7.26
8/24/2021 12:15:00 PM 25.06 77.108 0.267 7.36 19.1 7.27
8/24/2021 12:30:00 PM 25.23 77.414 0.267 7.36 23.15 7.32
8/24/2021 12:45:00 PM 25.37 77.666 0.266 7.36 18.19 7.31
8/24/2021 1:00:00 PM 25.52 77.936 0.267 7.37 24.11 7.28
8/24/2021 1:15:00 PM 25.68 78.224 0.266 7.38 19.74 7.34
8/24/2021 1:30:00 PM 25.82 78.476 0.266 7.38 17.3 7.33
8/24/2021 1:45:00 PM 25.97 78.746 0.267 7.39 14.05 7.32
8/24/2021 2:00:00 PM 26.09 78.962 0.268 7.39 15.78 7.29
8/24/2021 2:15:00 PM 26.14 79.052 0.269 7.4 14.65 7.31
8/24/2021 2:30:00 PM 26.23 79.214 0.27 7.4 16.55 7.34
8/24/2021 2:45:00 PM 26.3 79.34 0.27 7.41 21.88 7.3
8/24/2021 3:00:00 PM 26.35 79.43 0.27 7.42 19.91 7.25
8/24/2021 3:15:00 PM 26.4 79.52 0.27 7.43 23.98 7.27
8/24/2021 3:30:00 PM 26.43 79.574 0.27 7.43 21.21 7.23
8/24/2021 3:45:00 PM 26.47 79.646 0.269 7.44 22.96 7.16
8/24/2021 4:00:00 PM 26.48 79.664 0.269 7.44 18.39 7.14
8/24/2021 4:15:00 PM 26.48 79.664 0.269 7.44 19.35 7.06
8/24/2021 4:30:00 PM 26.47 79.646 0.27 7.44 17.51 7.05
8/24/2021 4:45:00 PM 26.44 79.592 0.271 7.44 19.99 6.99
8/24/2021 5:00:00 PM 26.4 79.52 0.272 7.44 26.81 6.95
8/24/2021 5:15:00 PM 26.36 79.448 0.272 7.43 23.76 6.86
8/24/2021 5:30:00 PM 26.32 79.376 0.273 7.43 19.24 6.75
8/24/2021 5:45:00 PM 26.28 79.304 0.273 7.41 17.43 6.67
8/24/2021 6:00:00 PM 26.24 79.232 0.273 7.4 15.68 6.55
8/24/2021 6:15:00 PM 26.2 79.16 0.272 7.38 16.36 6.45
8/24/2021 6:30:00 PM 26.16 79.088 0.272 7.37 20.34 6.3
8/24/2021 6:45:00 PM 26.11 78.998 0.272 7.35 15.72 6.31
8/24/2021 7:00:00 PM 26.05 78.89 0.273 7.35 14.86 6.26
8/24/2021 7:15:00 PM 25.99 78.782 0.273 7.34 18.56 6.28
8/24/2021 7:30:00 PM 25.92 78.656 0.273 7.34 17.28 6.3
8/24/2021 7:45:00 PM 25.87 78.566 0.272 7.34 16.18 6.29
8/24/2021 8:00:00 PM 25.81 78.458 0.272 7.33 14.26 6.27
8/24/2021 8:15:00 PM 25.76 78.368 0.271 7.34 17.17 6.27
8/24/2021 8:30:00 PM 25.7 78.26 0.27 7.34 15.45 6.28
8/24/2021 8:45:00 PM 25.65 78.17 0.269 7.33 15.55 6.28
8/24/2021 9:00:00 PM 25.59 78.062 0.269 7.34 21.05 6.23
8/24/2021 9:15:00 PM 25.53 77.954 0.269 7.33 19.67 6.2
8/24/2021 9:30:00 PM 25.46 77.828 0.27 7.33 18.83 6.23
8/24/2021 9:45:00 PM 25.38 77.684 0.272 7.32 24.9 6.24
8/24/2021 10:00:00 PM 25.31 77.558 0.272 7.32 19.57 6.25
8/24/2021 10:15:00 PM 25.25 77.45 0.272 7.32 21.37 6.19
8/24/2021 10:30:00 PM 25.2 77.36 0.272 7.3 24.83 6.14
8/24/2021 10:45:00 PM 25.15 77.27 0.271 7.3 23.89 6.12
8/24/2021 11:00:00 PM 25.12 77.216 0.271 7.29 26.78 6.11
8/24/2021 11:15:00 PM 25.09 77.162 0.271 7.29 21.18 6.03
8/24/2021 11:30:00 PM 25.06 77.108 0.271 7.28 20.86 6
8/24/2021 11:45:00 PM 25.01 77.018 0.272 7.27 23.07 6.05
8/25/2021 12:00:00 AM 24.96 76.92799 0.273 7.27 22.56 6.07
8/25/2021 12:15:00 AM 24.92 76.856 0.274 7.27 23.91 6.05
8/25/2021 12:30:00 AM 24.88 76.784 0.273 7.27 23.05 6.09
8/25/2021 12:45:00 AM 24.85 76.73 0.273 7.26 19.63 6.05
8/25/2021 1:00:00 AM 24.84 76.712 0.272 7.26 20.18 6.04
8/25/2021 1:15:00 AM 24.82 76.676 0.272 7.26 26.46 6.04
8/25/2021 1:30:00 AM 24.81 76.658 0.271 7.26 22.46 6.06
8/25/2021 1:45:00 AM 24.8 76.64 0.271 7.26 25.27 6.03
8/25/2021 2:00:00 AM 24.78 76.604 0.271 7.26 22.01 6.05
8/25/2021 2:15:00 AM 24.74 76.532 0.272 7.25 24.24 6.07
8/25/2021 2:30:00 AM 24.7 76.46 0.273 7.26 23.87 6.08
8/25/2021 2:45:00 AM 24.67 76.406 0.274 7.25 21.88 6.09
8/25/2021 3:00:00 AM 24.63 76.334 0.274 7.25 27.01 6.08
8/25/2021 3:15:00 AM 24.61 76.298 0.274 7.25 21.68 6.04
8/25/2021 3:30:00 AM 24.59 76.262 0.273 7.25 20.79 6.02
8/25/2021 3:45:00 AM 24.57 76.226 0.273 7.24 21.92 6.04
8/25/2021 4:00:00 AM 24.55 76.19 0.272 7.24 23.96 6.02
8/25/2021 4:15:00 AM 24.53 76.154 0.272 7.24 22.02 5.95
8/25/2021 4:30:00 AM 24.49 76.082 0.274 7.23 23.51 5.99
8/25/2021 4:45:00 AM 24.44 75.992 0.274 7.23 25.33 5.98
8/25/2021 5:00:00 AM 24.4 75.92 0.275 7.23 23.84 6
8/25/2021 5:15:00 AM 24.36 75.848 0.275 7.23 22.34 6.06
8/25/2021 5:30:00 AM 24.32 75.776 0.274 7.23 24.08 6.09
8/25/2021 5:45:00 AM 24.29 75.722 0.274 7.23 24.65 6.06
8/25/2021 6:00:00 AM 24.27 75.686 0.273 7.23 24.26 6.12
8/25/2021 6:15:00 AM 24.25 75.65 0.273 7.23 23.26 6.09
8/25/2021 6:30:00 AM 24.22 75.596 0.272 7.23 26 6.09
8/25/2021 6:45:00 AM 24.2 75.56 0.272 7.23 24.55 6.06
8/25/2021 7:00:00 AM 24.15 75.47 0.273 7.23 29.72 6.13
8/25/2021 7:15:00 AM 24.1 75.38 0.274 7.23 55.83 6.17
8/25/2021 7:30:00 AM 24.06 75.308 0.274 7.24 36.32 6.2
8/25/2021 7:45:00 AM 24.06 75.308 0.273 7.24 32.64 6.29
8/25/2021 8:00:00 AM 24.06 75.308 0.272 7.24 25.38 6.27
8/25/2021 8:15:00 AM 24.08 75.344 0.272 7.24 26.69 6.29
8/25/2021 8:30:00 AM 24.11 75.398 0.271 7.24 23.61 6.37
8/25/2021 8:45:00 AM 24.16 75.488 0.271 7.24 26.01 6.38
8/25/2021 9:00:00 AM 24.23 75.614 0.271 7.25 38.94 6.4
8/25/2021 9:15:00 AM 24.28 75.704 0.271 7.25 27.07 6.46
8/25/2021 9:30:00 AM 24.33 75.794 0.272 7.26 17.99 6.56
8/25/2021 9:45:00 AM 24.42 75.956 0.273 7.26 22.74 6.65
8/25/2021 10:00:00 AM 24.51 76.118 0.273 7.27 22.89 6.68
8/25/2021 10:15:00 AM 24.62 76.316 0.272 7.28 19.74 6.69
8/25/2021 10:30:00 AM 24.74 76.532 0.272 7.28 25.18 6.71
8/25/2021 10:45:00 AM 24.86 76.748 0.271 7.29 26.4 6.8
8/25/2021 11:00:00 AM 24.99 76.982 0.271 7.29 19.26 6.87
8/25/2021 11:15:00 AM 25.16 77.288 0.271 7.3 17.42 6.83
8/25/2021 11:30:00 AM 25.3 77.54 0.271 7.31 18.37 6.96
8/25/2021 11:45:00 AM 25.44 77.792 0.272 7.32 14.18 6.99
8/25/2021 12:00:00 PM 25.57 78.026 0.273 7.32 21.91 7.03
8/25/2021 12:15:00 PM 25.71 78.278 0.273 7.33 22.45 7.03
8/25/2021 12:30:00 PM 25.86 78.548 0.273 7.34 23.56 7.13
8/25/2021 12:45:00 PM 26.01 78.818 0.273 7.35 19.51 7.1
8/25/2021 1:00:00 PM 26.16 79.088 0.273 7.36 14.97 7.17
8/25/2021 1:15:00 PM 26.3 79.34 0.272 7.36 16.67 7.21
8/25/2021 1:30:00 PM 26.48 79.664 0.271 7.37 13.78 7.1
8/25/2021 1:45:00 PM 26.61 79.898 0.271 7.37 15.99 7.13
8/25/2021 2:00:00 PM 26.72 80.096 0.272 7.38 11.58 7.12
8/25/2021 2:15:00 PM 26.79 80.222 0.274 7.39 29.93 7.13
8/25/2021 2:30:00 PM 26.85 80.33 0.275 7.39 16.61 7.17
8/25/2021 2:45:00 PM 26.91 80.438 0.275 7.4 14.15 7.15
8/25/2021 3:00:00 PM 26.97 80.546 0.275 7.4 14.54 7.1
8/25/2021 3:15:00 PM 27.02 80.636 0.275 7.41 12.72 7.1
8/25/2021 3:30:00 PM 27.03 80.654 0.274 7.41 13 7.08
8/25/2021 3:45:00 PM 27.06 80.708 0.274 7.42 12.79 6.94
8/25/2021 4:00:00 PM 27.07 80.726 0.273 7.42 16.98 6.89
8/25/2021 4:15:00 PM 27.04 80.672 0.273 7.42 12.01 6.81
8/25/2021 4:30:00 PM 27.03 80.654 0.273 7.41 14.63 6.74
8/25/2021 4:45:00 PM 26.97 80.546 0.275 7.4 20.74 6.72
8/25/2021 5:00:00 PM 26.94 80.492 0.275 7.4 15.38 6.62
8/25/2021 5:15:00 PM 26.91 80.438 0.275 7.4 13.5 6.61
8/25/2021 5:30:00 PM 26.89 80.402 0.275 7.39 17.45 6.53
8/25/2021 5:45:00 PM 26.85 80.33 0.275 7.38 16.73 6.48
8/25/2021 6:00:00 PM 26.81 80.258 0.275 7.37 19.45 6.41
8/25/2021 6:15:00 PM 26.79 80.222 0.274 7.37 11.6 6.29
8/25/2021 6:30:00 PM 26.75 80.15 0.273 7.36 12.74 6.17
8/25/2021 6:45:00 PM 26.7 80.06 0.273 7.35 18.36 6.16
8/25/2021 7:00:00 PM 26.63 79.934 0.274 7.35 16.84 6.13
8/25/2021 7:15:00 PM 26.56 79.808 0.275 7.34 13 6.12
8/25/2021 7:30:00 PM 26.49 79.682 0.275 7.34 13.89 6.12
8/25/2021 7:45:00 PM 26.42 79.556 0.275 7.34 15.3 6.1
8/25/2021 8:00:00 PM 26.35 79.43 0.274 7.33 13.38 6.12
8/25/2021 8:15:00 PM 26.28 79.304 0.273 7.33 14.52 6.09
8/25/2021 8:30:00 PM 26.22 79.196 0.273 7.32 14.62 6.03
8/25/2021 8:45:00 PM 26.15 79.07 0.272 7.32 16.32 6.02
8/25/2021 9:00:00 PM 26.08 78.944 0.272 7.31 18.22 5.9
8/25/2021 9:15:00 PM 26.02 78.836 0.271 7.3 20.7 5.88
8/25/2021 9:30:00 PM 25.94 78.692 0.273 7.29 18.53 5.81
8/25/2021 9:45:00 PM 25.87 78.566 0.274 7.28 19.18 5.86
8/25/2021 10:00:00 PM 25.81 78.458 0.274 7.27 18.33 5.84
8/25/2021 10:15:00 PM 25.75 78.35 0.274 7.27 17.66 5.84
8/25/2021 10:30:00 PM 25.71 78.278 0.274 7.27 22.99 5.79
8/25/2021 10:45:00 PM 25.67 78.206 0.273 7.26 18.77 5.82
8/25/2021 11:00:00 PM 25.63 78.134 0.272 7.26 18.98 5.79
8/25/2021 11:15:00 PM 25.6 78.08 0.272 7.25 20.95 5.71
8/25/2021 11:30:00 PM 25.57 78.026 0.271 7.25 24.96 5.72
8/25/2021 11:45:00 PM 25.53 77.954 0.272 7.24 21.29 5.73
8/26/2021 12:00:00 AM 25.49 77.882 0.273 7.24 32.3 5.7
8/26/2021 12:15:00 AM 25.44 77.792 0.275 7.24 19.15 5.71
8/26/2021 12:30:00 AM 25.4 77.72 0.275 7.23 21.52 5.79
8/26/2021 12:45:00 AM 25.36 77.648 0.274 7.24 25.6 5.71
8/26/2021 1:00:00 AM 25.33 77.594 0.274 7.23 22.28 5.73
8/26/2021 1:15:00 AM 25.31 77.558 0.273 7.22 19.35 5.64
8/26/2021 1:30:00 AM 25.28 77.504 0.273 7.22 26.33 5.63
8/26/2021 1:45:00 AM 25.27 77.486 0.272 7.22 20.93 5.63
8/26/2021 2:00:00 AM 25.26 77.468 0.272 7.21 21.69 5.62
8/26/2021 2:15:00 AM 25.22 77.396 0.273 7.21 21.29 5.66
8/26/2021 2:30:00 AM 25.19 77.342 0.274 7.21 28.4 5.72
8/26/2021 2:45:00 AM 25.16 77.288 0.275 7.2 20.17 5.71
8/26/2021 3:00:00 AM 25.13 77.234 0.275 7.21 21.43 5.79
8/26/2021 3:15:00 AM 25.12 77.216 0.275 7.21 25.22 5.77
8/26/2021 3:30:00 AM 25.11 77.198 0.274 7.21 19.28 5.77
8/26/2021 3:45:00 AM 25.1 77.18 0.273 7.22 22.19 5.77
8/26/2021 4:00:00 AM 25.1 77.18 0.273 7.22 26.86 5.81
8/26/2021 4:15:00 AM 25.09 77.162 0.272 7.21 24.09 5.8
8/26/2021 4:30:00 AM 25.07 77.126 0.273 7.22 23.62 5.81
8/26/2021 4:45:00 AM 25.02 77.036 0.275 7.21 24.37 5.78
8/26/2021 5:00:00 AM 24.98 76.964 0.275 7.22 19.08 5.83
8/26/2021 5:15:00 AM 24.93 76.874 0.276 7.21 21.28 5.82
8/26/2021 5:30:00 AM 24.89 76.802 0.276 7.21 18.28 5.74
8/26/2021 5:45:00 AM 24.85 76.73 0.276 7.2 19.39 5.77
8/26/2021 6:00:00 AM 24.82 76.676 0.276 7.2 21.28 5.68
8/26/2021 6:15:00 AM 24.8 76.64 0.275 7.19 18.79 5.67
8/26/2021 6:30:00 AM 24.78 76.604 0.274 7.19 21.92 5.62
8/26/2021 6:45:00 AM 24.76 76.568 0.274 7.19 28.23 5.69
8/26/2021 7:00:00 AM 24.72 76.496 0.274 7.19 23.11 5.71
8/26/2021 7:15:00 AM 24.69 76.442 0.275 7.18 21.41 5.66
8/26/2021 7:30:00 AM 24.66 76.388 0.275 7.18 23.62 5.78
8/26/2021 7:45:00 AM 24.66 76.388 0.275 7.19 18.48 5.83
8/26/2021 8:00:00 AM 24.67 76.406 0.274 7.2 18.11 5.87
8/26/2021 8:15:00 AM 24.7 76.46 0.273 7.2 18.77 5.92
8/26/2021 8:30:00 AM 24.74 76.532 0.272 7.21 20.68 5.98
8/26/2021 8:45:00 AM 24.79 76.622 0.271 7.21 19.47 6.07
8/26/2021 9:00:00 AM 24.86 76.748 0.271 7.22 17.53 6.15
8/26/2021 9:15:00 AM 24.92 76.856 0.271 7.22 15.35 6.21
8/26/2021 9:30:00 AM 24.97 76.946 0.273 7.22 12.68 6.28
8/26/2021 9:45:00 AM 25.04 77.07201 0.273 7.23 14.87 6.41
8/26/2021 10:00:00 AM 25.12 77.216 0.273 7.24 14.35 6.35
8/26/2021 10:15:00 AM 25.2 77.36 0.273 7.24 13.67 6.52
8/26/2021 10:30:00 AM 25.3 77.54 0.272 7.25 10.99 6.39
8/26/2021 10:45:00 AM 25.4 77.72 0.272 7.25 13.8 6.51
8/26/2021 11:00:00 AM 25.53 77.954 0.272 7.25 13.02 6.51
8/26/2021 11:15:00 AM 25.68 78.224 0.272 7.25 17.68 6.46
8/26/2021 11:30:00 AM 25.81 78.458 0.271 7.25 18.52 6.49
8/26/2021 11:45:00 AM 25.9 78.62 0.274 7.26 14.44 6.56
8/26/2021 12:00:00 PM 26.02 78.836 0.276 7.26 12.61 6.72
8/26/2021 12:15:00 PM 26.15 79.07 0.276 7.27 14.43 6.77
8/26/2021 12:30:00 PM 26.29 79.32201 0.276 7.28 14.6 6.86
8/26/2021 12:45:00 PM 26.44 79.592 0.275 7.29 15.1 6.93
8/26/2021 1:00:00 PM 26.61 79.898 0.274 7.3 15.23 6.93
8/26/2021 1:15:00 PM 26.77 80.186 0.274 7.32 14.67 7
8/26/2021 1:30:00 PM 26.92 80.456 0.272 7.32 18.07 7.1
8/26/2021 1:45:00 PM 27.06 80.708 0.272 7.34 15.84 7.08
8/26/2021 2:00:00 PM 27.21 80.978 0.271 7.35 13.35 7.1
8/26/2021 2:15:00 PM 27.31 81.158 0.271 7.35 14.81 7.07
8/26/2021 2:30:00 PM 27.4 81.32 0.271 7.36 14.74 6.99
8/26/2021 2:45:00 PM 27.48 81.464 0.27 7.37 14.73 7.09
8/26/2021 3:00:00 PM 27.53 81.554 0.27 7.38 15.34 7.01
8/26/2021 3:15:00 PM 27.58 81.644 0.27 7.39 22.55 6.92
8/26/2021 3:30:00 PM 27.63 81.734 0.27 7.39 13.7 6.91
8/26/2021 3:45:00 PM 27.62 81.716 0.27 7.39 10.08 6.79
8/26/2021 4:00:00 PM 27.59 81.662 0.27 7.38 12.27 6.69
8/26/2021 4:15:00 PM 27.57 81.626 0.27 7.38 12.63 6.65
8/26/2021 4:30:00 PM 27.54 81.57201 0.27 7.37 15.39 6.5
8/26/2021 4:45:00 PM 27.47 81.446 0.271 7.36 11.72 6.37
8/26/2021 5:00:00 PM 27.42 81.356 0.272 7.36 13.81 6.39
8/26/2021 5:15:00 PM 27.37 81.266 0.273 7.35 10.64 6.37
8/26/2021 5:30:00 PM 27.33 81.194 0.274 7.34 13.68 6.34
8/26/2021 5:45:00 PM 27.29 81.122 0.274 7.34 13.47 6.27
8/26/2021 6:00:00 PM 27.26 81.068 0.274 7.34 10.62 6.17
8/26/2021 6:15:00 PM 27.22 80.996 0.273 7.33 10.39 6.19
8/26/2021 6:30:00 PM 27.18 80.924 0.273 7.32 11.76 6.06
8/26/2021 6:45:00 PM 27.12 80.816 0.272 7.31 10.45 5.97
8/26/2021 7:00:00 PM 27.07 80.726 0.272 7.3 11.57 5.92
8/26/2021 7:15:00 PM 26.99 80.582 0.274 7.3 16.32 5.87
8/26/2021 7:30:00 PM 26.91 80.438 0.274 7.29 12.24 5.79
8/26/2021 7:45:00 PM 26.84 80.312 0.274 7.28 12.81 5.72
8/26/2021 8:00:00 PM 26.77 80.186 0.273 7.27 14.86 5.73
8/26/2021 8:15:00 PM 26.7 80.06 0.272 7.26 13.18 5.77
8/26/2021 8:30:00 PM 26.64 79.952 0.272 7.25 18.59 5.7
8/26/2021 8:45:00 PM 26.58 79.844 0.271 7.24 18.82 5.55
8/26/2021 9:00:00 PM 26.5 79.7 0.27 7.24 16.11 5.57
8/26/2021 9:15:00 PM 26.43 79.574 0.27 7.23 17.15 5.49
8/26/2021 9:30:00 PM 26.36 79.448 0.27 7.21 20.11 5.52
8/26/2021 9:45:00 PM 26.28 79.304 0.271 7.21 18.16 5.5
8/26/2021 10:00:00 PM 26.2 79.16 0.272 7.2 16.24 5.44
8/26/2021 10:15:00 PM 26.12 79.016 0.272 7.2 19.43 5.49
8/26/2021 10:30:00 PM 26.06 78.908 0.272 7.19 20.84 5.51
8/26/2021 10:45:00 PM 26 78.8 0.272 7.19 15.62 5.49
8/26/2021 11:00:00 PM 25.95 78.71 0.271 7.19 18.5 5.53
8/26/2021 11:15:00 PM 25.91 78.638 0.27 7.19 18.08 5.46
8/26/2021 11:30:00 PM 25.88 78.584 0.269 7.19 20.66 5.41
8/26/2021 11:45:00 PM 25.84 78.512 0.269 7.18 21.55 5.5
8/27/2021 12:00:00 AM 25.79 78.422 0.271 7.17 17.53 5.45
8/27/2021 12:15:00 AM 25.74 78.332 0.272 7.18 15.67 5.49
8/27/2021 12:30:00 AM 25.7 78.26 0.272 7.17 20.78 5.47
8/27/2021 12:45:00 AM 25.67 78.206 0.272 7.17 18.92 5.46
8/27/2021 1:00:00 AM 25.64 78.152 0.271 7.17 21.3 5.52
8/27/2021 1:15:00 AM 25.61 78.098 0.271 7.16 19.35 5.46
8/27/2021 1:30:00 AM 25.58 78.044 0.27 7.16 16.23 5.38
8/27/2021 1:45:00 AM 25.56 78.008 0.269 7.15 22.17 5.35
8/27/2021 2:00:00 AM 25.53 77.954 0.269 7.15 22.54 5.38
8/27/2021 2:15:00 AM 25.51 77.918 0.269 7.15 21.36 5.33
8/27/2021 2:30:00 AM 25.47 77.846 0.27 7.14 19.04 5.3
8/27/2021 2:45:00 AM 25.43 77.774 0.271 7.14 22.32 5.33
8/27/2021 3:00:00 AM 25.4 77.72 0.272 7.14 19.92 5.36
8/27/2021 3:15:00 AM 25.37 77.666 0.272 7.13 18.35 5.31
8/27/2021 3:30:00 AM 25.35 77.63 0.272 7.13 18.56 5.36
8/27/2021 3:45:00 AM 25.34 77.612 0.272 7.13 20.35 5.35
8/27/2021 4:00:00 AM 25.32 77.576 0.271 7.13 19.4 5.29
8/27/2021 4:15:00 AM 25.32 77.576 0.27 7.12 20.73 5.24
8/27/2021 4:30:00 AM 25.31 77.558 0.27 7.12 20.38 5.26
8/27/2021 4:45:00 AM 25.28 77.504 0.272 7.12 27.07 5.29
8/27/2021 5:00:00 AM 25.25 77.45 0.272 7.12 20.14 5.35
8/27/2021 5:15:00 AM 25.23 77.414 0.273 7.12 22.21 5.41
8/27/2021 5:30:00 AM 25.21 77.378 0.273 7.12 25.21 5.4
8/27/2021 5:45:00 AM 25.19 77.342 0.272 7.12 21.1 5.35
8/27/2021 6:00:00 AM 25.18 77.324 0.272 7.13 23.43 5.46
8/27/2021 6:15:00 AM 25.18 77.324 0.271 7.13 29.43 5.45
8/27/2021 6:30:00 AM 25.17 77.306 0.27 7.13 18.69 5.41
8/27/2021 6:45:00 AM 25.16 77.288 0.27 7.13 19.58 5.49
8/27/2021 7:00:00 AM 25.15 77.27 0.27 7.13 22.6 5.44
8/27/2021 7:15:00 AM 25.13 77.234 0.271 7.13 23.9 5.43
8/27/2021 7:30:00 AM 25.1 77.18 0.272 7.13 25.52 5.48
8/27/2021 7:45:00 AM 25.09 77.162 0.272 7.13 25.28 5.5
8/27/2021 8:00:00 AM 25.1 77.18 0.272 7.13 22.09 5.58
8/27/2021 8:15:00 AM 25.13 77.234 0.272 7.14 20.56 5.62
8/27/2021 8:30:00 AM 25.16 77.288 0.271 7.14 19.13 5.65
8/27/2021 8:45:00 AM 25.19 77.342 0.271 7.14 21.59 5.66
8/27/2021 9:00:00 AM 25.24 77.432 0.271 7.14 18.06 5.75
8/27/2021 9:15:00 AM 25.29 77.522 0.27 7.14 18.47 5.74
8/27/2021 9:30:00 AM 25.33 77.594 0.271 7.14 18.84 5.79
8/27/2021 9:45:00 AM 25.37 77.666 0.272 7.15 19.44 5.85
8/27/2021 10:00:00 AM 25.44 77.792 0.272 7.15 17.52 5.99
8/27/2021 10:15:00 AM 25.52 77.936 0.272 7.16 18 6.1
8/27/2021 10:30:00 AM 25.59 78.062 0.272 7.17 16.48 6.22
8/27/2021 10:45:00 AM 25.69 78.242 0.271 7.17 16.59 6.23
8/27/2021 11:00:00 AM 25.8 78.44 0.27 7.18 16.87 6.44
8/27/2021 11:15:00 AM 25.93 78.674 0.27 7.19 17.98 6.49
8/27/2021 11:30:00 AM 26.07 78.926 0.269 7.2 17.43 6.6
8/27/2021 11:45:00 AM 26.22 79.196 0.269 7.2 16.47 6.62
8/27/2021 12:00:00 PM 26.38 79.484 0.269 7.22 18.6 6.74
8/27/2021 12:15:00 PM 26.49 79.682 0.271 7.23 15.47 6.81
8/27/2021 12:30:00 PM 26.6 79.88 0.271 7.24 21.99 6.81
8/27/2021 12:45:00 PM 26.73 80.114 0.271 7.25 19.85 6.9
8/27/2021 1:00:00 PM 26.87 80.366 0.271 7.26 19.22 6.87
8/27/2021 1:15:00 PM 27.04 80.672 0.272 7.27 16.29 6.98
8/27/2021 1:30:00 PM 27.19 80.942 0.27 7.28 19.2 7.07
8/27/2021 1:45:00 PM 27.28 81.104 0.27 7.28 16.65 6.9
8/27/2021 2:00:00 PM 27.32 81.176 0.269 7.29 16.37 6.77
8/27/2021 2:15:00 PM 27.35 81.23 0.271 7.29 20.15 6.75
8/27/2021 2:30:00 PM 27.41 81.338 0.272 7.29 25.72 6.76
8/27/2021 2:45:00 PM 27.49 81.482 0.272 7.3 14.32 6.78
8/27/2021 3:00:00 PM 27.54 81.57201 0.272 7.3 15.82 6.77
8/27/2021 3:15:00 PM 27.53 81.554 0.272 7.3 12.34 6.66
8/27/2021 3:30:00 PM 27.47 81.446 0.271 7.3 10.8 6.56
8/27/2021 3:45:00 PM 27.39 81.302 0.27 7.31 12.75 6.54
8/27/2021 4:00:00 PM 27.29 81.122 0.269 7.3 11.74 6.44
8/27/2021 4:15:00 PM 27.16 80.888 0.267 7.29 14.92 6.39
8/27/2021 4:30:00 PM 27.09 80.762 0.266 7.29 14.22 6.25
8/27/2021 4:45:00 PM 27.05 80.69 0.267 7.28 11.57 6.37
8/27/2021 5:00:00 PM 27.01 80.618 0.268 7.28 11.08 6.34
8/27/2021 5:15:00 PM 26.95 80.51 0.269 7.27 13.77 6.25
8/27/2021 5:30:00 PM 26.87 80.366 0.271 7.26 11.77 6.1
8/27/2021 5:45:00 PM 26.63 79.934 0.265 7.25 13.4 6.2
8/27/2021 6:00:00 PM 26.4 79.52 0.26 7.25 41.62 6.43
8/27/2021 6:15:00 PM 26.26 79.268 0.257 7.24 40.07 6.36
8/27/2021 6:30:00 PM 26.09 78.962 0.253 7.23 41.94 6.33
8/27/2021 6:45:00 PM 25.97 78.746 0.252 7.22 35.99 6.25
8/27/2021 7:00:00 PM 25.84 78.512 0.254 7.21 36.04 6.21
8/27/2021 7:15:00 PM 25.73 78.314 0.256 7.21 35.43 6.21
8/27/2021 7:30:00 PM 25.64 78.152 0.258 7.2 47.24 6.23
8/27/2021 7:45:00 PM 25.58 78.044 0.261 7.2 62.8 6.45
8/27/2021 8:00:00 PM 25.46 77.828 0.263 7.21 107.3 6.71
8/27/2021 8:15:00 PM 25.29 77.522 0.264 7.24 111.1 6.77
8/27/2021 8:30:00 PM 25.13 77.234 0.258 7.25 84.38 6.66
8/27/2021 8:45:00 PM 24.98 76.964 0.247 7.25 88.91 6.63
8/27/2021 9:00:00 PM 24.79 76.622 0.233 7.25 136.5 6.49
8/27/2021 9:15:00 PM 24.65 76.37 0.22 7.24 155 6.47
8/27/2021 9:30:00 PM 24.6 76.28 0.215 7.23 154.3 6.35
8/27/2021 9:45:00 PM 24.6 76.28 0.215 7.21 139.2 6.39
8/27/2021 10:00:00 PM 24.62 76.316 0.215 7.2 126 6.48
8/27/2021 10:15:00 PM 24.65 76.37 0.219 7.19 119.1 6.44
8/27/2021 10:30:00 PM 24.67 76.406 0.222 7.18 110.5 6.56
8/27/2021 10:45:00 PM 24.7 76.46 0.227 7.18 95.89 6.48
8/27/2021 11:00:00 PM 24.75 76.55 0.232 7.18 90.34 6.39
8/27/2021 11:15:00 PM 24.81 76.658 0.237 7.16 84.86 6.36
8/27/2021 11:30:00 PM 24.89 76.802 0.241 7.16 76.56 6.39
8/27/2021 11:45:00 PM 24.96 76.92799 0.246 7.16 70.83 6.46
8/28/2021 12:00:00 AM 25.01 77.018 0.248 7.17 79.46 6.5
8/28/2021 12:15:00 AM 25.01 77.018 0.249 7.18 78.14 6.53
8/28/2021 12:30:00 AM 24.95 76.91 0.246 7.2 101 6.7
8/28/2021 12:45:00 AM 24.83 76.694 0.243 7.21 166.9 6.83
8/28/2021 1:00:00 AM 24.65 76.37 0.237 7.23 232.7 6.76
8/28/2021 1:15:00 AM 24.41 75.938 0.229 7.24 255.4 6.8
8/28/2021 1:30:00 AM 24.22 75.596 0.23 7.24 243.1 6.74
8/28/2021 1:45:00 AM 24.05 75.29 0.233 7.25 271.6 6.79
8/28/2021 2:00:00 AM 23.92 75.056 0.234 7.25 235.6 6.75
8/28/2021 2:15:00 AM 23.79 74.82201 0.232 7.25 273.8 6.71
8/28/2021 2:30:00 AM 23.72 74.696 0.233 7.24 239.3 6.65
8/28/2021 2:45:00 AM 23.7 74.66 0.237 7.23 229.8 6.64
8/28/2021 3:00:00 AM 23.73 74.714 0.242 7.22 196.8 6.6
8/28/2021 3:15:00 AM 23.74 74.732 0.246 7.22 197.9 6.66
8/28/2021 3:30:00 AM 23.75 74.75 0.248 7.21 212.2 6.64
8/28/2021 3:45:00 AM 23.74 74.732 0.248 7.21 156.4 6.7
8/28/2021 4:00:00 AM 23.71 74.67799 0.248 7.21 154.4 6.69
8/28/2021 4:15:00 AM 23.68 74.624 0.247 7.2 151.6 6.67
8/28/2021 4:30:00 AM 23.63 74.534 0.245 7.2 161.7 6.69
8/28/2021 4:45:00 AM 23.57 74.426 0.241 7.2 151.5 6.66
8/28/2021 5:00:00 AM 23.53 74.354 0.235 7.19 139.1 6.7
8/28/2021 5:15:00 AM 23.5 74.3 0.229 7.19 140.4 6.65
8/28/2021 5:30:00 AM 23.5 74.3 0.222 7.18 174.2 6.64
8/28/2021 5:45:00 AM 23.48 74.264 0.215 7.17 136.5 6.66
8/28/2021 6:00:00 AM 23.48 74.264 0.21 7.16 124.9 6.69
8/28/2021 6:15:00 AM 23.48 74.264 0.205 7.15 126.6 6.65
8/28/2021 6:30:00 AM 23.48 74.264 0.201 7.14 127.4 6.62
8/28/2021 6:45:00 AM 23.48 74.264 0.199 7.13 123.6 6.6
8/28/2021 7:00:00 AM 23.44 74.192 0.196 7.13 116.1 6.63
8/28/2021 7:15:00 AM 23.45 74.21 0.195 7.11 113.4 6.67
8/28/2021 7:30:00 AM 23.45 74.21 0.195 7.11 102.7 6.68
8/28/2021 7:45:00 AM 23.46 74.228 0.194 7.1 96.85 6.61
8/28/2021 8:00:00 AM 23.47 74.246 0.194 7.1 121.2 6.65
8/28/2021 8:15:00 AM 23.46 74.228 0.193 7.09 96.33 6.67
8/28/2021 8:30:00 AM 23.5 74.3 0.195 7.09 103.1 6.56
8/28/2021 8:45:00 AM 23.52 74.336 0.196 7.09 91.45 6.56
8/28/2021 9:00:00 AM 23.52 74.336 0.196 7.07 86.67 6.52
8/28/2021 9:15:00 AM 23.54 74.372 0.197 7.07 74.31 6.51
8/28/2021 9:30:00 AM 23.54 74.372 0.197 7.07 76.95 6.6
8/28/2021 9:45:00 AM 23.58 74.444 0.193 7.06 74.42 6.57
8/28/2021 10:00:00 AM 23.61 74.498 0.199 7.06 67.75 6.57
8/28/2021 10:15:00 AM 23.65 74.57 0.199 7.05 63.76 6.51
8/28/2021 10:30:00 AM 23.67 74.606 0.199 7.05 69.22 6.53
8/28/2021 10:45:00 AM 23.72 74.696 0.2 7.04 63.16 6.56
8/28/2021 11:00:00 AM 23.78 74.804 0.201 7.04 62.41 6.56
8/28/2021 11:15:00 AM 23.81 74.858 0.201 7.04 64.61 6.6
8/28/2021 11:30:00 AM 23.89 75.002 0.201 7.04 54.63 6.58
8/28/2021 11:45:00 AM 23.92 75.056 0.2 7.04 61.47 6.66
8/28/2021 12:00:00 PM 24 75.2 0.202 7.05 66.49 6.76
8/28/2021 12:15:00 PM 24.09 75.362 0.202 7.06 53.46 6.78
8/28/2021 12:30:00 PM 24.23 75.614 0.202 7.05 44.4 6.86
8/28/2021 12:45:00 PM 24.33 75.794 0.203 7.06 47.12 6.86
8/28/2021 1:00:00 PM 24.47 76.046 0.203 7.07 48.11 6.9
8/28/2021 1:15:00 PM 24.57 76.226 0.203 7.07 42.9 6.92
8/28/2021 1:30:00 PM 24.72 76.496 0.204 7.07 37.89 6.96
8/28/2021 1:45:00 PM 24.74 76.532 0.204 7.07 43.02 6.96
8/28/2021 2:00:00 PM 24.81 76.658 0.206 7.08 39.57 6.98
8/28/2021 2:15:00 PM 24.89 76.802 0.207 7.07 37.51 7
8/28/2021 2:30:00 PM 24.96 76.92799 0.208 7.08 36.87 7.05
8/28/2021 2:45:00 PM 25.04 77.07201 0.208 7.09 34.1 7.08
8/28/2021 3:00:00 PM 25.1 77.18 0.208 7.08 33.71 6.96
8/28/2021 3:15:00 PM 25.19 77.342 0.208 7.08 37.06 7.03
8/28/2021 3:30:00 PM 25.23 77.414 0.208 7.08 32.79 7
8/28/2021 3:45:00 PM 25.28 77.504 0.209 7.08 30.6 7.01
8/28/2021 4:00:00 PM 25.33 77.594 0.21 7.08 29.26 6.99
8/28/2021 4:15:00 PM 25.34 77.612 0.21 7.08 28.2 6.93
8/28/2021 4:30:00 PM 25.33 77.594 0.212 7.08 28.19 6.95
8/28/2021 4:45:00 PM 25.32 77.576 0.212 7.08 27.1 6.94
8/28/2021 5:00:00 PM 25.3 77.54 0.213 7.08 27.96 6.9
8/28/2021 5:15:00 PM 25.29 77.522 0.214 7.09 32.7 6.94
8/28/2021 5:30:00 PM 25.28 77.504 0.215 7.09 26.32 6.9
8/28/2021 5:45:00 PM 25.23 77.414 0.215 7.09 29.55 6.82
8/28/2021 6:00:00 PM 25.18 77.324 0.216 7.1 26.54 6.8
8/28/2021 6:15:00 PM 25.15 77.27 0.217 7.09 29.34 6.73
8/28/2021 6:30:00 PM 25.09 77.162 0.218 7.09 29.07 6.66
8/28/2021 6:45:00 PM 25.04 77.07201 0.219 7.09 25.56 6.57
8/28/2021 7:00:00 PM 24.98 76.964 0.222 7.08 26.19 6.51
8/28/2021 7:15:00 PM 24.92 76.856 0.223 7.08 27.75 6.39
8/28/2021 7:30:00 PM 24.83 76.694 0.224 7.07 30.53 6.33
8/28/2021 7:45:00 PM 24.75 76.55 0.225 7.06 30.51 6.25
8/28/2021 8:00:00 PM 24.67 76.406 0.226 7.06 33.19 6.21
8/28/2021 8:15:00 PM 24.61 76.298 0.227 7.05 36.56 6.14
8/28/2021 8:30:00 PM 24.56 76.208 0.227 7.04 28.54 6.11
8/28/2021 8:45:00 PM 24.53 76.154 0.228 7.03 37.72 6.03
8/28/2021 9:00:00 PM 24.5 76.1 0.228 7.03 36.19 6.09
8/28/2021 9:15:00 PM 24.49 76.082 0.229 7.02 30.08 6.05
8/28/2021 9:30:00 PM 24.45 76.01 0.23 7.02 35.6 6.11
8/28/2021 9:45:00 PM 24.42 75.956 0.231 7.03 30.89 6.17
8/28/2021 10:00:00 PM 24.4 75.92 0.232 7.03 34.87 6.13
8/28/2021 10:15:00 PM 24.37 75.866 0.233 7.03 37.21 6.18
8/28/2021 10:30:00 PM 24.35 75.83 0.233 7.03 32.6 6.16
8/28/2021 10:45:00 PM 24.33 75.794 0.234 7.03 32.3 6.15
8/28/2021 11:00:00 PM 24.31 75.758 0.234 7.03 32.47 6.19
8/28/2021 11:15:00 PM 24.31 75.758 0.235 7.03 31.83 6.1
8/28/2021 11:30:00 PM 24.31 75.758 0.235 7.02 35.07 6.08
8/28/2021 11:45:00 PM 24.28 75.704 0.237 7.02 36.09 6.1
8/29/2021 12:00:00 AM 24.27 75.686 0.239 7.03 32.64 6.01
8/29/2021 12:15:00 AM 24.25 75.65 0.239 7.03 30.82 6.1
8/29/2021 12:30:00 AM 24.23 75.614 0.239 7.03 30.48 6.06
8/29/2021 12:45:00 AM 24.22 75.596 0.24 7.02 30.95 6.06
8/29/2021 1:00:00 AM 24.21 75.578 0.24 7.02 36.72 6.05
8/29/2021 1:15:00 AM 24.2 75.56 0.239 7.02 36.35 6.08
8/29/2021 1:30:00 AM 24.21 75.578 0.24 7.02 38.38 6.11
8/29/2021 1:45:00 AM 24.21 75.578 0.24 7.02 34.82 6.08
8/29/2021 2:00:00 AM 24.21 75.578 0.24 7.02 33.75 6.08
8/29/2021 2:15:00 AM 24.19 75.542 0.241 7.03 33.03 6.09
8/29/2021 2:30:00 AM 24.16 75.488 0.242 7.02 29.56 6.13
8/29/2021 2:45:00 AM 24.14 75.452 0.243 7.03 28.92 6.18
8/29/2021 3:00:00 AM 24.1 75.38 0.243 7.03 29.56 6.2
8/29/2021 3:15:00 AM 24.08 75.344 0.244 7.03 30.75 6.2
8/29/2021 3:30:00 AM 24.06 75.308 0.244 7.04 28.04 6.22
8/29/2021 3:45:00 AM 24.04 75.272 0.244 7.05 35.4 6.23
8/29/2021 4:00:00 AM 24.02 75.236 0.244 7.05 28.18 6.18
8/29/2021 4:15:00 AM 24 75.2 0.244 7.05 44.92 6.11
8/29/2021 4:30:00 AM 23.96 75.128 0.245 7.06 120.9 6.2
8/29/2021 4:45:00 AM 23.9 75.02 0.246 7.07 35.62 6.13
8/29/2021 5:00:00 AM 23.85 74.93 0.247 7.07 29.04 6.28
8/29/2021 5:15:00 AM 23.79 74.82201 0.247 7.08 42.87 6.22
8/29/2021 5:30:00 AM 23.77 74.786 0.248 7.08 34.69 6.24
8/29/2021 5:45:00 AM 23.73 74.714 0.247 7.08 42.43 6.1
8/29/2021 6:00:00 AM 23.7 74.66 0.247 7.08 59.87 6.2
8/29/2021 6:15:00 AM 23.68 74.624 0.247 7.08 30.35 6.23
8/29/2021 6:30:00 AM 23.65 74.57 0.247 7.09 34.7 6.24
8/29/2021 6:45:00 AM 23.65 74.57 0.247 7.09 33.95 6.18
8/29/2021 7:00:00 AM 23.62 74.516 0.248 7.09 37.31 6.19
8/29/2021 7:15:00 AM 23.58 74.444 0.249 7.09 127.7 6.19
8/29/2021 7:30:00 AM 23.54 74.372 0.251 7.09 200.3 6.17
8/29/2021 7:45:00 AM 23.51 74.318 0.251 7.09 21.37 6.34
8/29/2021 8:00:00 AM 23.5 74.3 0.251 7.08 26.3 6.33
8/29/2021 8:15:00 AM 23.48 74.264 0.251 7.08 488.1 6.36
8/29/2021 8:30:00 AM 23.48 74.264 0.251 7.11 25.93 6.45
8/29/2021 8:45:00 AM 23.48 74.264 0.25 7.12 29.89 6.42
8/29/2021 9:00:00 AM 23.5 74.3 0.251 7.14 20.75 6.45
8/29/2021 9:15:00 AM 23.51 74.318 0.251 7.14 21.72 6.51
8/29/2021 9:30:00 AM 23.5 74.3 0.252 7.15 20.42 6.57
8/29/2021 9:45:00 AM 23.5 74.3 0.248 7.16 16.24 6.6
8/29/2021 10:00:00 AM 23.52 74.336 0.253 7.16 16.52 6.61
8/29/2021 10:15:00 AM 23.55 74.39 0.253 7.17 17.11 6.61
8/29/2021 10:30:00 AM 23.59 74.462 0.253 7.17 16.1 6.75
8/29/2021 10:45:00 AM 23.64 74.552 0.253 7.18 16.31 6.75
8/29/2021 11:00:00 AM 23.73 74.714 0.252 7.19 16.56 6.83
8/29/2021 11:15:00 AM 23.81 74.858 0.253 7.19 31.37 6.91
8/29/2021 11:30:00 AM 23.9 75.02 0.253 7.2 16.51 7
8/29/2021 11:45:00 AM 23.96 75.128 0.252 7.21 15.12 6.99
8/29/2021 12:00:00 PM 24.03 75.254 0.254 7.22 12.74 7.05
8/29/2021 12:15:00 PM 24.07 75.326 0.254 7.22 14.66 7.13
8/29/2021 12:30:00 PM 24.12 75.416 0.255 7.23 15.45 7.17
8/29/2021 12:45:00 PM 24.17 75.506 0.254 7.23 18.8 7.21
8/29/2021 1:00:00 PM 24.23 75.614 0.254 7.24 17.89 7.14
8/29/2021 1:15:00 PM 24.38 75.884 0.254 7.24 15.87 7.17
8/29/2021 1:30:00 PM 24.52 76.136 0.254 7.26 145.1 7.28
8/29/2021 1:45:00 PM 24.61 76.298 0.254 7.29 12.93 7.28
8/29/2021 2:00:00 PM 24.66 76.388 0.254 7.3 18 7.33
8/29/2021 2:15:00 PM 24.73 76.514 0.255 7.32 12.35 7.31
8/29/2021 2:30:00 PM 24.76 76.568 0.256 7.33 25.81 7.36
8/29/2021 2:45:00 PM 24.82 76.676 0.256 7.35 13.04 7.38
8/29/2021 3:00:00 PM 24.87 76.766 0.256 7.36 11.35 7.31
8/29/2021 3:15:00 PM 24.88 76.784 0.255 7.36 12.82 7.43
8/29/2021 3:30:00 PM 24.89 76.802 0.255 7.37 13.64 7.38
8/29/2021 3:45:00 PM 24.9 76.82 0.255 7.38 15.33 7.31
8/29/2021 4:00:00 PM 24.91 76.838 0.255 7.38 10.67 7.22
8/29/2021 4:15:00 PM 24.9 76.82 0.255 7.38 13 7.15
8/29/2021 4:30:00 PM 24.88 76.784 0.255 7.39 18.84 7.03
8/29/2021 4:45:00 PM 24.88 76.784 0.256 7.39 24.75 7.07
8/29/2021 5:00:00 PM 24.84 76.712 0.257 7.39 15.87 6.97
8/29/2021 5:15:00 PM 24.82 76.676 0.258 7.39 13.4 7
8/29/2021 5:30:00 PM 24.78 76.604 0.258 7.38 11.71 6.96
8/29/2021 5:45:00 PM 24.76 76.568 0.258 7.38 11.88 6.9
8/29/2021 6:00:00 PM 24.73 76.514 0.258 7.38 14.17 6.89
8/29/2021 6:15:00 PM 24.7 76.46 0.258 7.37 2509 6.79
8/29/2021 6:30:00 PM 24.71 76.478 0.258 7.36 14.95 6.76
8/29/2021 6:45:00 PM 24.69 76.442 0.258 7.36 23.03 6.68
8/29/2021 7:00:00 PM 24.66 76.388 0.259 7.35 15.16 6.62
8/29/2021 7:15:00 PM 24.64 76.352 0.26 7.34 14.7 6.62
8/29/2021 7:30:00 PM 24.59 76.262 0.26 7.34 20.27 6.55
8/29/2021 7:45:00 PM 24.57 76.226 0.26 7.33 15.2 6.52
8/29/2021 8:00:00 PM 24.54 76.172 0.26 7.32 27.34 6.5
8/29/2021 8:15:00 PM 24.49 76.082 0.26 7.32 18.84 6.52
8/29/2021 8:30:00 PM 24.45 76.01 0.26 7.32 21.19 6.5
8/29/2021 8:45:00 PM 24.43 75.974 0.259 7.31 20.57 6.4
8/29/2021 9:00:00 PM 24.4 75.92 0.259 7.3 15.65 6.33
8/29/2021 9:15:00 PM 24.36 75.848 0.259 7.29 17.01 6.3
8/29/2021 9:30:00 PM 24.33 75.794 0.26 7.28 19.82 6.28
8/29/2021 9:45:00 PM 24.29 75.722 0.261 7.27 27.75 6.22
8/29/2021 10:00:00 PM 24.26 75.668 0.262 7.27 33.88 6.1
8/29/2021 10:15:00 PM 24.23 75.614 0.262 7.26 18.4 6.3
8/29/2021 10:30:00 PM 24.21 75.578 0.262 7.26 17.53 6.32
8/29/2021 10:45:00 PM 24.2 75.56 0.262 7.26 17.47 6.31
8/29/2021 11:00:00 PM 24.17 75.506 0.262 7.26 18.04 6.3
8/29/2021 11:15:00 PM 24.18 75.524 0.262 7.25 19.75 6.26
8/29/2021 11:30:00 PM 24.17 75.506 0.262 7.25 20.89 6.22
8/29/2021 11:45:00 PM 24.18 75.524 0.262 7.25 19.19 6.25
8/30/2021 12:00:00 AM 24.17 75.506 0.264 7.24 22.47 6.26
8/30/2021 12:15:00 AM 24.15 75.47 0.264 7.24 24.01 6.25
8/30/2021 12:30:00 AM 24.14 75.452 0.264 7.24 18.25 6.28
8/30/2021 12:45:00 AM 24.14 75.452 0.265 7.23 20.03 6.23
8/30/2021 1:00:00 AM 24.15 75.47 0.264 7.23 18.86 6.26
8/30/2021 1:15:00 AM 24.14 75.452 0.264 7.23 21.58 6.23
8/30/2021 1:30:00 AM 24.15 75.47 0.263 7.23 18.85 6.22
8/30/2021 1:45:00 AM 24.16 75.488 0.263 7.23 22.12 6.14
8/30/2021 2:00:00 AM 24.17 75.506 0.263 7.22 21.61 6.14
8/30/2021 2:15:00 AM 24.14 75.452 0.264 7.22 20.58 6.14
8/30/2021 2:30:00 AM 24.12 75.416 0.265 7.22 20.97 6.16
8/30/2021 2:45:00 AM 24.09 75.362 0.266 7.21 17.9 6.17
8/30/2021 3:00:00 AM 24.08 75.344 0.266 7.21 20.94 6.15
8/30/2021 3:15:00 AM 24.05 75.29 0.267 7.21 19.25 6.21
8/30/2021 3:30:00 AM 24.03 75.254 0.266 7.2 25.81 6.19
8/30/2021 3:45:00 AM 24 75.2 0.266 7.2 23.06 6.18
8/30/2021 4:00:00 AM 24 75.2 0.266 7.2 24.06 6.16
8/30/2021 4:15:00 AM 23.99 75.182 0.266 7.2 21.87 6.17
8/30/2021 4:30:00 AM 23.98 75.164 0.266 7.2 22.12 6.18
8/30/2021 4:45:00 AM 23.94 75.092 0.267 7.2 21.45 6.2
8/30/2021 5:00:00 AM 23.9 75.02 0.268 7.2 24.44 6.19
8/30/2021 5:15:00 AM 23.87 74.966 0.268 7.2 19.88 6.21
8/30/2021 5:30:00 AM 23.84 74.912 0.268 7.2 22.99 6.22
8/30/2021 5:45:00 AM 23.8 74.84 0.268 7.2 21.49 6.22
8/30/2021 6:00:00 AM 23.76 74.768 0.267 7.19 23.54 6.2
8/30/2021 6:15:00 AM 23.76 74.768 0.267 7.19 23.7 6.2
8/30/2021 6:30:00 AM 23.77 74.786 0.266 7.18 23.33 6.18
8/30/2021 6:45:00 AM 23.76 74.768 0.266 7.18 28.38 6.19
8/30/2021 7:00:00 AM 23.76 74.768 0.266 7.18 23.93 6.14
8/30/2021 7:15:00 AM 23.73 74.714 0.267 7.18 22.91 6.2
8/30/2021 7:30:00 AM 23.71 74.67799 0.267 7.18 29.52 6.17
8/30/2021 7:45:00 AM 23.72 74.696 0.267 7.18 24.39 6.18
8/30/2021 8:00:00 AM 23.72 74.696 0.267 7.18 36.9 6.22
8/30/2021 8:15:00 AM 23.72 74.696 0.267 7.18 18.36 6.23
8/30/2021 8:30:00 AM 23.75 74.75 0.266 7.18 17.74 6.27
8/30/2021 8:45:00 AM 23.81 74.858 0.265 7.18 16.48 6.33
8/30/2021 9:00:00 AM 23.85 74.93 0.265 7.18 16.39 6.31
8/30/2021 9:15:00 AM 23.89 75.002 0.265 7.18 15.18 6.32
8/30/2021 9:30:00 AM 23.92 75.056 0.265 7.18 14.68 6.43
8/30/2021 9:45:00 AM 23.94 75.092 0.266 7.19 12.14 6.58
8/30/2021 10:00:00 AM 24.03 75.254 0.266 7.19 14.63 6.63
8/30/2021 10:15:00 AM 24.17 75.506 0.266 7.2 11.58 6.72
8/30/2021 10:30:00 AM 24.27 75.686 0.265 7.21 14.43 6.83
8/30/2021 10:45:00 AM 24.38 75.884 0.265 7.22 12.2 6.92
8/30/2021 11:00:00 AM 24.48 76.064 0.264 7.22 10.49 6.96
8/30/2021 11:15:00 AM 24.6 76.28 0.264 7.23 10.3 7.05
8/30/2021 11:30:00 AM 24.8 76.64 0.263 7.24 13.95 7.1
8/30/2021 11:45:00 AM 24.89 76.802 0.263 7.24 10.99 7.15
8/30/2021 12:00:00 PM 24.96 76.92799 0.263 7.26 11.89 7.17
8/30/2021 12:15:00 PM 25.05 77.09 0.265 7.26 9.75 7.2
8/30/2021 12:30:00 PM 25.09 77.162 0.265 7.27 10.67 7.26
8/30/2021 12:45:00 PM 25.22 77.396 0.265 7.28 10.48 7.29
8/30/2021 1:00:00 PM 25.31 77.558 0.265 7.28 9.49 7.33
8/30/2021 1:15:00 PM 25.42 77.756 0.264 7.29 10.12 7.4
8/30/2021 1:30:00 PM 25.59 78.062 0.264 7.3 8.78 7.38
8/30/2021 1:45:00 PM 25.67 78.206 0.263 7.3 13.16 7.37
8/30/2021 2:00:00 PM 25.72 78.296 0.262 7.31 10.76 7.35
8/30/2021 2:15:00 PM 25.73 78.314 0.263 7.31 13.61 7.3
8/30/2021 2:30:00 PM 25.78 78.404 0.264 7.32 11.15 7.28
8/30/2021 2:45:00 PM 25.86 78.548 0.265 7.32 9.63 7.31
8/30/2021 3:00:00 PM 25.96 78.728 0.264 7.32 10.66 7.27
8/30/2021 3:15:00 PM 25.99 78.782 0.264 7.33 8.93 7.28
8/30/2021 3:30:00 PM 25.98 78.764 0.264 7.33 10.3 7.24
8/30/2021 3:45:00 PM 25.99 78.782 0.263 7.33 13.82 7.14
8/30/2021 4:00:00 PM 26.05 78.89 0.262 7.33 11.13 6.96
8/30/2021 4:15:00 PM 26.1 78.98 0.262 7.32 14.35 6.75
8/30/2021 4:30:00 PM 26.01 78.818 0.268 7.31 17.81 6.67
8/30/2021 4:45:00 PM 25.86 78.548 0.276 7.3 14.84 6.71
8/30/2021 5:00:00 PM 25.71 78.278 0.283 7.29 17.05 6.79
8/30/2021 5:15:00 PM 25.64 78.152 0.282 7.3 13.79 6.75
8/30/2021 5:30:00 PM 25.62 78.116 0.277 7.3 16.97 6.69
8/30/2021 5:45:00 PM 25.62 78.116 0.274 7.31 16.28 6.57
8/30/2021 6:00:00 PM 25.62 78.116 0.272 7.3 15.03 6.55
8/30/2021 6:15:00 PM 25.6 78.08 0.271 7.29 15.13 6.44
8/30/2021 6:30:00 PM 25.58 78.044 0.269 7.28 17.33 6.41
8/30/2021 6:45:00 PM 25.56 78.008 0.266 7.27 15.61 6.32
8/30/2021 7:00:00 PM 25.54 77.972 0.264 7.26 16.22 6.26
8/30/2021 7:15:00 PM 25.51 77.918 0.263 7.25 15.01 6.21
8/30/2021 7:30:00 PM 25.48 77.864 0.262 7.24 19.01 6.13
8/30/2021 7:45:00 PM 25.44 77.792 0.261 7.23 15.72 6.14
8/30/2021 8:00:00 PM 25.39 77.702 0.261 7.22 14.05 6.08
8/30/2021 8:15:00 PM 25.34 77.612 0.26 7.22 16.12 6.05
8/30/2021 8:30:00 PM 25.29 77.522 0.26 7.21 18.62 6.08
8/30/2021 8:45:00 PM 25.23 77.414 0.26 7.21 19.13 6.07
8/30/2021 9:00:00 PM 25.17 77.306 0.26 7.2 19.62 6.06
8/30/2021 9:15:00 PM 25.12 77.216 0.26 7.2 15.03 6.11
8/30/2021 9:30:00 PM 25.06 77.108 0.26 7.2 17.54 6.06
8/30/2021 9:45:00 PM 25.01 77.018 0.261 7.2 18.89 6.12
8/30/2021 10:00:00 PM 24.97 76.946 0.261 7.19 19.18 6.01
8/30/2021 10:15:00 PM 24.92 76.856 0.262 7.19 17.9 5.92
8/30/2021 10:30:00 PM 24.87 76.766 0.262 7.18 19.43 5.82
8/30/2021 10:45:00 PM 24.82 76.676 0.263 7.16 23.98 5.77
8/30/2021 11:00:00 PM 24.77 76.586 0.263 7.15 19.47 5.75
8/30/2021 11:15:00 PM 24.73 76.514 0.263 7.14 23.09 5.75
8/30/2021 11:30:00 PM 24.69 76.442 0.263 7.14 23 5.76
8/30/2021 11:45:00 PM 24.67 76.406 0.263 7.13 25.28 5.79
8/31/2021 12:00:00 AM 24.63 76.334 0.262 7.13 22.81 5.85
8/31/2021 12:15:00 AM 24.61 76.298 0.263 7.13 17.95 5.89
8/31/2021 12:30:00 AM 24.59 76.262 0.262 7.13 22.63 5.84
8/31/2021 12:45:00 AM 24.59 76.262 0.262 7.12 21.79 5.86
8/31/2021 1:00:00 AM 24.57 76.226 0.262 7.12 24.98 5.83
8/31/2021 1:15:00 AM 24.56 76.208 0.262 7.11 19.57 5.76
8/31/2021 1:30:00 AM 24.55 76.19 0.262 7.11 21.75 5.76
8/31/2021 1:45:00 AM 24.55 76.19 0.262 7.11 24.23 5.74
8/31/2021 2:00:00 AM 24.52 76.136 0.263 7.1 18.15 5.78
8/31/2021 2:15:00 AM 24.49 76.082 0.264 7.1 23.43 5.82
8/31/2021 2:30:00 AM 24.47 76.046 0.264 7.1 23.02 5.81
8/31/2021 2:45:00 AM 24.43 75.974 0.264 7.1 21.15 5.95
8/31/2021 3:00:00 AM 24.35 75.83 0.265 7.1 25.74 6.2
8/31/2021 3:15:00 AM 24.27 75.686 0.266 7.12 55.42 6.47
8/31/2021 3:30:00 AM 24.27 75.686 0.267 7.13 65.51 6.61
8/31/2021 3:45:00 AM 24.3 75.74 0.267 7.15 63.7 6.54
8/31/2021 4:00:00 AM 24.32 75.776 0.268 7.16 67.79 6.56
8/31/2021 4:15:00 AM 24.3 75.74 0.268 7.17 53.37 6.52
8/31/2021 4:30:00 AM 24.25 75.65 0.269 7.18 49.79 6.56
8/31/2021 4:45:00 AM 24.19 75.542 0.27 7.19 59.14 6.58
8/31/2021 5:00:00 AM 24.13 75.434 0.27 7.2 55.17 6.61
8/31/2021 5:15:00 AM 24.06 75.308 0.271 7.21 50.59 6.56
8/31/2021 5:30:00 AM 23.99 75.182 0.271 7.21 54.49 6.6
8/31/2021 5:45:00 AM 23.91 75.038 0.271 7.21 48.53 6.62
8/31/2021 6:00:00 AM 23.85 74.93 0.271 7.21 41.33 6.65
8/31/2021 6:15:00 AM 23.78 74.804 0.271 7.21 45.24 6.67
8/31/2021 6:30:00 AM 23.73 74.714 0.27 7.21 46.24 6.61
8/31/2021 6:45:00 AM 23.68 74.624 0.27 7.22 42.55 6.66
8/31/2021 7:00:00 AM 23.62 74.516 0.27 7.22 43.83 6.68
8/31/2021 7:15:00 AM 23.56 74.408 0.27 7.21 44.34 6.69
8/31/2021 7:30:00 AM 23.54 74.372 0.27 7.21 36.29 6.75
8/31/2021 7:45:00 AM 23.51 74.318 0.27 7.22 31.13 6.73
8/31/2021 8:00:00 AM 23.49 74.282 0.27 7.22 28.51 6.75
8/31/2021 8:15:00 AM 23.49 74.282 0.269 7.22 29.58 6.79
8/31/2021 8:30:00 AM 23.53 74.354 0.268 7.22 25.37 6.79
8/31/2021 8:45:00 AM 23.57 74.426 0.268 7.22 26.26 6.8
8/31/2021 9:00:00 AM 23.61 74.498 0.267 7.21 19.02 6.88
8/31/2021 9:15:00 AM 23.68 74.624 0.267 7.21 19.47 6.95
8/31/2021 9:30:00 AM 23.72 74.696 0.266 7.21 15.16 6.98
8/31/2021 9:45:00 AM 23.76 74.768 0.267 7.21 14.4 7.05
8/31/2021 10:00:00 AM 23.79 74.82201 0.266 7.22 16.41 7.14
8/31/2021 10:15:00 AM 23.84 74.912 0.266 7.22 15.63 7.14
8/31/2021 10:30:00 AM 23.89 75.002 0.265 7.22 16.43 7.16
8/31/2021 10:45:00 AM 23.94 75.092 0.265 7.22 14.27 7.22
8/31/2021 11:00:00 AM 24.04 75.272 0.265 7.22 9.47 7.26
8/31/2021 11:15:00 AM 24.12 75.416 0.264 7.23 11.8 7.4
8/31/2021 11:30:00 AM 24.17 75.506 0.264 7.23 12.45 7.47
8/31/2021 11:45:00 AM 24.21 75.578 0.265 7.23 10.02 7.49
8/31/2021 12:00:00 PM 24.24 75.632 0.265 7.24 10.59 7.5
8/31/2021 12:15:00 PM 24.28 75.704 0.266 7.25 9.19 7.51
8/31/2021 12:30:00 PM 24.27 75.686 0.266 7.25 10.35 7.56
8/31/2021 12:45:00 PM 24.32 75.776 0.267 7.26 8.58 7.6
8/31/2021 1:00:00 PM 24.35 75.83 0.267 7.26 9.88 7.68
8/31/2021 1:15:00 PM 24.42 75.956 0.267 7.26 10.9 7.65
8/31/2021 1:30:00 PM 24.48 76.064 0.266 7.26 10.69 7.6
8/31/2021 1:45:00 PM 24.52 76.136 0.267 7.26 8.49 7.65
8/31/2021 2:00:00 PM 24.52 76.136 0.268 7.27 8.9 7.59
8/31/2021 2:15:00 PM 24.52 76.136 0.268 7.27 8.79 7.61
8/31/2021 2:30:00 PM 24.51 76.118 0.269 7.28 11.19 7.61
8/31/2021 2:45:00 PM 24.52 76.136 0.269 7.28 9.61 7.59
8/31/2021 3:00:00 PM 24.53 76.154 0.269 7.28 13.44 7.56
8/31/2021 3:15:00 PM 24.53 76.154 0.267 7.29 10 7.56
8/31/2021 3:30:00 PM 24.53 76.154 0.266 7.29 10.44 7.53
8/31/2021 3:45:00 PM 24.53 76.154 0.263 7.29 12.6 7.47
8/31/2021 4:00:00 PM 24.54 76.172 0.263 7.28 9.08 7.44
8/31/2021 4:15:00 PM 24.52 76.136 0.261 7.28 10.14 7.32
8/31/2021 4:30:00 PM 24.51 76.118 0.26 7.28 11.09 7.3
8/31/2021 4:45:00 PM 24.48 76.064 0.259 7.28 9.88 7.27
8/31/2021 5:00:00 PM 24.47 76.046 0.257 7.27 11.03 7.27
8/31/2021 5:15:00 PM 24.47 76.046 0.256 7.27 12.23 7.19
8/31/2021 5:30:00 PM 24.44 75.992 0.254 7.27 10.2 7.19
8/31/2021 5:45:00 PM 24.43 75.974 0.252 7.26 13.26 7.15
8/31/2021 6:00:00 PM 24.39 75.902 0.25 7.26 12.18 7.04
8/31/2021 6:15:00 PM 24.42 75.956 0.248 7.24 13.87 6.89
8/31/2021 6:30:00 PM 24.39 75.902 0.246 7.24 12.15 6.88
8/31/2021 6:45:00 PM 24.36 75.848 0.245 7.23 12.93 6.79
8/31/2021 7:00:00 PM 24.33 75.794 0.244 7.22 16.11 6.74
8/31/2021 7:15:00 PM 24.29 75.722 0.243 7.21 13.42 6.67
8/31/2021 7:30:00 PM 24.25 75.65 0.242 7.2 14.88 6.56
8/31/2021 7:45:00 PM 24.2 75.56 0.24 7.19 15.19 6.56
8/31/2021 8:00:00 PM 24.18 75.524 0.239 7.18 15.22 6.49
8/31/2021 8:15:00 PM 24.16 75.488 0.237 7.17 14.66 6.46
8/31/2021 8:30:00 PM 24.16 75.488 0.236 7.17 21.47 6.44
8/31/2021 8:45:00 PM 24.15 75.47 0.235 7.16 21.4 6.36
8/31/2021 9:00:00 PM 24.16 75.488 0.233 7.15 17.65 6.29
8/31/2021 9:15:00 PM 24.14 75.452 0.232 7.14 22.38 6.27
8/31/2021 9:30:00 PM 24.14 75.452 0.232 7.14 19.52 6.28
8/31/2021 9:45:00 PM 24.11 75.398 0.232 7.13 20.41 6.31
8/31/2021 10:00:00 PM 24.09 75.362 0.232 7.13 18.2 6.3
8/31/2021 10:15:00 PM 24.07 75.326 0.232 7.12 25.25 6.3
8/31/2021 10:30:00 PM 24.04 75.272 0.231 7.12 18.39 6.26
8/31/2021 10:45:00 PM 24.03 75.254 0.231 7.11 21.66 6.21
8/31/2021 11:00:00 PM 24.02 75.236 0.231 7.11 31.23 6.12
8/31/2021 11:15:00 PM 24.02 75.236 0.231 7.1 21.49 6.09
8/31/2021 11:30:00 PM 23.99 75.182 0.231 7.09 21.5 6.09
8/31/2021 11:45:00 PM 23.98 75.164 0.232 7.08 20.18 6.05
9/1/2021 12:00:00 AM 23.95 75.11 0.233 7.07 22.26 6.04
9/1/2021 12:15:00 AM 23.91 75.038 0.234 7.07 21.57 6.02
9/1/2021 12:30:00 AM 23.89 75.002 0.233 7.06 24.28 6.03
9/1/2021 12:45:00 AM 23.86 74.948 0.233 7.05 20.34 6
9/1/2021 1:00:00 AM 23.86 74.948 0.234 7.05 24.25 5.99
9/1/2021 1:15:00 AM 23.86 74.948 0.233 7.05 21.77 6.01
9/1/2021 1:30:00 AM 23.86 74.948 0.233 7.05 22.91 6.02
9/1/2021 1:45:00 AM 23.87 74.966 0.233 7.04 23.52 5.98
9/1/2021 2:00:00 AM 23.87 74.966 0.233 7.04 25.11 5.98
9/1/2021 2:15:00 AM 23.86 74.948 0.234 7.04 26.23 6.05
9/1/2021 2:30:00 AM 23.83 74.894 0.235 7.04 22.24 6.08
9/1/2021 2:45:00 AM 23.81 74.858 0.236 7.04 21 6.08
9/1/2021 3:00:00 AM 23.79 74.82201 0.237 7.04 20.24 6.1
9/1/2021 3:15:00 AM 23.75 74.75 0.236 7.04 24.82 6.11
9/1/2021 3:30:00 AM 23.73 74.714 0.236 7.04 20.51 6.15
9/1/2021 3:45:00 AM 23.73 74.714 0.236 7.04 23.89 6.13
9/1/2021 4:00:00 AM 23.73 74.714 0.236 7.04 21.23 6.13
9/1/2021 4:15:00 AM 23.75 74.75 0.236 7.04 23.44 6.06
9/1/2021 4:30:00 AM 23.69 74.642 0.237 7.03 26.77 6.15
9/1/2021 4:45:00 AM 23.65 74.57 0.238 7.04 25.38 6.18
9/1/2021 5:00:00 AM 23.6 74.48 0.239 7.03 26.32 6.15
9/1/2021 5:15:00 AM 23.57 74.426 0.239 7.03 24.48 6.21
9/1/2021 5:30:00 AM 23.53 74.354 0.239 7.03 27.53 6.2
9/1/2021 5:45:00 AM 23.48 74.264 0.238 7.04 31.7 6.29
9/1/2021 6:00:00 AM 23.47 74.246 0.237 7.03 30.84 6.35
9/1/2021 6:15:00 AM 23.43 74.174 0.235 7.04 36.18 6.45
9/1/2021 6:30:00 AM 23.36 74.048 0.232 7.04 39.31 6.58
9/1/2021 6:45:00 AM 23.23 73.814 0.229 7.04 53.37 6.76
9/1/2021 7:00:00 AM 23.16 73.688 0.228 7.05 61.61 6.72
9/1/2021 7:15:00 AM 23.26 73.868 0.227 7.05 65.24 6.54
9/1/2021 7:30:00 AM 23.01 73.418 0.237 7.03 205.5 6.48
9/1/2021 7:45:00 AM 22.24 72.032 0.233 7.05 290.6 7.09
9/1/2021 8:00:00 AM 22.03 71.654 0.207 7.08 327.6 7.35
9/1/2021 8:15:00 AM 22.12 71.816 0.201 7.09 304.8 7.29
9/1/2021 8:30:00 AM 22.17 71.906 0.198 7.1 236.8 7.25
9/1/2021 8:45:00 AM 22.19 71.942 0.194 7.09 193.4 7.2
9/1/2021 9:00:00 AM 22.18 71.924 0.192 7.1 135.2 7.26
9/1/2021 9:15:00 AM 22.09 71.762 0.191 7.1 137 7.33
9/1/2021 9:30:00 AM 22.05 71.69 0.189 7.1 138.4 7.28
9/1/2021 9:45:00 AM 22.06 71.708 0.188 7.11 114.4 7.28
9/1/2021 10:00:00 AM 22.04 71.672 0.189 7.1 117.7 7.23
9/1/2021 10:15:00 AM 22.03 71.654 0.192 7.11 114.6 7.26
9/1/2021 10:30:00 AM 21.95 71.51 0.195 7.11 143.5 7.36
9/1/2021 10:45:00 AM 21.82 71.276 0.194 7.12 169.8 7.46
9/1/2021 11:00:00 AM 21.75 71.15 0.195 7.13 203.6 7.58
9/1/2021 11:15:00 AM 21.69 71.042 0.195 7.15 214.5 7.63
9/1/2021 11:30:00 AM 21.62 70.916 0.191 7.18 227.1 7.62
9/1/2021 11:45:00 AM 21.57 70.826 0.186 7.2 240.7 7.62
9/1/2021 12:00:00 PM 21.51 70.718 0.185 7.21 298.4 7.62
9/1/2021 12:15:00 PM 21.44 70.592 0.183 7.22 340.6 7.51
9/1/2021 12:30:00 PM 21.37 70.466 0.177 7.22 498.5 7.58
9/1/2021 12:45:00 PM 21.31 70.358 0.168 7.22 536.9 7.55
9/1/2021 1:00:00 PM 21.29 70.32201 0.164 7.19 552.8 7.52
9/1/2021 1:15:00 PM 21.26 70.268 0.165 7.18 588.1 7.39
9/1/2021 1:30:00 PM 21.23 70.214 0.166 7.18 627 7.25
9/1/2021 1:45:00 PM 21.21 70.17799 0.166 7.16 743.5 7.16
9/1/2021 2:00:00 PM 21.16 70.088 0.168 7.14 688.8 7.02
9/1/2021 2:15:00 PM 21.11 69.998 0.167 7.13 804 6.96
9/1/2021 2:30:00 PM 21.11 69.998 0.163 7.12 746.7 6.95
9/1/2021 2:45:00 PM 21.14 70.052 0.161 7.12 743 6.91
9/1/2021 3:00:00 PM 21.12 70.016 0.157 7.11 665.6 6.98
9/1/2021 3:15:00 PM 21.13 70.034 0.149 7.09 727.3 7.05
9/1/2021 3:30:00 PM 21.09 69.962 0.139 7.08 778.8 7.13
9/1/2021 3:45:00 PM 21.1 69.98 0.13 7.06 812.7 7.16
9/1/2021 4:00:00 PM 21.09 69.962 0.123 7.04 829.4 7.33
9/1/2021 4:15:00 PM 21.11 69.998 0.115 7.02 892.1 7.44
9/1/2021 4:30:00 PM 21.16 70.088 0.111 7.01 753.7 7.52
9/1/2021 4:45:00 PM 21.14 70.052 0.111 6.99 665.5 7.59
9/1/2021 5:00:00 PM 21.1 69.98 0.111 6.99 684.2 7.67
9/1/2021 5:15:00 PM 21.03 69.854 0.111 6.98 563.6 7.69
9/1/2021 5:30:00 PM 21 69.8 0.102 7 645.7 7.79
9/1/2021 5:45:00 PM 21.45 70.61 0.104 6.98 922 7.64
9/1/2021 6:00:00 PM 23.86 74.948 0.141 7.12 530.2 7.57
9/1/2021 6:15:00 PM 25.02 77.036 0.164 7.59 283.2 7.67
9/1/2021 6:30:00 PM 25.39 77.702 0.174 8.22 199.2 7.72
9/1/2021 6:45:00 PM 25.7 78.26 0.178 8.68 141.6 7.7
9/1/2021 7:00:00 PM 25.95 78.71 0.187 8.88 110.4 7.57
9/1/2021 7:15:00 PM 26.11 78.998 0.198 8.95 85 7.52
9/1/2021 7:30:00 PM 26.3 79.34 0.204 8.95 69.58 7.48
9/1/2021 7:45:00 PM 26.36 79.448 0.208 8.92 64.19 7.45
9/1/2021 8:00:00 PM 26.37 79.466 0.209 8.9 57.55 7.39
9/1/2021 8:15:00 PM 26.39 79.502 0.209 8.89 53.2 7.39
9/1/2021 8:30:00 PM 26.43 79.574 0.209 8.9 48.11 7.44
9/1/2021 8:45:00 PM 26.46 79.628 0.208 8.92 43.05 7.41
9/1/2021 9:00:00 PM 26.51 79.718 0.21 8.94 41.24 7.49
9/1/2021 9:15:00 PM 26.53 79.754 0.212 8.94 36.03 7.45
9/1/2021 9:30:00 PM 26.55 79.79 0.211 8.95 33.53 7.43
9/1/2021 9:45:00 PM 26.49 79.682 0.212 8.95 34.72 7.47
9/1/2021 10:00:00 PM 26.48 79.664 0.213 8.95 33.18 7.54
9/1/2021 10:15:00 PM 26.52 79.736 0.214 8.96 30.09 7.5
9/1/2021 10:30:00 PM 26.52 79.736 0.215 8.97 29.52 7.51
9/1/2021 10:45:00 PM 26.48 79.664 0.215 8.97 27.88 7.52
9/1/2021 11:00:00 PM 26.42 79.556 0.215 8.91 27.94 7.49
9/1/2021 11:15:00 PM 26.26 79.268 0.214 8.83 29.3 7.45
9/1/2021 11:30:00 PM 26.15 79.07 0.214 8.78 29.25 7.49
9/1/2021 11:45:00 PM 25.97 78.746 0.214 8.79 30.37 7.6
9/2/2021 12:00:00 AM 25.82 78.476 0.216 8.79 27.05 7.68
9/2/2021 12:15:00 AM 25.63 78.134 0.218 8.8 27.05 7.8
9/2/2021 12:30:00 AM 25.51 77.918 0.219 8.77 27.47 7.83
9/2/2021 12:45:00 AM 25.42 77.756 0.22 8.73 25.69 7.87
9/2/2021 1:00:00 AM 25.31 77.558 0.22 8.68 26.38 7.86
9/2/2021 1:15:00 AM 25.18 77.324 0.219 8.64 29.03 7.86
9/2/2021 1:30:00 AM 25.15 77.27 0.22 8.6 26.39 7.88
9/2/2021 1:45:00 AM 25.1 77.18 0.221 8.56 25.38 7.88
9/2/2021 2:00:00 AM 24.86 76.748 0.219 8.51 30.23 7.89
9/2/2021 2:15:00 AM 24.9 76.82 0.222 8.45 28.87 7.86
9/2/2021 2:30:00 AM 24.78 76.604 0.22 8.4 29.25 7.89
9/2/2021 2:45:00 AM 24.71 76.478 0.22 8.35 26.82 7.89
9/2/2021 3:00:00 AM 24.65 76.37 0.22 8.3 28.98 7.89
9/2/2021 3:15:00 AM 24.48 76.064 0.219 8.26 32.03 7.88
9/2/2021 3:30:00 AM 24.55 76.19 0.222 8.22 30.26 7.89
9/2/2021 3:45:00 AM 24.38 75.884 0.219 8.18 33.23 7.87
9/2/2021 4:00:00 AM 24.44 75.992 0.22 8.14 32.22 7.87
9/2/2021 4:15:00 AM 24.27 75.686 0.215 8.11 40.05 7.83
9/2/2021 4:30:00 AM 24.4 75.92 0.22 8.09 32.61 7.81
9/2/2021 4:45:00 AM 24.4 75.92 0.222 8.07 31.23 7.79
9/2/2021 5:00:00 AM 24.43 75.974 0.222 8.07 27.89 7.84
9/2/2021 5:15:00 AM 24.25 75.65 0.218 8.06 32.93 7.84
9/2/2021 5:30:00 AM 23.84 74.912 0.213 8.06 37.38 7.88
9/2/2021 5:45:00 AM 23.74 74.732 0.213 8.02 38.26 7.85
9/2/2021 6:00:00 AM 23.19 73.742 0.203 8.01 45.06 7.87
9/2/2021 6:15:00 AM 23.79 74.82201 0.217 7.93 40.88 7.81
9/2/2021 6:30:00 AM 23.49 74.282 0.212 7.91 42.92 7.85
9/2/2021 6:45:00 AM 23.39 74.102 0.215 7.86 52.35 7.84
9/2/2021 7:00:00 AM 23.26 73.868 0.212 7.82 55.85 7.85
9/2/2021 7:15:00 AM 23.34 74.012 0.212 7.79 51.7 7.86
9/2/2021 7:30:00 AM 23.72 74.696 0.221 7.78 40.59 7.77
9/2/2021 7:45:00 AM 23.11 73.598 0.215 7.74 64.19 7.79
9/2/2021 8:00:00 AM 22.76 72.968 0.212 7.69 83.69 7.78
9/2/2021 8:15:00 AM 22.67 72.806 0.211 7.66 60.42 7.83
9/2/2021 8:30:00 AM 22.75 72.95 0.212 7.62 68.11 7.79
9/2/2021 8:45:00 AM 22.59 72.662 0.212 7.61 64.15 7.89
9/2/2021 9:00:00 AM 22.43 72.374 0.209 7.59 64.25 7.93
9/2/2021 9:15:00 AM 22.49 72.482